Hoppmann, Mario; Tippenhauer, Sandra; Badewien, Thomas Henry (2026): Continuous thermosalinograph oceanography along RV HEINCKE cruise track HE667 [dataset]. Alfred Wegener Institute, Helmholtz Centre for Polar and Marine Research, Bremerhaven, PANGAEA, https://doi.pangaea.de/10.1594/PANGAEA.993571 (DOI registration in progress)
Always quote citation above when using data! You can download the citation in several formats below.
Published: 2026-05-05
Abstract:
Raw data acquired by a thermosalinograph (SBE21, Sea-Bird GmbH) in combination with an external temperature sensor (SBE38, Sea-Bird GmbH) aboard RV Heincke were processed to generate a calibrated, quality-controlled dataset of seawater temperature and salinity. The raw sensor data were initially retrieved from the DSHIP database (https://dship.awi.de) at a temporal resolution of 1 second and converted into temperature and conductivity using the pre-deployment calibration coefficients. The thermosalinograph system aboard RV Heincke is typically replaced after each expedition season, with a recalibration conducted at the manufacturer's facilities after each exchange. After post-cruise recalibration of the instruments, additional correction factors were calculated and applied to account for sensor drift. Salinity was calculated from internally measured temperatures and conductivities following the Practical Salinity Scale (PSS-78). The processed dataset is provided as 1-minute averages of salinity and seawater external temperature, synchronized with the positional data from the expedition's master track. Quality flags were assigned in accordance with the SeaDataNet Data Quality Control Procedures (May 2010).
Related to:
Badewien, Thomas Henry (2025): Master tracks in different resolutions of HEINCKE cruise HE667, Bremerhaven - Bremerhaven, 2025-09-07 - 2025-09-22 [dataset]. Alfred Wegener Institute, Helmholtz Centre for Polar and Marine Research, Bremerhaven, PANGAEA, https://doi.org/10.1594/PANGAEA.986329
Data processing report:
Hoppmann, Mario; Tippenhauer, Sandra (2026): Continuous thermosalinograph oceanography along RV HEINCKE cruise track HE667 - Data Processing Report. FIELAX - Gesellschaft für wissenschaftliche Datenverarbeitung mbH, HE667_TSG_nav.pdf
Project(s):
DAM Underway Research Data (DAM_Underway)
Physical Oceanography @ AWI (AWI_PhyOce)
Coverage:
Median Latitude: 57.473480 * Median Longitude: 8.938998 * South-bound Latitude: 53.874609 * West-bound Longitude: 7.278884 * North-bound Latitude: 58.366963 * East-bound Longitude: 10.314661
Date/Time Start: 2025-09-07T11:36:00 * Date/Time End: 2025-09-22T00:31:00
Minimum DEPTH, water: 2.0 m * Maximum DEPTH, water: 2.0 m
Event(s):
HE667_0_Underway-6 * Latitude Start: 53.864309 * Longitude Start: 8.122360 * Latitude End: 53.873347 * Longitude End: 8.109903 * Date/Time Start: 2025-09-07T11:31:54 * Date/Time End: 2025-09-22T00:32:52 * Elevation Start: -12.0 m * Elevation End: -17.0 m * O2A Registry URI: https://registry.o2a-data.de/items/8558 * Campaign: HE667 (SkaMix) * Basis: Heincke * Method/Device: Thermosalinograph (TSG) * Comment: interrupted during DKHIR
Parameter(s):
License:
Creative Commons Attribution 4.0 International (CC-BY-4.0)
Status:
Curation Level: Enhanced curation (CurationLevelC) * Processing Level: PANGAEA data processing level 2 (ProcLevel2)
Size:
86298 data points
Data
| 1 Date/Time | 2 Latitude | 3 Longitude | 4 Depth water [m] | 5 Temp [°C] | 6 QF water temp | 7 Cond [mS/cm] | 8 T intern [°C] | 9 Sal | 10 QF sal |
|---|---|---|---|---|---|---|---|---|---|
| 2025-09-07T11:36:00 | 53.874609 | 8.112983 | 2.0 | 18.897 | 2 | 43.029 | 19.210 | 31.616 | 2 |
| 2025-09-07T11:37:00 | 53.877221 | 8.110758 | 2.0 | 18.893 | 2 | 43.168 | 19.110 | 31.806 | 2 |
| 2025-09-07T11:38:00 | 53.879578 | 8.107904 | 2.0 | 18.902 | 2 | 43.198 | 19.092 | 31.845 | 2 |
| 2025-09-07T11:39:00 | 53.881060 | 8.103661 | 2.0 | 18.883 | 2 | 43.234 | 19.083 | 31.881 | 2 |
| 2025-09-07T11:40:00 | 53.882473 | 8.099255 | 2.0 | 18.878 | 2 | 43.244 | 19.069 | 31.900 | 2 |
| 2025-09-07T11:41:00 | 53.883993 | 8.094874 | 2.0 | 18.870 | 2 | 43.274 | 19.058 | 31.934 | 2 |
| 2025-09-07T11:42:00 | 53.885507 | 8.090452 | 2.0 | 18.853 | 2 | 43.306 | 19.041 | 31.973 | 2 |
| 2025-09-07T11:43:00 | 53.887031 | 8.086042 | 2.0 | 18.844 | 2 | 43.330 | 19.029 | 32.002 | 2 |
| 2025-09-07T11:44:00 | 53.888522 | 8.081576 | 2.0 | 18.827 | 2 | 43.337 | 19.014 | 32.019 | 2 |
| 2025-09-07T11:45:00 | 53.890030 | 8.077084 | 2.0 | 18.841 | 2 | 43.342 | 19.002 | 32.033 | 2 |
| 2025-09-07T11:46:00 | 53.891497 | 8.072543 | 2.0 | 18.836 | 2 | 43.367 | 19.013 | 32.045 | 2 |
| 2025-09-07T11:47:00 | 53.893013 | 8.068067 | 2.0 | 18.838 | 2 | 43.377 | 19.008 | 32.057 | 2 |
| 2025-09-07T11:48:00 | 53.894468 | 8.063514 | 2.0 | 18.838 | 2 | 43.386 | 19.007 | 32.065 | 2 |
| 2025-09-07T11:49:00 | 53.895958 | 8.058957 | 2.0 | 18.848 | 2 | 43.407 | 19.015 | 32.076 | 2 |
| 2025-09-07T11:50:00 | 53.897464 | 8.054382 | 2.0 | 18.855 | 2 | 43.419 | 19.020 | 32.083 | 2 |
| 2025-09-07T11:51:00 | 53.898970 | 8.049779 | 2.0 | 18.840 | 2 | 43.422 | 19.019 | 32.086 | 2 |
| 2025-09-07T11:52:00 | 53.900484 | 8.045177 | 2.0 | 18.856 | 2 | 43.420 | 19.013 | 32.089 | 2 |
| 2025-09-07T11:53:00 | 53.902110 | 8.040723 | 2.0 | 18.858 | 2 | 43.435 | 19.027 | 32.090 | 2 |
| 2025-09-07T11:54:00 | 53.903931 | 8.036430 | 2.0 | 18.855 | 2 | 43.435 | 19.022 | 32.094 | 2 |
| 2025-09-07T11:55:00 | 53.905734 | 8.032062 | 2.0 | 18.848 | 2 | 43.441 | 19.021 | 32.100 | 2 |
| 2025-09-07T11:56:00 | 53.907530 | 8.027704 | 2.0 | 18.846 | 2 | 43.443 | 19.015 | 32.106 | 2 |
| 2025-09-07T11:57:00 | 53.909338 | 8.023338 | 2.0 | 18.853 | 2 | 43.452 | 19.018 | 32.111 | 2 |
| 2025-09-07T11:58:00 | 53.911143 | 8.018947 | 2.0 | 18.853 | 2 | 43.463 | 19.020 | 32.119 | 2 |
| 2025-09-07T11:59:00 | 53.912974 | 8.014587 | 2.0 | 18.831 | 2 | 43.457 | 19.016 | 32.117 | 2 |
| 2025-09-07T12:00:00 | 53.914785 | 8.010215 | 2.0 | 18.846 | 2 | 43.433 | 19.005 | 32.106 | 2 |
| 2025-09-07T12:01:00 | 53.916592 | 8.005826 | 2.0 | 18.856 | 2 | 43.438 | 19.014 | 32.103 | 2 |
| 2025-09-07T12:02:00 | 53.918440 | 8.001459 | 2.0 | 18.869 | 2 | 43.451 | 19.025 | 32.105 | 2 |
| 2025-09-07T12:03:00 | 53.920244 | 7.997018 | 2.0 | 18.865 | 2 | 43.467 | 19.034 | 32.111 | 2 |
| 2025-09-07T12:04:00 | 53.922120 | 7.992663 | 2.0 | 18.869 | 2 | 43.470 | 19.033 | 32.115 | 2 |
| 2025-09-07T12:05:00 | 53.924397 | 7.989006 | 2.0 | 18.873 | 2 | 43.475 | 19.038 | 32.115 | 2 |
| 2025-09-07T12:06:00 | 53.926940 | 7.986031 | 2.0 | 18.883 | 2 | 43.477 | 19.043 | 32.113 | 2 |
| 2025-09-07T12:07:00 | 53.929638 | 7.983469 | 2.0 | 18.881 | 2 | 43.481 | 19.049 | 32.111 | 2 |
| 2025-09-07T12:08:00 | 53.932309 | 7.980795 | 2.0 | 18.878 | 2 | 43.475 | 19.048 | 32.107 | 2 |
| 2025-09-07T12:09:00 | 53.934976 | 7.978112 | 2.0 | 18.878 | 2 | 43.467 | 19.042 | 32.105 | 2 |
| 2025-09-07T12:10:00 | 53.937623 | 7.975373 | 2.0 | 18.871 | 2 | 43.459 | 19.038 | 32.102 | 2 |
| 2025-09-07T12:11:00 | 53.940277 | 7.972687 | 2.0 | 18.866 | 2 | 43.461 | 19.038 | 32.103 | 2 |
| 2025-09-07T12:12:00 | 53.942945 | 7.970064 | 2.0 | 18.863 | 2 | 43.458 | 19.033 | 32.105 | 2 |
| 2025-09-07T12:13:00 | 53.945571 | 7.967323 | 2.0 | 18.851 | 2 | 43.457 | 19.028 | 32.108 | 2 |
| 2025-09-07T12:14:00 | 53.948205 | 7.964656 | 2.0 | 18.859 | 2 | 43.461 | 19.021 | 32.116 | 2 |
| 2025-09-07T12:15:00 | 53.950821 | 7.961933 | 2.0 | 18.852 | 2 | 43.472 | 19.022 | 32.125 | 2 |
| 2025-09-07T12:16:00 | 53.953468 | 7.959289 | 2.0 | 18.848 | 2 | 43.470 | 19.019 | 32.125 | 2 |
| 2025-09-07T12:17:00 | 53.956114 | 7.956620 | 2.0 | 18.855 | 2 | 43.472 | 19.018 | 32.128 | 2 |
| 2025-09-07T12:18:00 | 53.958753 | 7.953951 | 2.0 | 18.856 | 2 | 43.483 | 19.021 | 32.135 | 2 |
| 2025-09-07T12:19:00 | 53.961357 | 7.951222 | 2.0 | 18.856 | 2 | 43.498 | 19.024 | 32.145 | 2 |
| 2025-09-07T12:20:00 | 53.964000 | 7.948590 | 2.0 | 18.850 | 2 | 43.504 | 19.019 | 32.153 | 2 |
| 2025-09-07T12:21:00 | 53.966618 | 7.945882 | 2.0 | 18.856 | 2 | 43.510 | 19.017 | 32.160 | 2 |
| 2025-09-07T12:22:00 | 53.969270 | 7.943255 | 2.0 | 18.849 | 2 | 43.515 | 19.022 | 32.160 | 2 |
| 2025-09-07T12:23:00 | 53.971877 | 7.940561 | 2.0 | 18.850 | 2 | 43.505 | 19.009 | 32.162 | 2 |
| 2025-09-07T12:24:00 | 53.974480 | 7.937892 | 2.0 | 18.842 | 2 | 43.515 | 19.015 | 32.166 | 2 |
| 2025-09-07T12:25:00 | 53.977094 | 7.935268 | 2.0 | 18.833 | 2 | 43.513 | 19.004 | 32.173 | 2 |
| 2025-09-07T12:26:00 | 53.979712 | 7.932606 | 2.0 | 18.825 | 2 | 43.512 | 19.000 | 32.175 | 2 |
| 2025-09-07T12:27:00 | 53.982324 | 7.929957 | 2.0 | 18.825 | 2 | 43.512 | 18.994 | 32.179 | 2 |
| 2025-09-07T12:28:00 | 53.984907 | 7.927243 | 2.0 | 18.835 | 2 | 43.517 | 18.993 | 32.184 | 2 |
| 2025-09-07T12:29:00 | 53.987524 | 7.924630 | 2.0 | 18.838 | 2 | 43.534 | 19.001 | 32.192 | 2 |
| 2025-09-07T12:30:00 | 53.990145 | 7.921989 | 2.0 | 18.816 | 2 | 43.544 | 18.999 | 32.202 | 2 |
| 2025-09-07T12:31:00 | 53.992793 | 7.919432 | 2.0 | 18.820 | 2 | 43.536 | 18.982 | 32.209 | 2 |
| 2025-09-07T12:32:00 | 53.995424 | 7.916838 | 2.0 | 18.819 | 2 | 43.550 | 18.986 | 32.217 | 2 |
| 2025-09-07T12:33:00 | 53.998049 | 7.914239 | 2.0 | 18.823 | 2 | 43.561 | 18.986 | 32.226 | 2 |
| 2025-09-07T12:34:00 | 54.000680 | 7.911707 | 2.0 | 18.827 | 2 | 43.571 | 18.988 | 32.233 | 2 |
| 2025-09-07T12:35:00 | 54.003268 | 7.909046 | 2.0 | 18.827 | 2 | 43.588 | 18.993 | 32.243 | 2 |
| 2025-09-07T12:36:00 | 54.005897 | 7.906532 | 2.0 | 18.825 | 2 | 43.596 | 18.991 | 32.251 | 2 |
| 2025-09-07T12:37:00 | 54.008513 | 7.903984 | 2.0 | 18.824 | 2 | 43.601 | 18.990 | 32.256 | 2 |
| 2025-09-07T12:38:00 | 54.011127 | 7.901353 | 2.0 | 18.841 | 2 | 43.612 | 18.993 | 32.263 | 2 |
| 2025-09-07T12:39:00 | 54.013760 | 7.898755 | 2.0 | 18.851 | 2 | 43.634 | 19.008 | 32.269 | 2 |
| 2025-09-07T12:40:00 | 54.016411 | 7.896190 | 2.0 | 18.850 | 2 | 43.645 | 19.015 | 32.273 | 2 |
| 2025-09-07T12:41:00 | 54.019047 | 7.893600 | 2.0 | 18.843 | 2 | 43.643 | 19.014 | 32.272 | 2 |
| 2025-09-07T12:42:00 | 54.021682 | 7.890985 | 2.0 | 18.820 | 2 | 43.636 | 19.009 | 32.270 | 2 |
| 2025-09-07T12:43:00 | 54.024338 | 7.888438 | 2.0 | 18.820 | 2 | 43.618 | 18.989 | 32.271 | 2 |
| 2025-09-07T12:44:00 | 54.026952 | 7.885805 | 2.0 | 18.821 | 2 | 43.609 | 18.983 | 32.268 | 2 |
| 2025-09-07T12:45:00 | 54.029605 | 7.883214 | 2.0 | 18.833 | 2 | 43.610 | 18.990 | 32.264 | 2 |
| 2025-09-07T12:46:00 | 54.032228 | 7.880604 | 2.0 | 18.837 | 2 | 43.615 | 19.000 | 32.260 | 2 |
| 2025-09-07T12:47:00 | 54.034888 | 7.878098 | 2.0 | 18.846 | 2 | 43.614 | 19.004 | 32.256 | 2 |
| 2025-09-07T12:48:00 | 54.037501 | 7.875442 | 2.0 | 18.855 | 2 | 43.622 | 19.014 | 32.255 | 2 |
| 2025-09-07T12:49:00 | 54.040160 | 7.872914 | 2.0 | 18.862 | 2 | 43.632 | 19.021 | 32.258 | 2 |
| 2025-09-07T12:50:00 | 54.042815 | 7.870373 | 2.0 | 18.858 | 2 | 43.637 | 19.024 | 32.259 | 2 |
| 2025-09-07T12:51:00 | 54.045427 | 7.867734 | 2.0 | 18.864 | 2 | 43.638 | 19.024 | 32.260 | 2 |
| 2025-09-07T12:52:00 | 54.048064 | 7.865154 | 2.0 | 18.868 | 2 | 43.645 | 19.030 | 32.261 | 2 |
| 2025-09-07T12:53:00 | 54.050703 | 7.862553 | 2.0 | 18.866 | 2 | 43.652 | 19.033 | 32.265 | 2 |
| 2025-09-07T12:54:00 | 54.053364 | 7.860012 | 2.0 | 18.858 | 2 | 43.653 | 19.030 | 32.268 | 2 |
| 2025-09-07T12:55:00 | 54.055995 | 7.857418 | 2.0 | 18.860 | 2 | 43.647 | 19.023 | 32.268 | 2 |
| 2025-09-07T12:56:00 | 54.058619 | 7.854766 | 2.0 | 18.856 | 2 | 43.644 | 19.022 | 32.267 | 2 |
| 2025-09-07T12:57:00 | 54.061276 | 7.852253 | 2.0 | 18.877 | 2 | 43.640 | 19.022 | 32.263 | 2 |
| 2025-09-07T12:58:00 | 54.063910 | 7.849585 | 2.0 | 18.903 | 2 | 43.673 | 19.046 | 32.272 | 2 |
| 2025-09-07T12:59:00 | 54.066585 | 7.847011 | 2.0 | 18.914 | 2 | 43.706 | 19.067 | 32.283 | 2 |
| 2025-09-07T13:00:00 | 54.069237 | 7.844334 | 2.0 | 18.919 | 2 | 43.731 | 19.078 | 32.295 | 2 |
| 2025-09-07T13:01:00 | 54.071897 | 7.841666 | 2.0 | 18.924 | 2 | 43.752 | 19.082 | 32.309 | 2 |
| 2025-09-07T13:02:00 | 54.074582 | 7.839077 | 2.0 | 18.916 | 2 | 43.771 | 19.085 | 32.323 | 2 |
| 2025-09-07T13:03:00 | 54.077243 | 7.836442 | 2.0 | 18.873 | 2 | 43.784 | 19.075 | 32.341 | 2 |
| 2025-09-07T13:04:00 | 54.079919 | 7.833881 | 2.0 | 18.876 | 2 | 43.787 | 19.042 | 32.369 | 2 |
| 2025-09-07T13:05:00 | 54.082566 | 7.831250 | 2.0 | 18.896 | 2 | 43.800 | 19.043 | 32.379 | 2 |
| 2025-09-07T13:06:00 | 54.085230 | 7.828529 | 2.0 | 18.889 | 2 | 43.819 | 19.058 | 32.383 | 2 |
| 2025-09-07T13:07:00 | 54.087939 | 7.825925 | 2.0 | 18.831 | 2 | 43.828 | 19.041 | 32.404 | 2 |
| 2025-09-07T13:08:00 | 54.090639 | 7.823303 | 2.0 | 18.845 | 2 | 43.829 | 19.006 | 32.432 | 2 |
| 2025-09-07T13:09:00 | 54.093233 | 7.820380 | 2.0 | 18.827 | 2 | 43.847 | 19.011 | 32.443 | 2 |
| 2025-09-07T13:10:00 | 54.095856 | 7.817479 | 2.0 | 18.808 | 2 | 43.851 | 18.986 | 32.466 | 2 |
| 2025-09-07T13:11:00 | 54.098477 | 7.814666 | 2.0 | 18.812 | 2 | 43.858 | 18.978 | 32.478 | 2 |
| 2025-09-07T13:12:00 | 54.101065 | 7.811719 | 2.0 | 18.802 | 2 | 43.863 | 18.975 | 32.485 | 2 |
| 2025-09-07T13:13:00 | 54.103689 | 7.808855 | 2.0 | 18.800 | 2 | 43.868 | 18.970 | 32.493 | 2 |
| 2025-09-07T13:14:00 | 54.106307 | 7.805962 | 2.0 | 18.790 | 2 | 43.878 | 18.964 | 32.506 | 2 |
| 2025-09-07T13:15:00 | 54.108921 | 7.803069 | 2.0 | 18.776 | 2 | 43.885 | 18.951 | 32.522 | 2 |
| 2025-09-07T13:16:00 | 54.111527 | 7.800217 | 2.0 | 18.740 | 2 | 43.891 | 18.945 | 32.531 | 2 |
| 2025-09-07T13:17:00 | 54.114133 | 7.797254 | 2.0 | 18.676 | 2 | 43.862 | 18.894 | 32.547 | 2 |
| 2025-09-07T13:18:00 | 54.116779 | 7.794376 | 2.0 | 18.679 | 2 | 43.824 | 18.852 | 32.549 | 2 |
| 2025-09-07T13:19:00 | 54.119403 | 7.791437 | 2.0 | 18.659 | 2 | 43.815 | 18.840 | 32.551 | 2 |
| 2025-09-07T13:20:00 | 54.122045 | 7.788535 | 2.0 | 18.623 | 2 | 43.798 | 18.820 | 32.552 | 2 |
| 2025-09-07T13:21:00 | 54.124696 | 7.785645 | 2.0 | 18.621 | 2 | 43.770 | 18.792 | 32.551 | 2 |
| 2025-09-07T13:22:00 | 54.127321 | 7.782739 | 2.0 | 18.613 | 2 | 43.768 | 18.789 | 32.552 | 2 |
| 2025-09-07T13:23:00 | 54.129932 | 7.779781 | 2.0 | 18.604 | 2 | 43.762 | 18.780 | 32.554 | 2 |
| 2025-09-07T13:24:00 | 54.132564 | 7.776906 | 2.0 | 18.602 | 2 | 43.759 | 18.772 | 32.558 | 2 |
| 2025-09-07T13:25:00 | 54.135199 | 7.773946 | 2.0 | 18.598 | 2 | 43.758 | 18.768 | 32.560 | 2 |
| 2025-09-07T13:26:00 | 54.137837 | 7.771016 | 2.0 | 18.588 | 2 | 43.753 | 18.759 | 32.563 | 2 |
| 2025-09-07T13:27:00 | 54.140496 | 7.768165 | 2.0 | 18.597 | 2 | 43.756 | 18.753 | 32.570 | 2 |
| 2025-09-07T13:28:00 | 54.143127 | 7.765237 | 2.0 | 18.622 | 2 | 43.781 | 18.767 | 32.580 | 2 |
| 2025-09-07T13:29:00 | 54.145743 | 7.762282 | 2.0 | 18.631 | 2 | 43.817 | 18.789 | 32.593 | 2 |
| 2025-09-07T13:30:00 | 54.148403 | 7.759365 | 2.0 | 18.636 | 2 | 43.835 | 18.796 | 32.602 | 2 |
| 2025-09-07T13:31:00 | 54.151066 | 7.756453 | 2.0 | 18.650 | 2 | 43.846 | 18.805 | 32.604 | 2 |
| 2025-09-07T13:32:00 | 54.153701 | 7.753492 | 2.0 | 18.657 | 2 | 43.869 | 18.817 | 32.614 | 2 |
| 2025-09-07T13:33:00 | 54.156347 | 7.750558 | 2.0 | 18.662 | 2 | 43.886 | 18.825 | 32.622 | 2 |
| 2025-09-07T13:34:00 | 54.159011 | 7.747635 | 2.0 | 18.667 | 2 | 43.896 | 18.828 | 32.627 | 2 |
| 2025-09-07T13:35:00 | 54.161679 | 7.744750 | 2.0 | 18.682 | 2 | 43.911 | 18.836 | 32.634 | 2 |
| 2025-09-07T13:36:00 | 54.164302 | 7.741738 | 2.0 | 18.683 | 2 | 43.934 | 18.848 | 32.643 | 2 |
| 2025-09-07T13:37:00 | 54.166968 | 7.738835 | 2.0 | 18.678 | 2 | 43.942 | 18.847 | 32.651 | 2 |
| 2025-09-07T13:38:00 | 54.169614 | 7.735894 | 2.0 | 18.672 | 2 | 43.948 | 18.844 | 32.658 | 2 |
| 2025-09-07T13:39:00 | 54.172266 | 7.732964 | 2.0 | 18.680 | 2 | 43.950 | 18.838 | 32.664 | 2 |
| 2025-09-07T13:40:00 | 54.174902 | 7.730041 | 2.0 | 18.686 | 2 | 43.966 | 18.845 | 32.672 | 2 |
| 2025-09-07T13:41:00 | 54.177563 | 7.727156 | 2.0 | 18.678 | 2 | 43.986 | 18.850 | 32.685 | 2 |
| 2025-09-07T13:42:00 | 54.180203 | 7.724184 | 2.0 | 18.670 | 2 | 43.984 | 18.844 | 32.688 | 2 |
| 2025-09-07T13:43:00 | 54.182868 | 7.721246 | 2.0 | 18.669 | 2 | 43.981 | 18.836 | 32.692 | 2 |
| 2025-09-07T13:44:00 | 54.185496 | 7.718244 | 2.0 | 18.657 | 2 | 43.987 | 18.834 | 32.698 | 2 |
| 2025-09-07T13:45:00 | 54.188164 | 7.715342 | 2.0 | 18.639 | 2 | 43.976 | 18.820 | 32.700 | 2 |
| 2025-09-07T13:46:00 | 54.190807 | 7.712379 | 2.0 | 18.636 | 2 | 43.960 | 18.805 | 32.699 | 2 |
| 2025-09-07T13:47:00 | 54.193485 | 7.709496 | 2.0 | 18.624 | 2 | 43.956 | 18.801 | 32.699 | 2 |
| 2025-09-07T13:48:00 | 54.196096 | 7.706467 | 2.0 | 18.617 | 2 | 43.947 | 18.792 | 32.698 | 2 |
| 2025-09-07T13:49:00 | 54.198776 | 7.703621 | 2.0 | 18.607 | 2 | 43.938 | 18.782 | 32.699 | 2 |
| 2025-09-07T13:50:00 | 54.201411 | 7.700670 | 2.0 | 18.597 | 2 | 43.932 | 18.774 | 32.700 | 2 |
| 2025-09-07T13:51:00 | 54.204063 | 7.697746 | 2.0 | 18.586 | 2 | 43.923 | 18.760 | 32.704 | 2 |
| 2025-09-07T13:52:00 | 54.206699 | 7.694788 | 2.0 | 18.587 | 2 | 43.917 | 18.752 | 32.705 | 2 |
| 2025-09-07T13:53:00 | 54.209349 | 7.691841 | 2.0 | 18.587 | 2 | 43.922 | 18.754 | 32.708 | 2 |
| 2025-09-07T13:54:00 | 54.212004 | 7.688951 | 2.0 | 18.589 | 2 | 43.929 | 18.755 | 32.713 | 2 |
| 2025-09-07T13:55:00 | 54.214636 | 7.685993 | 2.0 | 18.567 | 2 | 43.933 | 18.751 | 32.719 | 2 |
| 2025-09-07T13:56:00 | 54.217298 | 7.683060 | 2.0 | 18.559 | 2 | 43.922 | 18.731 | 32.726 | 2 |
| 2025-09-07T13:57:00 | 54.219896 | 7.680022 | 2.0 | 18.557 | 2 | 43.920 | 18.725 | 32.729 | 2 |
| 2025-09-07T13:58:00 | 54.222228 | 7.676365 | 2.0 | 18.551 | 2 | 43.922 | 18.722 | 32.733 | 2 |
| 2025-09-07T13:59:00 | 54.224643 | 7.672852 | 2.0 | 18.549 | 2 | 43.922 | 18.716 | 32.738 | 2 |
| 2025-09-07T14:00:00 | 54.227142 | 7.669586 | 2.0 | 18.542 | 2 | 43.926 | 18.715 | 32.742 | 2 |
| 2025-09-07T14:01:00 | 54.229883 | 7.667014 | 2.0 | 18.538 | 2 | 43.926 | 18.707 | 32.748 | 2 |
| 2025-09-07T14:02:00 | 54.232577 | 7.664238 | 2.0 | 18.521 | 2 | 43.926 | 18.701 | 32.753 | 2 |
| 2025-09-07T14:03:00 | 54.235312 | 7.661612 | 2.0 | 18.511 | 2 | 43.920 | 18.687 | 32.759 | 2 |
| 2025-09-07T14:04:00 | 54.238038 | 7.658867 | 2.0 | 18.506 | 2 | 43.917 | 18.679 | 32.763 | 2 |
| 2025-09-07T14:05:00 | 54.240763 | 7.656146 | 2.0 | 18.501 | 2 | 43.917 | 18.671 | 32.769 | 2 |
| 2025-09-07T14:06:00 | 54.243511 | 7.653508 | 2.0 | 18.485 | 2 | 43.918 | 18.665 | 32.775 | 2 |
| 2025-09-07T14:07:00 | 54.246257 | 7.650838 | 2.0 | 18.486 | 2 | 43.912 | 18.653 | 32.779 | 2 |
| 2025-09-07T14:08:00 | 54.248979 | 7.648088 | 2.0 | 18.475 | 2 | 43.916 | 18.650 | 32.785 | 2 |
| 2025-09-07T14:09:00 | 54.251697 | 7.645363 | 2.0 | 18.472 | 2 | 43.915 | 18.640 | 32.792 | 2 |
| 2025-09-07T14:10:00 | 54.254423 | 7.642732 | 2.0 | 18.469 | 2 | 43.922 | 18.640 | 32.798 | 2 |
| 2025-09-07T14:11:00 | 54.257131 | 7.640045 | 2.0 | 18.470 | 2 | 43.928 | 18.635 | 32.807 | 2 |
| 2025-09-07T14:12:00 | 54.259838 | 7.637339 | 2.0 | 18.476 | 2 | 43.938 | 18.639 | 32.812 | 2 |
| 2025-09-07T14:13:00 | 54.262554 | 7.634659 | 2.0 | 18.477 | 2 | 43.947 | 18.642 | 32.817 | 2 |
| 2025-09-07T14:14:00 | 54.265278 | 7.632041 | 2.0 | 18.476 | 2 | 43.950 | 18.642 | 32.820 | 2 |
| 2025-09-07T14:15:00 | 54.267987 | 7.629310 | 2.0 | 18.473 | 2 | 43.949 | 18.641 | 32.820 | 2 |
| 2025-09-07T14:16:00 | 54.270693 | 7.626615 | 2.0 | 18.475 | 2 | 43.948 | 18.640 | 32.820 | 2 |
| 2025-09-07T14:17:00 | 54.273406 | 7.623959 | 2.0 | 18.475 | 2 | 43.948 | 18.641 | 32.819 | 2 |
| 2025-09-07T14:18:00 | 54.276092 | 7.621206 | 2.0 | 18.473 | 2 | 43.949 | 18.642 | 32.819 | 2 |
| 2025-09-07T14:19:00 | 54.278811 | 7.618615 | 2.0 | 18.476 | 2 | 43.944 | 18.641 | 32.816 | 2 |
| 2025-09-07T14:20:00 | 54.281498 | 7.615888 | 2.0 | 18.476 | 2 | 43.940 | 18.642 | 32.811 | 2 |
| 2025-09-07T14:21:00 | 54.284210 | 7.613201 | 2.0 | 18.481 | 2 | 43.936 | 18.643 | 32.807 | 2 |
| 2025-09-07T14:22:00 | 54.286913 | 7.610537 | 2.0 | 18.480 | 2 | 43.934 | 18.647 | 32.802 | 2 |
| 2025-09-07T14:23:00 | 54.289628 | 7.607895 | 2.0 | 18.474 | 2 | 43.926 | 18.643 | 32.799 | 2 |
| 2025-09-07T14:24:00 | 54.292343 | 7.605222 | 2.0 | 18.467 | 2 | 43.916 | 18.639 | 32.794 | 2 |
| 2025-09-07T14:25:00 | 54.295050 | 7.602506 | 2.0 | 18.460 | 2 | 43.905 | 18.633 | 32.789 | 2 |
| 2025-09-07T14:26:00 | 54.297768 | 7.599834 | 2.0 | 18.463 | 2 | 43.893 | 18.629 | 32.782 | 2 |
| 2025-09-07T14:27:00 | 54.300483 | 7.597177 | 2.0 | 18.462 | 2 | 43.891 | 18.630 | 32.780 | 2 |
| 2025-09-07T14:28:00 | 54.303196 | 7.594462 | 2.0 | 18.464 | 2 | 43.885 | 18.628 | 32.777 | 2 |
| 2025-09-07T14:29:00 | 54.305926 | 7.591822 | 2.0 | 18.461 | 2 | 43.880 | 18.629 | 32.772 | 2 |
| 2025-09-07T14:30:00 | 54.308643 | 7.589118 | 2.0 | 18.456 | 2 | 43.874 | 18.627 | 32.768 | 2 |
| 2025-09-07T14:31:00 | 54.311352 | 7.586434 | 2.0 | 18.453 | 2 | 43.866 | 18.622 | 32.765 | 2 |
| 2025-09-07T14:32:00 | 54.314062 | 7.583704 | 2.0 | 18.454 | 2 | 43.858 | 18.619 | 32.761 | 2 |
| 2025-09-07T14:33:00 | 54.316792 | 7.581019 | 2.0 | 18.456 | 2 | 43.856 | 18.622 | 32.757 | 2 |
| 2025-09-07T14:34:00 | 54.319490 | 7.578267 | 2.0 | 18.454 | 2 | 43.860 | 18.621 | 32.761 | 2 |
| 2025-09-07T14:35:00 | 54.321895 | 7.574736 | 2.0 | 18.464 | 2 | 43.863 | 18.623 | 32.762 | 2 |
| 2025-09-07T14:36:00 | 54.324497 | 7.571519 | 2.0 | 18.467 | 2 | 43.873 | 18.630 | 32.765 | 2 |
| 2025-09-07T14:37:00 | 54.327363 | 7.570807 | 2.0 | 18.436 | 2 | 43.874 | 18.630 | 32.766 | 2 |
| 2025-09-07T14:38:00 | 54.330308 | 7.570349 | 2.0 | 18.421 | 2 | 43.843 | 18.599 | 32.765 | 2 |
| 2025-09-07T14:39:00 | 54.333285 | 7.569687 | 2.0 | 18.443 | 2 | 43.823 | 18.592 | 32.753 | 2 |
| 2025-09-07T14:40:00 | 54.336274 | 7.569124 | 2.0 | 18.483 | 2 | 43.837 | 18.618 | 32.744 | 2 |
| 2025-09-07T14:41:00 | 54.339248 | 7.568593 | 2.0 | 18.471 | 2 | 43.859 | 18.647 | 32.740 | 2 |
| 2025-09-07T14:42:00 | 54.342221 | 7.568020 | 2.0 | 18.437 | 2 | 43.828 | 18.631 | 32.727 | 2 |
| 2025-09-07T14:43:00 | 54.345175 | 7.567541 | 2.0 | 18.425 | 2 | 43.794 | 18.604 | 32.720 | 2 |
| 2025-09-07T14:44:00 | 54.348127 | 7.567014 | 2.0 | 18.422 | 2 | 43.776 | 18.591 | 32.715 | 2 |
| 2025-09-07T14:45:00 | 54.351052 | 7.566535 | 2.0 | 18.404 | 2 | 43.762 | 18.586 | 32.707 | 2 |
| 2025-09-07T14:46:00 | 54.353970 | 7.566012 | 2.0 | 18.408 | 2 | 43.736 | 18.570 | 32.698 | 2 |
| 2025-09-07T14:47:00 | 54.356910 | 7.565383 | 2.0 | 18.402 | 2 | 43.733 | 18.575 | 32.692 | 2 |
| 2025-09-07T14:48:00 | 54.359863 | 7.564882 | 2.0 | 18.398 | 2 | 43.723 | 18.569 | 32.688 | 2 |
| 2025-09-07T14:49:00 | 54.362798 | 7.564371 | 2.0 | 18.401 | 2 | 43.710 | 18.565 | 32.680 | 2 |
| 2025-09-07T14:50:00 | 54.365727 | 7.563908 | 2.0 | 18.416 | 2 | 43.703 | 18.568 | 32.672 | 2 |
| 2025-09-07T14:51:00 | 54.368665 | 7.563314 | 2.0 | 18.437 | 2 | 43.713 | 18.586 | 32.666 | 2 |
| 2025-09-07T14:52:00 | 54.371616 | 7.562781 | 2.0 | 18.444 | 2 | 43.724 | 18.604 | 32.661 | 2 |
| 2025-09-07T14:53:00 | 54.374577 | 7.562240 | 2.0 | 18.460 | 2 | 43.719 | 18.613 | 32.650 | 2 |
| 2025-09-07T14:54:00 | 54.377554 | 7.561655 | 2.0 | 18.462 | 2 | 43.703 | 18.627 | 32.625 | 2 |
| 2025-09-07T14:55:00 | 54.380527 | 7.561194 | 2.0 | 18.480 | 2 | 43.655 | 18.633 | 32.581 | 2 |
| 2025-09-07T14:56:00 | 54.383509 | 7.560585 | 2.0 | 18.485 | 2 | 43.628 | 18.644 | 32.549 | 2 |
| 2025-09-07T14:57:00 | 54.386496 | 7.560039 | 2.0 | 18.489 | 2 | 43.617 | 18.648 | 32.537 | 2 |
| 2025-09-07T14:58:00 | 54.389470 | 7.559557 | 2.0 | 18.528 | 2 | 43.609 | 18.653 | 32.527 | 2 |
| 2025-09-07T14:59:00 | 54.392455 | 7.558871 | 2.0 | 18.611 | 2 | 43.629 | 18.709 | 32.499 | 2 |
| 2025-09-07T15:00:00 | 54.395456 | 7.558322 | 2.0 | 18.668 | 2 | 43.611 | 18.777 | 32.431 | 2 |
| 2025-09-07T15:01:00 | 54.398463 | 7.557746 | 2.0 | 18.676 | 2 | 43.575 | 18.832 | 32.358 | 2 |
| 2025-09-07T15:02:00 | 54.401470 | 7.557262 | 2.0 | 18.651 | 2 | 43.515 | 18.830 | 32.310 | 2 |
| 2025-09-07T15:03:00 | 54.404463 | 7.556706 | 2.0 | 18.636 | 2 | 43.426 | 18.813 | 32.249 | 2 |
| 2025-09-07T15:04:00 | 54.407451 | 7.556143 | 2.0 | 18.688 | 2 | 43.335 | 18.819 | 32.169 | 2 |
| 2025-09-07T15:05:00 | 54.410439 | 7.555611 | 2.0 | 18.704 | 2 | 43.287 | 18.848 | 32.106 | 2 |
| 2025-09-07T15:06:00 | 54.413424 | 7.555084 | 2.0 | 18.718 | 2 | 43.230 | 18.866 | 32.045 | 2 |
| 2025-09-07T15:07:00 | 54.416419 | 7.554506 | 2.0 | 18.763 | 2 | 43.202 | 18.894 | 32.001 | 2 |
| 2025-09-07T15:08:00 | 54.419416 | 7.554001 | 2.0 | 18.770 | 2 | 43.196 | 18.927 | 31.970 | 2 |
| 2025-09-07T15:09:00 | 54.422414 | 7.553489 | 2.0 | 18.718 | 2 | 43.173 | 18.916 | 31.960 | 2 |
| 2025-09-07T15:10:00 | 54.425422 | 7.552899 | 2.0 | 18.721 | 2 | 43.125 | 18.885 | 31.944 | 2 |
| 2025-09-07T15:11:00 | 54.428412 | 7.552425 | 2.0 | 18.731 | 2 | 43.098 | 18.887 | 31.920 | 2 |
| 2025-09-07T15:12:00 | 54.431393 | 7.551867 | 2.0 | 18.731 | 2 | 43.089 | 18.895 | 31.906 | 2 |
| 2025-09-07T15:13:00 | 54.434349 | 7.551450 | 2.0 | 18.741 | 2 | 43.083 | 18.896 | 31.901 | 2 |
| 2025-09-07T15:14:00 | 54.437311 | 7.550799 | 2.0 | 18.745 | 2 | 43.085 | 18.904 | 31.896 | 2 |
| 2025-09-07T15:15:00 | 54.440267 | 7.550298 | 2.0 | 18.759 | 2 | 43.083 | 18.911 | 31.889 | 2 |
| 2025-09-07T15:16:00 | 54.443238 | 7.549782 | 2.0 | 18.763 | 2 | 43.088 | 18.922 | 31.885 | 2 |
| 2025-09-07T15:17:00 | 54.446211 | 7.549283 | 2.0 | 18.768 | 2 | 43.090 | 18.926 | 31.883 | 2 |
| 2025-09-07T15:18:00 | 54.449186 | 7.548764 | 2.0 | 18.757 | 2 | 43.089 | 18.928 | 31.881 | 2 |
| 2025-09-07T15:19:00 | 54.452153 | 7.548180 | 2.0 | 18.749 | 2 | 43.082 | 18.920 | 31.881 | 2 |
| 2025-09-07T15:20:00 | 54.455119 | 7.547691 | 2.0 | 18.747 | 2 | 43.075 | 18.911 | 31.882 | 2 |
| 2025-09-07T15:21:00 | 54.458092 | 7.547164 | 2.0 | 18.749 | 2 | 43.074 | 18.909 | 31.883 | 2 |
| 2025-09-07T15:22:00 | 54.461070 | 7.546582 | 2.0 | 18.760 | 2 | 43.079 | 18.915 | 31.883 | 2 |
| 2025-09-07T15:23:00 | 54.464048 | 7.546116 | 2.0 | 18.741 | 2 | 43.084 | 18.916 | 31.886 | 2 |
| 2025-09-07T15:24:00 | 54.467023 | 7.545575 | 2.0 | 18.739 | 2 | 43.078 | 18.903 | 31.891 | 2 |
| 2025-09-07T15:25:00 | 54.469990 | 7.545046 | 2.0 | 18.743 | 2 | 43.081 | 18.904 | 31.893 | 2 |
| 2025-09-07T15:26:00 | 54.472955 | 7.544485 | 2.0 | 18.758 | 2 | 43.087 | 18.907 | 31.895 | 2 |
| 2025-09-07T15:27:00 | 54.475936 | 7.543929 | 2.0 | 18.741 | 2 | 43.102 | 18.920 | 31.898 | 2 |
| 2025-09-07T15:28:00 | 54.478902 | 7.543478 | 2.0 | 18.728 | 2 | 43.096 | 18.900 | 31.908 | 2 |
| 2025-09-07T15:29:00 | 54.481858 | 7.542931 | 2.0 | 18.726 | 2 | 43.094 | 18.891 | 31.913 | 2 |
| 2025-09-07T15:30:00 | 54.484832 | 7.542308 | 2.0 | 18.728 | 2 | 43.097 | 18.889 | 31.918 | 2 |
| 2025-09-07T15:31:00 | 54.487807 | 7.541863 | 2.0 | 18.734 | 2 | 43.102 | 18.894 | 31.918 | 2 |
| 2025-09-07T15:32:00 | 54.490783 | 7.541330 | 2.0 | 18.726 | 2 | 43.107 | 18.896 | 31.920 | 2 |
| 2025-09-07T15:33:00 | 54.493765 | 7.540730 | 2.0 | 18.733 | 2 | 43.108 | 18.892 | 31.924 | 2 |
| 2025-09-07T15:34:00 | 54.496750 | 7.540232 | 2.0 | 18.756 | 2 | 43.113 | 18.901 | 31.922 | 2 |
| 2025-09-07T15:35:00 | 54.499737 | 7.539660 | 2.0 | 18.777 | 2 | 43.129 | 18.925 | 31.916 | 2 |
| 2025-09-07T15:36:00 | 54.502733 | 7.539198 | 2.0 | 18.779 | 2 | 43.149 | 18.939 | 31.922 | 2 |
| 2025-09-07T15:37:00 | 54.505718 | 7.538566 | 2.0 | 18.790 | 2 | 43.158 | 18.943 | 31.926 | 2 |
| 2025-09-07T15:38:00 | 54.508707 | 7.538081 | 2.0 | 18.786 | 2 | 43.174 | 18.952 | 31.933 | 2 |
| 2025-09-07T15:39:00 | 54.511694 | 7.537514 | 2.0 | 18.798 | 2 | 43.182 | 18.950 | 31.941 | 2 |
| 2025-09-07T15:40:00 | 54.514700 | 7.536985 | 2.0 | 18.786 | 2 | 43.195 | 18.957 | 31.946 | 2 |
| 2025-09-07T15:41:00 | 54.517709 | 7.536457 | 2.0 | 18.792 | 2 | 43.200 | 18.950 | 31.956 | 2 |
| 2025-09-07T15:42:00 | 54.520722 | 7.535847 | 2.0 | 18.797 | 2 | 43.209 | 18.956 | 31.958 | 2 |
| 2025-09-07T15:43:00 | 54.523741 | 7.535311 | 2.0 | 18.759 | 2 | 43.218 | 18.959 | 31.964 | 2 |
| 2025-09-07T15:44:00 | 54.526747 | 7.534809 | 2.0 | 18.716 | 2 | 43.241 | 18.922 | 32.011 | 2 |
| 2025-09-07T15:45:00 | 54.529717 | 7.534199 | 2.0 | 18.693 | 2 | 43.239 | 18.878 | 32.044 | 2 |
| 2025-09-07T15:46:00 | 54.532678 | 7.533737 | 2.0 | 18.690 | 2 | 43.228 | 18.857 | 32.051 | 2 |
| 2025-09-07T15:47:00 | 54.535652 | 7.533159 | 2.0 | 18.723 | 2 | 43.215 | 18.860 | 32.038 | 2 |
| 2025-09-07T15:48:00 | 54.538632 | 7.532618 | 2.0 | 18.752 | 2 | 43.203 | 18.893 | 32.002 | 2 |
| 2025-09-07T15:49:00 | 54.541627 | 7.532070 | 2.0 | 18.770 | 2 | 43.187 | 18.916 | 31.971 | 2 |
| 2025-09-07T15:50:00 | 54.544640 | 7.531500 | 2.0 | 18.783 | 2 | 43.176 | 18.936 | 31.947 | 2 |
| 2025-09-07T15:51:00 | 54.547661 | 7.530963 | 2.0 | 18.790 | 2 | 43.155 | 18.948 | 31.920 | 2 |
| 2025-09-07T15:52:00 | 54.550685 | 7.530422 | 2.0 | 18.779 | 2 | 43.127 | 18.950 | 31.895 | 2 |
| 2025-09-07T15:53:00 | 54.553708 | 7.529866 | 2.0 | 18.741 | 2 | 43.108 | 18.939 | 31.888 | 2 |
| 2025-09-07T15:54:00 | 54.556724 | 7.529339 | 2.0 | 18.737 | 2 | 43.065 | 18.906 | 31.878 | 2 |
| 2025-09-07T15:55:00 | 54.559726 | 7.528743 | 2.0 | 18.749 | 2 | 43.030 | 18.904 | 31.851 | 2 |
| 2025-09-07T15:56:00 | 54.562723 | 7.528222 | 2.0 | 18.754 | 2 | 43.008 | 18.912 | 31.826 | 2 |
| 2025-09-07T15:57:00 | 54.565713 | 7.527672 | 2.0 | 18.762 | 2 | 42.996 | 18.918 | 31.812 | 2 |
| 2025-09-07T15:58:00 | 54.568707 | 7.527094 | 2.0 | 18.766 | 2 | 43.001 | 18.927 | 31.809 | 2 |
| 2025-09-07T15:59:00 | 54.571708 | 7.526616 | 2.0 | 18.770 | 2 | 43.007 | 18.930 | 31.812 | 2 |
| 2025-09-07T16:00:00 | 54.574699 | 7.526087 | 2.0 | 18.724 | 2 | 43.014 | 18.932 | 31.816 | 2 |
| 2025-09-07T16:01:00 | 54.577666 | 7.525572 | 2.0 | 18.652 | 2 | 42.988 | 18.873 | 31.840 | 2 |
| 2025-09-07T16:02:00 | 54.580605 | 7.525055 | 2.0 | 18.668 | 2 | 42.962 | 18.825 | 31.855 | 2 |
| 2025-09-07T16:03:00 | 54.583528 | 7.524509 | 2.0 | 18.672 | 2 | 42.957 | 18.834 | 31.844 | 2 |
| 2025-09-07T16:04:00 | 54.586469 | 7.524047 | 2.0 | 18.682 | 2 | 42.957 | 18.841 | 31.839 | 2 |
| 2025-09-07T16:05:00 | 54.589408 | 7.523469 | 2.0 | 18.677 | 2 | 42.959 | 18.845 | 31.837 | 2 |
| 2025-09-07T16:06:00 | 54.592343 | 7.522970 | 2.0 | 18.689 | 2 | 42.961 | 18.841 | 31.842 | 2 |
| 2025-09-07T16:07:00 | 54.595287 | 7.522349 | 2.0 | 18.731 | 2 | 42.964 | 18.859 | 31.831 | 2 |
| 2025-09-07T16:08:00 | 54.598232 | 7.521850 | 2.0 | 18.769 | 2 | 42.981 | 18.900 | 31.813 | 2 |
| 2025-09-07T16:09:00 | 54.601189 | 7.521336 | 2.0 | 18.783 | 2 | 43.002 | 18.934 | 31.804 | 2 |
| 2025-09-07T16:10:00 | 54.604146 | 7.520752 | 2.0 | 18.793 | 2 | 43.007 | 18.947 | 31.799 | 2 |
| 2025-09-07T16:11:00 | 54.607102 | 7.520220 | 2.0 | 18.794 | 2 | 43.015 | 18.957 | 31.798 | 2 |
| 2025-09-07T16:12:00 | 54.610062 | 7.519735 | 2.0 | 18.769 | 2 | 43.015 | 18.953 | 31.801 | 2 |
| 2025-09-07T16:13:00 | 54.613008 | 7.519149 | 2.0 | 18.747 | 2 | 42.992 | 18.930 | 31.799 | 2 |
| 2025-09-07T16:14:00 | 54.615935 | 7.518710 | 2.0 | 18.753 | 2 | 42.973 | 18.914 | 31.796 | 2 |
| 2025-09-07T16:15:00 | 54.618864 | 7.518209 | 2.0 | 18.758 | 2 | 42.973 | 18.917 | 31.793 | 2 |
| 2025-09-07T16:16:00 | 54.621797 | 7.517634 | 2.0 | 18.759 | 2 | 42.978 | 18.923 | 31.793 | 2 |
| 2025-09-07T16:17:00 | 54.624741 | 7.517136 | 2.0 | 18.760 | 2 | 42.995 | 18.923 | 31.807 | 2 |
| 2025-09-07T16:18:00 | 54.627685 | 7.516575 | 2.0 | 18.772 | 2 | 43.017 | 18.926 | 31.823 | 2 |
| 2025-09-07T16:19:00 | 54.630626 | 7.516098 | 2.0 | 18.791 | 2 | 43.046 | 18.938 | 31.838 | 2 |
| 2025-09-07T16:20:00 | 54.633554 | 7.515525 | 2.0 | 18.810 | 2 | 43.085 | 18.955 | 31.857 | 2 |
| 2025-09-07T16:21:00 | 54.636476 | 7.515038 | 2.0 | 18.807 | 2 | 43.120 | 18.973 | 31.872 | 2 |
| 2025-09-07T16:22:00 | 54.639406 | 7.514490 | 2.0 | 18.807 | 2 | 43.135 | 18.969 | 31.887 | 2 |
| 2025-09-07T16:23:00 | 54.642333 | 7.514005 | 2.0 | 18.814 | 2 | 43.153 | 18.971 | 31.901 | 2 |
| 2025-09-07T16:24:00 | 54.645253 | 7.513428 | 2.0 | 18.806 | 2 | 43.178 | 18.977 | 31.917 | 2 |
| 2025-09-07T16:25:00 | 54.648177 | 7.512859 | 2.0 | 18.782 | 2 | 43.182 | 18.965 | 31.929 | 2 |
| 2025-09-07T16:26:00 | 54.651109 | 7.512417 | 2.0 | 18.777 | 2 | 43.159 | 18.945 | 31.926 | 2 |
| 2025-09-07T16:27:00 | 54.654043 | 7.511837 | 2.0 | 18.781 | 2 | 43.145 | 18.943 | 31.916 | 2 |
| 2025-09-07T16:28:00 | 54.656968 | 7.511318 | 2.0 | 18.781 | 2 | 43.145 | 18.945 | 31.914 | 2 |
| 2025-09-07T16:29:00 | 54.659897 | 7.510771 | 2.0 | 18.784 | 2 | 43.142 | 18.944 | 31.912 | 2 |
| 2025-09-07T16:30:00 | 54.662829 | 7.510279 | 2.0 | 18.785 | 2 | 43.136 | 18.947 | 31.905 | 2 |
| 2025-09-07T16:31:00 | 54.665768 | 7.509705 | 2.0 | 18.782 | 2 | 43.131 | 18.948 | 31.900 | 2 |
| 2025-09-07T16:32:00 | 54.668709 | 7.509190 | 2.0 | 18.776 | 2 | 43.133 | 18.944 | 31.905 | 2 |
| 2025-09-07T16:33:00 | 54.671647 | 7.508684 | 2.0 | 18.768 | 2 | 43.133 | 18.940 | 31.908 | 2 |
| 2025-09-07T16:34:00 | 54.674592 | 7.508124 | 2.0 | 18.754 | 2 | 43.136 | 18.930 | 31.918 | 2 |
| 2025-09-07T16:35:00 | 54.677543 | 7.507658 | 2.0 | 18.742 | 2 | 43.136 | 18.916 | 31.929 | 2 |
| 2025-09-07T16:36:00 | 54.680487 | 7.507036 | 2.0 | 18.726 | 2 | 43.142 | 18.904 | 31.943 | 2 |
| 2025-09-07T16:37:00 | 54.683438 | 7.506497 | 2.0 | 18.712 | 2 | 43.147 | 18.887 | 31.960 | 2 |
| 2025-09-07T16:38:00 | 54.686388 | 7.506007 | 2.0 | 18.709 | 2 | 43.148 | 18.877 | 31.969 | 2 |
| 2025-09-07T16:39:00 | 54.689324 | 7.505484 | 2.0 | 18.704 | 2 | 43.159 | 18.873 | 31.981 | 2 |
| 2025-09-07T16:40:00 | 54.692258 | 7.504943 | 2.0 | 18.697 | 2 | 43.174 | 18.868 | 31.997 | 2 |
| 2025-09-07T16:41:00 | 54.695192 | 7.504428 | 2.0 | 18.694 | 2 | 43.197 | 18.860 | 32.023 | 2 |
| 2025-09-07T16:42:00 | 54.698104 | 7.503856 | 2.0 | 18.698 | 2 | 43.233 | 18.860 | 32.052 | 2 |
| 2025-09-07T16:43:00 | 54.701012 | 7.503302 | 2.0 | 18.654 | 2 | 43.296 | 18.855 | 32.109 | 2 |
| 2025-09-07T16:44:00 | 54.703920 | 7.502799 | 2.0 | 18.584 | 2 | 43.341 | 18.817 | 32.175 | 2 |
| 2025-09-07T16:45:00 | 54.706798 | 7.502286 | 2.0 | 18.581 | 2 | 43.366 | 18.748 | 32.250 | 2 |
| 2025-09-07T16:46:00 | 54.709677 | 7.501740 | 2.0 | 18.619 | 2 | 43.371 | 18.755 | 32.249 | 2 |
| 2025-09-07T16:47:00 | 54.712550 | 7.501164 | 2.0 | 18.589 | 2 | 43.383 | 18.779 | 32.240 | 2 |
| 2025-09-07T16:48:00 | 54.715401 | 7.500683 | 2.0 | 18.614 | 2 | 43.406 | 18.758 | 32.275 | 2 |
| 2025-09-07T16:49:00 | 54.718266 | 7.500125 | 2.0 | 18.648 | 2 | 43.414 | 18.781 | 32.264 | 2 |
| 2025-09-07T16:50:00 | 54.721140 | 7.499548 | 2.0 | 18.657 | 2 | 43.440 | 18.815 | 32.259 | 2 |
| 2025-09-07T16:51:00 | 54.724016 | 7.499018 | 2.0 | 18.574 | 2 | 43.459 | 18.814 | 32.276 | 2 |
| 2025-09-07T16:52:00 | 54.726870 | 7.498588 | 2.0 | 18.531 | 2 | 43.411 | 18.732 | 32.300 | 2 |
| 2025-09-07T16:53:00 | 54.729704 | 7.498032 | 2.0 | 18.537 | 2 | 43.370 | 18.697 | 32.293 | 2 |
| 2025-09-07T16:54:00 | 54.732554 | 7.497482 | 2.0 | 18.547 | 2 | 43.353 | 18.706 | 32.272 | 2 |
| 2025-09-07T16:55:00 | 54.735400 | 7.497011 | 2.0 | 18.547 | 2 | 43.349 | 18.713 | 32.263 | 2 |
| 2025-09-07T16:56:00 | 54.738238 | 7.496512 | 2.0 | 18.531 | 2 | 43.336 | 18.711 | 32.254 | 2 |
| 2025-09-07T16:57:00 | 54.741049 | 7.495972 | 2.0 | 18.511 | 2 | 43.321 | 18.693 | 32.255 | 2 |
| 2025-09-07T16:58:00 | 54.743845 | 7.495477 | 2.0 | 18.493 | 2 | 43.292 | 18.675 | 32.245 | 2 |
| 2025-09-07T16:59:00 | 54.746629 | 7.494954 | 2.0 | 18.498 | 2 | 43.255 | 18.663 | 32.224 | 2 |
| 2025-09-07T17:00:00 | 54.749410 | 7.494464 | 2.0 | 18.500 | 2 | 43.246 | 18.665 | 32.215 | 2 |
| 2025-09-07T17:01:00 | 54.752195 | 7.493904 | 2.0 | 18.490 | 2 | 43.242 | 18.666 | 32.211 | 2 |
| 2025-09-07T17:02:00 | 54.754997 | 7.493407 | 2.0 | 18.495 | 2 | 43.228 | 18.658 | 32.205 | 2 |
| 2025-09-07T17:03:00 | 54.757800 | 7.492884 | 2.0 | 18.502 | 2 | 43.224 | 18.661 | 32.200 | 2 |
| 2025-09-07T17:04:00 | 54.760606 | 7.492384 | 2.0 | 18.508 | 2 | 43.224 | 18.668 | 32.194 | 2 |
| 2025-09-07T17:05:00 | 54.763408 | 7.491915 | 2.0 | 18.515 | 2 | 43.222 | 18.675 | 32.187 | 2 |
| 2025-09-07T17:06:00 | 54.766225 | 7.491402 | 2.0 | 18.515 | 2 | 43.223 | 18.679 | 32.185 | 2 |
| 2025-09-07T17:07:00 | 54.769040 | 7.490858 | 2.0 | 18.509 | 2 | 43.222 | 18.679 | 32.184 | 2 |
| 2025-09-07T17:08:00 | 54.771864 | 7.490376 | 2.0 | 18.507 | 2 | 43.216 | 18.674 | 32.183 | 2 |
| 2025-09-07T17:09:00 | 54.774701 | 7.489876 | 2.0 | 18.499 | 2 | 43.212 | 18.670 | 32.183 | 2 |
| 2025-09-07T17:10:00 | 54.777535 | 7.489375 | 2.0 | 18.498 | 2 | 43.206 | 18.664 | 32.182 | 2 |
| 2025-09-07T17:11:00 | 54.780376 | 7.488889 | 2.0 | 18.499 | 2 | 43.209 | 18.663 | 32.186 | 2 |
| 2025-09-07T17:12:00 | 54.783214 | 7.488241 | 2.0 | 18.502 | 2 | 43.212 | 18.664 | 32.187 | 2 |
| 2025-09-07T17:13:00 | 54.786047 | 7.487812 | 2.0 | 18.509 | 2 | 43.217 | 18.667 | 32.189 | 2 |
| 2025-09-07T17:14:00 | 54.788878 | 7.487343 | 2.0 | 18.511 | 2 | 43.229 | 18.674 | 32.194 | 2 |
| 2025-09-07T17:15:00 | 54.791703 | 7.486841 | 2.0 | 18.517 | 2 | 43.242 | 18.676 | 32.203 | 2 |
| 2025-09-07T17:16:00 | 54.794533 | 7.486325 | 2.0 | 18.522 | 2 | 43.248 | 18.682 | 32.203 | 2 |
| 2025-09-07T17:17:00 | 54.797376 | 7.485771 | 2.0 | 18.523 | 2 | 43.256 | 18.686 | 32.207 | 2 |
| 2025-09-07T17:18:00 | 54.800222 | 7.485236 | 2.0 | 18.519 | 2 | 43.267 | 18.686 | 32.216 | 2 |
| 2025-09-07T17:19:00 | 54.803066 | 7.484776 | 2.0 | 18.510 | 2 | 43.277 | 18.683 | 32.227 | 2 |
| 2025-09-07T17:20:00 | 54.805912 | 7.484221 | 2.0 | 18.504 | 2 | 43.287 | 18.672 | 32.243 | 2 |
| 2025-09-07T17:21:00 | 54.808758 | 7.483759 | 2.0 | 18.502 | 2 | 43.293 | 18.668 | 32.252 | 2 |
| 2025-09-07T17:22:00 | 54.811607 | 7.483168 | 2.0 | 18.494 | 2 | 43.299 | 18.665 | 32.259 | 2 |
| 2025-09-07T17:23:00 | 54.814446 | 7.482658 | 2.0 | 18.492 | 2 | 43.301 | 18.659 | 32.265 | 2 |
| 2025-09-07T17:24:00 | 54.817284 | 7.482158 | 2.0 | 18.491 | 2 | 43.305 | 18.657 | 32.270 | 2 |
| 2025-09-07T17:25:00 | 54.820123 | 7.481690 | 2.0 | 18.494 | 2 | 43.311 | 18.655 | 32.277 | 2 |
| 2025-09-07T17:26:00 | 54.822953 | 7.481187 | 2.0 | 18.491 | 2 | 43.318 | 18.657 | 32.281 | 2 |
| 2025-09-07T17:27:00 | 54.825779 | 7.480671 | 2.0 | 18.487 | 2 | 43.324 | 18.654 | 32.288 | 2 |
| 2025-09-07T17:28:00 | 54.828603 | 7.480139 | 2.0 | 18.499 | 2 | 43.334 | 18.655 | 32.296 | 2 |
| 2025-09-07T17:29:00 | 54.831427 | 7.479588 | 2.0 | 18.500 | 2 | 43.349 | 18.663 | 32.302 | 2 |
| 2025-09-07T17:30:00 | 54.834249 | 7.479140 | 2.0 | 18.493 | 2 | 43.364 | 18.662 | 32.315 | 2 |
| 2025-09-07T17:31:00 | 54.837075 | 7.478676 | 2.0 | 18.485 | 2 | 43.378 | 18.656 | 32.332 | 2 |
| 2025-09-07T17:32:00 | 54.839889 | 7.478354 | 2.0 | 18.480 | 2 | 43.390 | 18.648 | 32.348 | 2 |
| 2025-09-07T17:33:00 | 54.842705 | 7.477868 | 2.0 | 18.472 | 2 | 43.404 | 18.645 | 32.362 | 2 |
| 2025-09-07T17:34:00 | 54.845516 | 7.477495 | 2.0 | 18.449 | 2 | 43.419 | 18.633 | 32.384 | 2 |
| 2025-09-07T17:35:00 | 54.848314 | 7.477053 | 2.0 | 18.420 | 2 | 43.421 | 18.606 | 32.407 | 2 |
| 2025-09-07T17:36:00 | 54.851097 | 7.476645 | 2.0 | 18.424 | 2 | 43.416 | 18.589 | 32.416 | 2 |
| 2025-09-07T17:37:00 | 54.853881 | 7.476210 | 2.0 | 18.413 | 2 | 43.418 | 18.588 | 32.418 | 2 |
| 2025-09-07T17:38:00 | 54.856672 | 7.475694 | 2.0 | 18.391 | 2 | 43.412 | 18.576 | 32.423 | 2 |
| 2025-09-07T17:39:00 | 54.859460 | 7.475322 | 2.0 | 18.369 | 2 | 43.394 | 18.553 | 32.426 | 2 |
| 2025-09-07T17:40:00 | 54.862240 | 7.474918 | 2.0 | 18.337 | 2 | 43.377 | 18.534 | 32.427 | 2 |
| 2025-09-07T17:41:00 | 54.865014 | 7.474428 | 2.0 | 18.298 | 2 | 43.342 | 18.498 | 32.426 | 2 |
| 2025-09-07T17:42:00 | 54.867777 | 7.473972 | 2.0 | 18.318 | 2 | 43.307 | 18.472 | 32.417 | 2 |
| 2025-09-07T17:43:00 | 54.870541 | 7.473581 | 2.0 | 18.339 | 2 | 43.312 | 18.488 | 32.409 | 2 |
| 2025-09-07T17:44:00 | 54.873302 | 7.473208 | 2.0 | 18.352 | 2 | 43.325 | 18.506 | 32.405 | 2 |
| 2025-09-07T17:45:00 | 54.876048 | 7.472782 | 2.0 | 18.357 | 2 | 43.336 | 18.518 | 32.405 | 2 |
| 2025-09-07T17:46:00 | 54.878805 | 7.472328 | 2.0 | 18.359 | 2 | 43.336 | 18.522 | 32.402 | 2 |
| 2025-09-07T17:47:00 | 54.881561 | 7.471958 | 2.0 | 18.366 | 2 | 43.328 | 18.526 | 32.392 | 2 |
| 2025-09-07T17:48:00 | 54.884323 | 7.471516 | 2.0 | 18.381 | 2 | 43.324 | 18.533 | 32.383 | 2 |
| 2025-09-07T17:49:00 | 54.887090 | 7.471052 | 2.0 | 18.380 | 2 | 43.323 | 18.544 | 32.374 | 2 |
| 2025-09-07T17:50:00 | 54.889866 | 7.470694 | 2.0 | 18.352 | 2 | 43.307 | 18.537 | 32.366 | 2 |
| 2025-09-07T17:51:00 | 54.892631 | 7.470291 | 2.0 | 18.364 | 2 | 43.272 | 18.524 | 32.347 | 2 |
| 2025-09-07T17:52:00 | 54.895389 | 7.469822 | 2.0 | 18.364 | 2 | 43.260 | 18.527 | 32.334 | 2 |
| 2025-09-07T17:53:00 | 54.898164 | 7.469402 | 2.0 | 18.380 | 2 | 43.249 | 18.531 | 32.322 | 2 |
| 2025-09-07T17:54:00 | 54.900934 | 7.468991 | 2.0 | 18.384 | 2 | 43.250 | 18.547 | 32.310 | 2 |
| 2025-09-07T17:55:00 | 54.903715 | 7.468575 | 2.0 | 18.375 | 2 | 43.242 | 18.545 | 32.305 | 2 |
| 2025-09-07T17:56:00 | 54.906482 | 7.468189 | 2.0 | 18.390 | 2 | 43.228 | 18.541 | 32.297 | 2 |
| 2025-09-07T17:57:00 | 54.909252 | 7.467800 | 2.0 | 18.397 | 2 | 43.229 | 18.554 | 32.287 | 2 |
| 2025-09-07T17:58:00 | 54.912037 | 7.467354 | 2.0 | 18.414 | 2 | 43.231 | 18.564 | 32.281 | 2 |
| 2025-09-07T17:59:00 | 54.914826 | 7.466915 | 2.0 | 18.418 | 2 | 43.235 | 18.578 | 32.274 | 2 |
| 2025-09-07T18:00:00 | 54.917607 | 7.466535 | 2.0 | 18.424 | 2 | 43.235 | 18.583 | 32.270 | 2 |
| 2025-09-07T18:01:00 | 54.920397 | 7.466086 | 2.0 | 18.429 | 2 | 43.235 | 18.589 | 32.265 | 2 |
| 2025-09-07T18:02:00 | 54.923175 | 7.465630 | 2.0 | 18.424 | 2 | 43.237 | 18.593 | 32.264 | 2 |
| 2025-09-07T18:03:00 | 54.925957 | 7.465252 | 2.0 | 18.409 | 2 | 43.237 | 18.586 | 32.269 | 2 |
| 2025-09-07T18:04:00 | 54.928740 | 7.464826 | 2.0 | 18.392 | 2 | 43.235 | 18.570 | 32.280 | 2 |
| 2025-09-07T18:05:00 | 54.931517 | 7.464424 | 2.0 | 18.378 | 2 | 43.227 | 18.555 | 32.285 | 2 |
| 2025-09-07T18:06:00 | 54.934307 | 7.463960 | 2.0 | 18.377 | 2 | 43.232 | 18.544 | 32.298 | 2 |
| 2025-09-07T18:07:00 | 54.937106 | 7.463573 | 2.0 | 18.373 | 2 | 43.237 | 18.541 | 32.304 | 2 |
| 2025-09-07T18:08:00 | 54.939895 | 7.463173 | 2.0 | 18.374 | 2 | 43.243 | 18.539 | 32.311 | 2 |
| 2025-09-07T18:09:00 | 54.942685 | 7.462720 | 2.0 | 18.373 | 2 | 43.248 | 18.538 | 32.316 | 2 |
| 2025-09-07T18:10:00 | 54.945470 | 7.462311 | 2.0 | 18.371 | 2 | 43.254 | 18.538 | 32.321 | 2 |
| 2025-09-07T18:11:00 | 54.948245 | 7.461891 | 2.0 | 18.371 | 2 | 43.261 | 18.535 | 32.329 | 2 |
| 2025-09-07T18:12:00 | 54.951025 | 7.461447 | 2.0 | 18.371 | 2 | 43.269 | 18.537 | 32.334 | 2 |
| 2025-09-07T18:13:00 | 54.953817 | 7.461066 | 2.0 | 18.371 | 2 | 43.276 | 18.535 | 32.342 | 2 |
| 2025-09-07T18:14:00 | 54.956618 | 7.460645 | 2.0 | 18.373 | 2 | 43.283 | 18.537 | 32.346 | 2 |
| 2025-09-07T18:15:00 | 54.959420 | 7.460266 | 2.0 | 18.356 | 2 | 43.291 | 18.535 | 32.354 | 2 |
| 2025-09-07T18:16:00 | 54.962218 | 7.459778 | 2.0 | 18.341 | 2 | 43.303 | 18.519 | 32.377 | 2 |
| 2025-09-07T18:17:00 | 54.965012 | 7.459318 | 2.0 | 18.340 | 2 | 43.316 | 18.507 | 32.397 | 2 |
| 2025-09-07T18:18:00 | 54.967809 | 7.458947 | 2.0 | 18.354 | 2 | 43.329 | 18.507 | 32.408 | 2 |
| 2025-09-07T18:19:00 | 54.970617 | 7.458543 | 2.0 | 18.337 | 2 | 43.335 | 18.515 | 32.407 | 2 |
| 2025-09-07T18:20:00 | 54.973428 | 7.458101 | 2.0 | 18.336 | 2 | 43.350 | 18.503 | 32.429 | 2 |
| 2025-09-07T18:21:00 | 54.976231 | 7.457608 | 2.0 | 18.339 | 2 | 43.363 | 18.501 | 32.441 | 2 |
| 2025-09-07T18:22:00 | 54.979049 | 7.457254 | 2.0 | 18.347 | 2 | 43.371 | 18.505 | 32.444 | 2 |
| 2025-09-07T18:23:00 | 54.981846 | 7.456821 | 2.0 | 18.330 | 2 | 43.377 | 18.509 | 32.446 | 2 |
| 2025-09-07T18:24:00 | 54.984635 | 7.456357 | 2.0 | 18.339 | 2 | 43.390 | 18.497 | 32.467 | 2 |
| 2025-09-07T18:25:00 | 54.987433 | 7.455955 | 2.0 | 18.350 | 2 | 43.396 | 18.509 | 32.462 | 2 |
| 2025-09-07T18:26:00 | 54.990253 | 7.455570 | 2.0 | 18.331 | 2 | 43.403 | 18.512 | 32.466 | 2 |
| 2025-09-07T18:27:00 | 54.993067 | 7.455132 | 2.0 | 18.318 | 2 | 43.406 | 18.495 | 32.482 | 2 |
| 2025-09-07T18:28:00 | 54.995876 | 7.454633 | 2.0 | 18.320 | 2 | 43.407 | 18.484 | 32.491 | 2 |
| 2025-09-07T18:29:00 | 54.998682 | 7.454254 | 2.0 | 18.320 | 2 | 43.410 | 18.485 | 32.493 | 2 |
| 2025-09-07T18:30:00 | 55.001484 | 7.453794 | 2.0 | 18.321 | 2 | 43.417 | 18.485 | 32.499 | 2 |
| 2025-09-07T18:31:00 | 55.004293 | 7.453375 | 2.0 | 18.322 | 2 | 43.427 | 18.485 | 32.507 | 2 |
| 2025-09-07T18:32:00 | 55.007097 | 7.452970 | 2.0 | 18.320 | 2 | 43.439 | 18.486 | 32.516 | 2 |
| 2025-09-07T18:33:00 | 55.009894 | 7.452560 | 2.0 | 18.321 | 2 | 43.449 | 18.485 | 32.525 | 2 |
| 2025-09-07T18:34:00 | 55.012705 | 7.452140 | 2.0 | 18.321 | 2 | 43.454 | 18.486 | 32.529 | 2 |
| 2025-09-07T18:35:00 | 55.015517 | 7.451732 | 2.0 | 18.322 | 2 | 43.461 | 18.486 | 32.535 | 2 |
| 2025-09-07T18:36:00 | 55.018316 | 7.451244 | 2.0 | 18.319 | 2 | 43.467 | 18.486 | 32.540 | 2 |
| 2025-09-07T18:37:00 | 55.021116 | 7.450640 | 2.0 | 18.318 | 2 | 43.470 | 18.484 | 32.544 | 2 |
| 2025-09-07T18:38:00 | 55.023921 | 7.450115 | 2.0 | 18.318 | 2 | 43.482 | 18.482 | 32.555 | 2 |
| 2025-09-07T18:39:00 | 55.026729 | 7.449479 | 2.0 | 18.315 | 2 | 43.495 | 18.482 | 32.566 | 2 |
| 2025-09-07T18:40:00 | 55.029525 | 7.448846 | 2.0 | 18.314 | 2 | 43.510 | 18.479 | 32.581 | 2 |
| 2025-09-07T18:41:00 | 55.032328 | 7.448243 | 2.0 | 18.311 | 2 | 43.525 | 18.478 | 32.595 | 2 |
| 2025-09-07T18:42:00 | 55.035138 | 7.447664 | 2.0 | 18.309 | 2 | 43.545 | 18.476 | 32.613 | 2 |
| 2025-09-07T18:43:00 | 55.037951 | 7.447039 | 2.0 | 18.299 | 2 | 43.552 | 18.474 | 32.620 | 2 |
| 2025-09-07T18:44:00 | 55.040760 | 7.446452 | 2.0 | 18.292 | 2 | 43.568 | 18.462 | 32.643 | 2 |
| 2025-09-07T18:45:00 | 55.043573 | 7.445837 | 2.0 | 18.284 | 2 | 43.571 | 18.457 | 32.650 | 2 |
| 2025-09-07T18:46:00 | 55.046365 | 7.445229 | 2.0 | 18.297 | 2 | 43.569 | 18.452 | 32.652 | 2 |
| 2025-09-07T18:47:00 | 55.049148 | 7.444566 | 2.0 | 18.312 | 2 | 43.579 | 18.464 | 32.651 | 2 |
| 2025-09-07T18:48:00 | 55.051880 | 7.443870 | 2.0 | 18.312 | 2 | 43.590 | 18.477 | 32.650 | 2 |
| 2025-09-07T18:49:00 | 55.054585 | 7.443319 | 2.0 | 18.187 | 2 | 43.521 | 18.466 | 32.601 | 2 |
| 2025-09-07T18:50:00 | 55.057267 | 7.442959 | 2.0 | 18.145 | 2 | 43.353 | 18.349 | 32.553 | 2 |
| 2025-09-07T18:51:00 | 55.059940 | 7.442180 | 2.0 | 18.143 | 2 | 43.264 | 18.315 | 32.505 | 2 |
| 2025-09-07T18:52:00 | 55.062637 | 7.441648 | 2.0 | 18.164 | 2 | 43.235 | 18.312 | 32.483 | 2 |
| 2025-09-07T18:53:00 | 55.065322 | 7.441092 | 2.0 | 18.196 | 2 | 43.230 | 18.334 | 32.461 | 2 |
| 2025-09-07T18:54:00 | 55.068020 | 7.440565 | 2.0 | 18.243 | 2 | 43.236 | 18.370 | 32.438 | 2 |
| 2025-09-07T18:55:00 | 55.070714 | 7.440025 | 2.0 | 18.271 | 2 | 43.212 | 18.413 | 32.384 | 2 |
| 2025-09-07T18:56:00 | 55.073404 | 7.439463 | 2.0 | 18.263 | 2 | 43.205 | 18.433 | 32.362 | 2 |
| 2025-09-07T18:57:00 | 55.076084 | 7.438847 | 2.0 | 18.253 | 2 | 43.188 | 18.426 | 32.354 | 2 |
| 2025-09-07T18:58:00 | 55.078772 | 7.438229 | 2.0 | 18.248 | 2 | 43.177 | 18.417 | 32.351 | 2 |
| 2025-09-07T18:59:00 | 55.081453 | 7.437681 | 2.0 | 18.246 | 2 | 43.171 | 18.412 | 32.350 | 2 |
| 2025-09-07T19:00:00 | 55.084113 | 7.437146 | 2.0 | 18.252 | 2 | 43.170 | 18.412 | 32.350 | 2 |
| 2025-09-07T19:01:00 | 55.086752 | 7.436624 | 2.0 | 18.261 | 2 | 43.183 | 18.419 | 32.355 | 2 |
| 2025-09-07T19:02:00 | 55.089387 | 7.436022 | 2.0 | 18.267 | 2 | 43.196 | 18.428 | 32.359 | 2 |
| 2025-09-07T19:03:00 | 55.092021 | 7.435489 | 2.0 | 18.273 | 2 | 43.211 | 18.431 | 32.369 | 2 |
| 2025-09-07T19:04:00 | 55.094672 | 7.434923 | 2.0 | 18.276 | 2 | 43.232 | 18.437 | 32.382 | 2 |
| 2025-09-07T19:05:00 | 55.097325 | 7.434391 | 2.0 | 18.278 | 2 | 43.251 | 18.440 | 32.395 | 2 |
| 2025-09-07T19:06:00 | 55.099976 | 7.433848 | 2.0 | 18.284 | 2 | 43.271 | 18.442 | 32.410 | 2 |
| 2025-09-07T19:07:00 | 55.102619 | 7.433232 | 2.0 | 18.288 | 2 | 43.294 | 18.448 | 32.425 | 2 |
| 2025-09-07T19:08:00 | 55.105272 | 7.432624 | 2.0 | 18.291 | 2 | 43.309 | 18.454 | 32.433 | 2 |
| 2025-09-07T19:09:00 | 55.107926 | 7.432160 | 2.0 | 18.291 | 2 | 43.316 | 18.454 | 32.439 | 2 |
| 2025-09-07T19:10:00 | 55.110597 | 7.431478 | 2.0 | 18.286 | 2 | 43.323 | 18.454 | 32.445 | 2 |
| 2025-09-07T19:11:00 | 55.113240 | 7.430919 | 2.0 | 18.274 | 2 | 43.328 | 18.448 | 32.453 | 2 |
| 2025-09-07T19:12:00 | 55.115896 | 7.430426 | 2.0 | 18.278 | 2 | 43.345 | 18.439 | 32.475 | 2 |
| 2025-09-07T19:13:00 | 55.118518 | 7.429841 | 2.0 | 18.280 | 2 | 43.379 | 18.443 | 32.500 | 2 |
| 2025-09-07T19:14:00 | 55.121118 | 7.429301 | 2.0 | 18.275 | 2 | 43.392 | 18.442 | 32.512 | 2 |
| 2025-09-07T19:15:00 | 55.123684 | 7.428862 | 2.0 | 18.233 | 2 | 43.396 | 18.433 | 32.522 | 2 |
| 2025-09-07T19:16:00 | 55.126239 | 7.428228 | 2.0 | 18.190 | 2 | 43.361 | 18.388 | 32.528 | 2 |
| 2025-09-07T19:17:00 | 55.128837 | 7.427680 | 2.0 | 18.177 | 2 | 43.321 | 18.355 | 32.521 | 2 |
| 2025-09-07T19:18:00 | 55.131446 | 7.427074 | 2.0 | 18.174 | 2 | 43.309 | 18.343 | 32.520 | 2 |
| 2025-09-07T19:19:00 | 55.134063 | 7.426474 | 2.0 | 18.175 | 2 | 43.307 | 18.340 | 32.521 | 2 |
| 2025-09-07T19:20:00 | 55.136691 | 7.425918 | 2.0 | 18.176 | 2 | 43.308 | 18.339 | 32.523 | 2 |
| 2025-09-07T19:21:00 | 55.139335 | 7.425353 | 2.0 | 18.178 | 2 | 43.313 | 18.342 | 32.525 | 2 |
| 2025-09-07T19:22:00 | 55.141960 | 7.424870 | 2.0 | 18.184 | 2 | 43.317 | 18.344 | 32.526 | 2 |
| 2025-09-07T19:23:00 | 55.144547 | 7.424263 | 2.0 | 18.190 | 2 | 43.322 | 18.350 | 32.526 | 2 |
| 2025-09-07T19:24:00 | 55.147171 | 7.423700 | 2.0 | 18.202 | 2 | 43.327 | 18.357 | 32.525 | 2 |
| 2025-09-07T19:25:00 | 55.149790 | 7.423210 | 2.0 | 18.217 | 2 | 43.334 | 18.368 | 32.522 | 2 |
| 2025-09-07T19:26:00 | 55.152403 | 7.422572 | 2.0 | 18.229 | 2 | 43.345 | 18.383 | 32.519 | 2 |
| 2025-09-07T19:27:00 | 55.155035 | 7.421982 | 2.0 | 18.218 | 2 | 43.356 | 18.391 | 32.522 | 2 |
| 2025-09-07T19:28:00 | 55.157700 | 7.421382 | 2.0 | 18.212 | 2 | 43.363 | 18.381 | 32.536 | 2 |
| 2025-09-07T19:29:00 | 55.160367 | 7.420880 | 2.0 | 18.138 | 2 | 43.363 | 18.372 | 32.543 | 2 |
| 2025-09-07T19:30:00 | 55.163030 | 7.420318 | 2.0 | 18.082 | 2 | 43.325 | 18.292 | 32.574 | 2 |
| 2025-09-07T19:31:00 | 55.165664 | 7.419703 | 2.0 | 18.079 | 2 | 43.300 | 18.252 | 32.585 | 2 |
| 2025-09-07T19:32:00 | 55.168308 | 7.419159 | 2.0 | 18.078 | 2 | 43.299 | 18.246 | 32.589 | 2 |
| 2025-09-07T19:33:00 | 55.170937 | 7.418630 | 2.0 | 18.076 | 2 | 43.301 | 18.244 | 32.592 | 2 |
| 2025-09-07T19:34:00 | 55.173562 | 7.418107 | 2.0 | 18.070 | 2 | 43.305 | 18.241 | 32.598 | 2 |
| 2025-09-07T19:35:00 | 55.176172 | 7.417488 | 2.0 | 18.070 | 2 | 43.307 | 18.236 | 32.604 | 2 |
| 2025-09-07T19:36:00 | 55.178790 | 7.416914 | 2.0 | 18.071 | 2 | 43.311 | 18.236 | 32.607 | 2 |
| 2025-09-07T19:37:00 | 55.181427 | 7.416423 | 2.0 | 18.072 | 2 | 43.316 | 18.238 | 32.610 | 2 |
| 2025-09-07T19:38:00 | 55.184052 | 7.415829 | 2.0 | 18.073 | 2 | 43.323 | 18.239 | 32.615 | 2 |
| 2025-09-07T19:39:00 | 55.186661 | 7.415284 | 2.0 | 18.071 | 2 | 43.327 | 18.238 | 32.619 | 2 |
| 2025-09-07T19:40:00 | 55.189276 | 7.414761 | 2.0 | 18.067 | 2 | 43.330 | 18.237 | 32.622 | 2 |
| 2025-09-07T19:41:00 | 55.191899 | 7.414198 | 2.0 | 18.059 | 2 | 43.331 | 18.232 | 32.627 | 2 |
| 2025-09-07T19:42:00 | 55.194518 | 7.413620 | 2.0 | 18.055 | 2 | 43.331 | 18.224 | 32.633 | 2 |
| 2025-09-07T19:43:00 | 55.197149 | 7.413002 | 2.0 | 18.051 | 2 | 43.333 | 18.220 | 32.638 | 2 |
| 2025-09-07T19:44:00 | 55.199811 | 7.412552 | 2.0 | 18.048 | 2 | 43.326 | 18.217 | 32.635 | 2 |
| 2025-09-07T19:45:00 | 55.202435 | 7.412015 | 2.0 | 18.043 | 2 | 43.334 | 18.214 | 32.644 | 2 |
| 2025-09-07T19:46:00 | 55.205070 | 7.411473 | 2.0 | 18.040 | 2 | 43.341 | 18.210 | 32.653 | 2 |
| 2025-09-07T19:47:00 | 55.207703 | 7.410808 | 2.0 | 18.042 | 2 | 43.348 | 18.207 | 32.661 | 2 |
| 2025-09-07T19:48:00 | 55.210320 | 7.410259 | 2.0 | 18.039 | 2 | 43.358 | 18.207 | 32.670 | 2 |
| 2025-09-07T19:49:00 | 55.212956 | 7.409711 | 2.0 | 18.036 | 2 | 43.364 | 18.204 | 32.677 | 2 |
| 2025-09-07T19:50:00 | 55.215581 | 7.409127 | 2.0 | 18.035 | 2 | 43.369 | 18.201 | 32.684 | 2 |
| 2025-09-07T19:51:00 | 55.218215 | 7.408602 | 2.0 | 18.034 | 2 | 43.375 | 18.202 | 32.688 | 2 |
| 2025-09-07T19:52:00 | 55.220824 | 7.408030 | 2.0 | 18.030 | 2 | 43.385 | 18.199 | 32.699 | 2 |
| 2025-09-07T19:53:00 | 55.223456 | 7.407512 | 2.0 | 18.025 | 2 | 43.391 | 18.193 | 32.709 | 2 |
| 2025-09-07T19:54:00 | 55.226112 | 7.406912 | 2.0 | 18.020 | 2 | 43.393 | 18.189 | 32.714 | 2 |
| 2025-09-07T19:55:00 | 55.228744 | 7.406340 | 2.0 | 18.018 | 2 | 43.397 | 18.185 | 32.720 | 2 |
| 2025-09-07T19:56:00 | 55.231367 | 7.405835 | 2.0 | 18.015 | 2 | 43.400 | 18.183 | 32.724 | 2 |
| 2025-09-07T19:57:00 | 55.233989 | 7.405253 | 2.0 | 18.018 | 2 | 43.408 | 18.181 | 32.733 | 2 |
| 2025-09-07T19:58:00 | 55.236609 | 7.404684 | 2.0 | 18.020 | 2 | 43.419 | 18.184 | 32.739 | 2 |
| 2025-09-07T19:59:00 | 55.239231 | 7.404091 | 2.0 | 18.020 | 2 | 43.427 | 18.186 | 32.745 | 2 |
| 2025-09-07T20:00:00 | 55.241855 | 7.403593 | 2.0 | 18.022 | 2 | 43.435 | 18.186 | 32.751 | 2 |
| 2025-09-07T20:01:00 | 55.244454 | 7.403059 | 2.0 | 18.025 | 2 | 43.444 | 18.187 | 32.758 | 2 |
| 2025-09-07T20:02:00 | 55.247065 | 7.402400 | 2.0 | 18.028 | 2 | 43.449 | 18.192 | 32.758 | 2 |
| 2025-09-07T20:03:00 | 55.249653 | 7.401880 | 2.0 | 18.026 | 2 | 43.456 | 18.193 | 32.763 | 2 |
| 2025-09-07T20:04:00 | 55.252275 | 7.401197 | 2.0 | 18.016 | 2 | 43.462 | 18.191 | 32.770 | 2 |
| 2025-09-07T20:05:00 | 55.254914 | 7.400722 | 2.0 | 18.011 | 2 | 43.467 | 18.181 | 32.782 | 2 |
| 2025-09-07T20:06:00 | 55.257560 | 7.400219 | 2.0 | 18.017 | 2 | 43.475 | 18.178 | 32.791 | 2 |
| 2025-09-07T20:07:00 | 55.260193 | 7.399612 | 2.0 | 18.017 | 2 | 43.483 | 18.182 | 32.795 | 2 |
| 2025-09-07T20:08:00 | 55.262830 | 7.398958 | 2.0 | 18.010 | 2 | 43.476 | 18.181 | 32.790 | 2 |
| 2025-09-07T20:09:00 | 55.265467 | 7.398528 | 2.0 | 18.011 | 2 | 43.480 | 18.176 | 32.797 | 2 |
| 2025-09-07T20:10:00 | 55.268132 | 7.397923 | 2.0 | 18.013 | 2 | 43.489 | 18.175 | 32.806 | 2 |
| 2025-09-07T20:11:00 | 55.270776 | 7.397377 | 2.0 | 18.014 | 2 | 43.494 | 18.178 | 32.807 | 2 |
| 2025-09-07T20:12:00 | 55.273424 | 7.396660 | 2.0 | 18.006 | 2 | 43.493 | 18.178 | 32.807 | 2 |
| 2025-09-07T20:13:00 | 55.276081 | 7.396165 | 2.0 | 17.998 | 2 | 43.497 | 18.170 | 32.816 | 2 |
| 2025-09-07T20:14:00 | 55.278714 | 7.395658 | 2.0 | 17.998 | 2 | 43.502 | 18.164 | 32.825 | 2 |
| 2025-09-07T20:15:00 | 55.281357 | 7.395049 | 2.0 | 17.992 | 2 | 43.509 | 18.163 | 32.832 | 2 |
| 2025-09-07T20:16:00 | 55.284038 | 7.394494 | 2.0 | 17.987 | 2 | 43.519 | 18.158 | 32.845 | 2 |
| 2025-09-07T20:17:00 | 55.286683 | 7.394023 | 2.0 | 17.985 | 2 | 43.537 | 18.153 | 32.864 | 2 |
| 2025-09-07T20:18:00 | 55.289240 | 7.393381 | 2.0 | 17.983 | 2 | 43.542 | 18.151 | 32.870 | 2 |
| 2025-09-07T20:19:00 | 55.291855 | 7.392787 | 2.0 | 17.978 | 2 | 43.546 | 18.148 | 32.875 | 2 |
| 2025-09-07T20:20:00 | 55.294528 | 7.392242 | 2.0 | 17.983 | 2 | 43.568 | 18.146 | 32.896 | 2 |
| 2025-09-07T20:21:00 | 55.297184 | 7.391602 | 2.0 | 17.988 | 2 | 43.580 | 18.149 | 32.903 | 2 |
| 2025-09-07T20:22:00 | 55.299831 | 7.391198 | 2.0 | 17.993 | 2 | 43.592 | 18.155 | 32.909 | 2 |
| 2025-09-07T20:23:00 | 55.302475 | 7.390529 | 2.0 | 17.981 | 2 | 43.598 | 18.157 | 32.912 | 2 |
| 2025-09-07T20:24:00 | 55.305091 | 7.389905 | 2.0 | 17.979 | 2 | 43.614 | 18.145 | 32.935 | 2 |
| 2025-09-07T20:25:00 | 55.307683 | 7.389372 | 2.0 | 17.982 | 2 | 43.630 | 18.144 | 32.949 | 2 |
| 2025-09-07T20:26:00 | 55.310296 | 7.388815 | 2.0 | 17.973 | 2 | 43.633 | 18.145 | 32.951 | 2 |
| 2025-09-07T20:27:00 | 55.312906 | 7.388289 | 2.0 | 17.973 | 2 | 43.616 | 18.139 | 32.942 | 2 |
| 2025-09-07T20:28:00 | 55.315512 | 7.387695 | 2.0 | 17.973 | 2 | 43.616 | 18.139 | 32.942 | 2 |
| 2025-09-07T20:29:00 | 55.318098 | 7.387125 | 2.0 | 17.974 | 2 | 43.611 | 18.139 | 32.937 | 2 |
| 2025-09-07T20:30:00 | 55.320688 | 7.386604 | 2.0 | 17.976 | 2 | 43.605 | 18.139 | 32.932 | 2 |
| 2025-09-07T20:31:00 | 55.323306 | 7.385964 | 2.0 | 17.978 | 2 | 43.605 | 18.142 | 32.930 | 2 |
| 2025-09-07T20:32:00 | 55.325921 | 7.385494 | 2.0 | 17.981 | 2 | 43.608 | 18.144 | 32.931 | 2 |
| 2025-09-07T20:33:00 | 55.328569 | 7.385019 | 2.0 | 17.943 | 2 | 43.609 | 18.142 | 32.933 | 2 |
| 2025-09-07T20:34:00 | 55.331219 | 7.384472 | 2.0 | 17.908 | 2 | 43.578 | 18.103 | 32.939 | 2 |
| 2025-09-07T20:35:00 | 55.333815 | 7.383779 | 2.0 | 17.889 | 2 | 43.545 | 18.073 | 32.935 | 2 |
| 2025-09-07T20:36:00 | 55.336400 | 7.383226 | 2.0 | 17.879 | 2 | 43.526 | 18.055 | 32.933 | 2 |
| 2025-09-07T20:37:00 | 55.339025 | 7.382798 | 2.0 | 17.874 | 2 | 43.519 | 18.046 | 32.935 | 2 |
| 2025-09-07T20:38:00 | 55.341658 | 7.382089 | 2.0 | 17.875 | 2 | 43.518 | 18.041 | 32.938 | 2 |
| 2025-09-07T20:39:00 | 55.344322 | 7.381579 | 2.0 | 17.878 | 2 | 43.522 | 18.042 | 32.940 | 2 |
| 2025-09-07T20:40:00 | 55.346993 | 7.380996 | 2.0 | 17.884 | 2 | 43.526 | 18.044 | 32.942 | 2 |
| 2025-09-07T20:41:00 | 55.349660 | 7.380382 | 2.0 | 17.889 | 2 | 43.532 | 18.050 | 32.942 | 2 |
| 2025-09-07T20:42:00 | 55.352297 | 7.379873 | 2.0 | 17.894 | 2 | 43.538 | 18.055 | 32.943 | 2 |
| 2025-09-07T20:43:00 | 55.354923 | 7.379283 | 2.0 | 17.898 | 2 | 43.546 | 18.060 | 32.946 | 2 |
| 2025-09-07T20:44:00 | 55.357555 | 7.378787 | 2.0 | 17.897 | 2 | 43.553 | 18.062 | 32.950 | 2 |
| 2025-09-07T20:45:00 | 55.360191 | 7.378216 | 2.0 | 17.894 | 2 | 43.559 | 18.062 | 32.955 | 2 |
| 2025-09-07T20:46:00 | 55.362821 | 7.377602 | 2.0 | 17.890 | 2 | 43.562 | 18.059 | 32.960 | 2 |
| 2025-09-07T20:47:00 | 55.365471 | 7.377051 | 2.0 | 17.887 | 2 | 43.566 | 18.055 | 32.967 | 2 |
| 2025-09-07T20:48:00 | 55.368117 | 7.376499 | 2.0 | 17.884 | 2 | 43.569 | 18.051 | 32.973 | 2 |
| 2025-09-07T20:49:00 | 55.370766 | 7.375991 | 2.0 | 17.883 | 2 | 43.576 | 18.049 | 32.980 | 2 |
| 2025-09-07T20:50:00 | 55.373429 | 7.375364 | 2.0 | 17.880 | 2 | 43.583 | 18.048 | 32.987 | 2 |
| 2025-09-07T20:51:00 | 55.376086 | 7.374799 | 2.0 | 17.877 | 2 | 43.591 | 18.047 | 32.995 | 2 |
| 2025-09-07T20:52:00 | 55.378737 | 7.374249 | 2.0 | 17.865 | 2 | 43.595 | 18.041 | 33.003 | 2 |
| 2025-09-07T20:53:00 | 55.381372 | 7.373631 | 2.0 | 17.861 | 2 | 43.595 | 18.031 | 33.011 | 2 |
| 2025-09-07T20:54:00 | 55.383998 | 7.373031 | 2.0 | 17.857 | 2 | 43.594 | 18.028 | 33.013 | 2 |
| 2025-09-07T20:55:00 | 55.386610 | 7.372539 | 2.0 | 17.842 | 2 | 43.596 | 18.023 | 33.018 | 2 |
| 2025-09-07T20:56:00 | 55.389137 | 7.371847 | 2.0 | 17.831 | 2 | 43.593 | 18.007 | 33.029 | 2 |
| 2025-09-07T20:57:00 | 55.391731 | 7.371415 | 2.0 | 17.828 | 2 | 43.595 | 17.999 | 33.037 | 2 |
| 2025-09-07T20:58:00 | 55.394311 | 7.370876 | 2.0 | 17.818 | 2 | 43.597 | 17.993 | 33.043 | 2 |
| 2025-09-07T20:59:00 | 55.396938 | 7.370196 | 2.0 | 17.808 | 2 | 43.598 | 17.984 | 33.051 | 2 |
| 2025-09-07T21:00:00 | 55.399570 | 7.369665 | 2.0 | 17.798 | 2 | 43.595 | 17.974 | 33.057 | 2 |
| 2025-09-07T21:01:00 | 55.402178 | 7.369058 | 2.0 | 17.790 | 2 | 43.589 | 17.963 | 33.061 | 2 |
| 2025-09-07T21:02:00 | 55.404802 | 7.368473 | 2.0 | 17.780 | 2 | 43.583 | 17.955 | 33.062 | 2 |
| 2025-09-07T21:03:00 | 55.407446 | 7.368026 | 2.0 | 17.767 | 2 | 43.573 | 17.944 | 33.063 | 2 |
| 2025-09-07T21:04:00 | 55.410104 | 7.367471 | 2.0 | 17.770 | 2 | 43.567 | 17.935 | 33.065 | 2 |
| 2025-09-07T21:05:00 | 55.412713 | 7.366766 | 2.0 | 17.777 | 2 | 43.567 | 17.939 | 33.062 | 2 |
| 2025-09-07T21:06:00 | 55.415325 | 7.366297 | 2.0 | 17.782 | 2 | 43.573 | 17.944 | 33.063 | 2 |
| 2025-09-07T21:07:00 | 55.417956 | 7.365690 | 2.0 | 17.795 | 2 | 43.580 | 17.951 | 33.063 | 2 |
| 2025-09-07T21:08:00 | 55.420571 | 7.365045 | 2.0 | 17.807 | 2 | 43.590 | 17.962 | 33.063 | 2 |
| 2025-09-07T21:09:00 | 55.423193 | 7.364610 | 2.0 | 17.812 | 2 | 43.602 | 17.974 | 33.063 | 2 |
| 2025-09-07T21:10:00 | 55.425839 | 7.364020 | 2.0 | 17.818 | 2 | 43.609 | 17.979 | 33.065 | 2 |
| 2025-09-07T21:11:00 | 55.428487 | 7.363464 | 2.0 | 17.816 | 2 | 43.614 | 17.985 | 33.064 | 2 |
| 2025-09-07T21:12:00 | 55.431103 | 7.362849 | 2.0 | 17.794 | 2 | 43.605 | 17.978 | 33.062 | 2 |
| 2025-09-07T21:13:00 | 55.433702 | 7.362266 | 2.0 | 17.753 | 2 | 43.569 | 17.954 | 33.051 | 2 |
| 2025-09-07T21:14:00 | 55.436251 | 7.361735 | 2.0 | 17.742 | 2 | 43.517 | 17.918 | 33.036 | 2 |
| 2025-09-07T21:15:00 | 55.438811 | 7.361262 | 2.0 | 17.746 | 2 | 43.498 | 17.910 | 33.027 | 2 |
| 2025-09-07T21:16:00 | 55.441430 | 7.360749 | 2.0 | 17.748 | 2 | 43.492 | 17.912 | 33.020 | 2 |
| 2025-09-07T21:17:00 | 55.443942 | 7.360038 | 2.0 | 17.749 | 2 | 43.488 | 17.915 | 33.014 | 2 |
| 2025-09-07T21:18:00 | 55.446332 | 7.359553 | 2.0 | 17.748 | 2 | 43.478 | 17.914 | 33.006 | 2 |
| 2025-09-07T21:19:00 | 55.448889 | 7.359066 | 2.0 | 17.749 | 2 | 43.473 | 17.914 | 33.002 | 2 |
| 2025-09-07T21:20:00 | 55.451490 | 7.358503 | 2.0 | 17.754 | 2 | 43.468 | 17.916 | 32.996 | 2 |
| 2025-09-07T21:21:00 | 55.454122 | 7.357915 | 2.0 | 17.759 | 2 | 43.473 | 17.921 | 32.996 | 2 |
| 2025-09-07T21:22:00 | 55.456770 | 7.357379 | 2.0 | 17.761 | 2 | 43.479 | 17.925 | 32.998 | 2 |
| 2025-09-07T21:23:00 | 55.459397 | 7.356679 | 2.0 | 17.764 | 2 | 43.483 | 17.928 | 32.999 | 2 |
| 2025-09-07T21:24:00 | 55.461955 | 7.356145 | 2.0 | 17.769 | 2 | 43.488 | 17.930 | 33.002 | 2 |
| 2025-09-07T21:25:00 | 55.464566 | 7.355608 | 2.0 | 17.771 | 2 | 43.496 | 17.934 | 33.005 | 2 |
| 2025-09-07T21:26:00 | 55.467180 | 7.355255 | 2.0 | 17.774 | 2 | 43.498 | 17.937 | 33.005 | 2 |
| 2025-09-07T21:27:00 | 55.469825 | 7.354650 | 2.0 | 17.776 | 2 | 43.506 | 17.941 | 33.008 | 2 |
| 2025-09-07T21:28:00 | 55.472464 | 7.354015 | 2.0 | 17.780 | 2 | 43.513 | 17.943 | 33.013 | 2 |
| 2025-09-07T21:29:00 | 55.475118 | 7.353449 | 2.0 | 17.782 | 2 | 43.526 | 17.946 | 33.021 | 2 |
| 2025-09-07T21:30:00 | 55.477754 | 7.352876 | 2.0 | 17.784 | 2 | 43.540 | 17.949 | 33.031 | 2 |
| 2025-09-07T21:31:00 | 55.480362 | 7.352290 | 2.0 | 17.784 | 2 | 43.553 | 17.949 | 33.042 | 2 |
| 2025-09-07T21:32:00 | 55.482954 | 7.351748 | 2.0 | 17.784 | 2 | 43.569 | 17.949 | 33.055 | 2 |
| 2025-09-07T21:33:00 | 55.485537 | 7.351135 | 2.0 | 17.785 | 2 | 43.586 | 17.949 | 33.070 | 2 |
| 2025-09-07T21:34:00 | 55.488153 | 7.350658 | 2.0 | 17.786 | 2 | 43.610 | 17.950 | 33.089 | 2 |
| 2025-09-07T21:35:00 | 55.490776 | 7.350037 | 2.0 | 17.796 | 2 | 43.643 | 17.955 | 33.113 | 2 |
| 2025-09-07T21:36:00 | 55.493356 | 7.349426 | 2.0 | 17.802 | 2 | 43.681 | 17.963 | 33.139 | 2 |
| 2025-09-07T21:37:00 | 55.495948 | 7.348959 | 2.0 | 17.801 | 2 | 43.699 | 17.967 | 33.151 | 2 |
| 2025-09-07T21:38:00 | 55.498545 | 7.348432 | 2.0 | 17.732 | 2 | 43.694 | 17.963 | 33.150 | 2 |
| 2025-09-07T21:39:00 | 55.501140 | 7.347695 | 2.0 | 17.725 | 2 | 43.550 | 17.893 | 33.084 | 2 |
| 2025-09-07T21:40:00 | 55.503730 | 7.347200 | 2.0 | 17.739 | 2 | 43.473 | 17.896 | 33.017 | 2 |
| 2025-09-07T21:41:00 | 55.506312 | 7.346661 | 2.0 | 17.772 | 2 | 43.467 | 17.910 | 33.000 | 2 |
| 2025-09-07T21:42:00 | 55.508901 | 7.345976 | 2.0 | 17.777 | 2 | 43.488 | 17.941 | 32.993 | 2 |
| 2025-09-07T21:43:00 | 55.511473 | 7.345463 | 2.0 | 17.773 | 2 | 43.482 | 17.938 | 32.990 | 2 |
| 2025-09-07T21:44:00 | 55.514032 | 7.344951 | 2.0 | 17.798 | 2 | 43.471 | 17.945 | 32.975 | 2 |
| 2025-09-07T21:45:00 | 55.516559 | 7.344298 | 2.0 | 17.771 | 2 | 43.472 | 17.960 | 32.964 | 2 |
| 2025-09-07T21:46:00 | 55.519080 | 7.343806 | 2.0 | 17.756 | 2 | 43.460 | 17.934 | 32.975 | 2 |
| 2025-09-07T21:47:00 | 55.521568 | 7.343187 | 2.0 | 17.774 | 2 | 43.453 | 17.927 | 32.975 | 2 |
| 2025-09-07T21:48:00 | 55.524040 | 7.342783 | 2.0 | 17.783 | 2 | 43.457 | 17.942 | 32.966 | 2 |
| 2025-09-07T21:49:00 | 55.526552 | 7.342226 | 2.0 | 17.798 | 2 | 43.459 | 17.951 | 32.960 | 2 |
| 2025-09-07T21:50:00 | 55.529100 | 7.341519 | 2.0 | 17.812 | 2 | 43.460 | 17.963 | 32.952 | 2 |
| 2025-09-07T21:51:00 | 55.531643 | 7.341084 | 2.0 | 17.833 | 2 | 43.465 | 17.980 | 32.942 | 2 |
| 2025-09-07T21:52:00 | 55.534035 | 7.340516 | 2.0 | 17.847 | 2 | 43.476 | 17.999 | 32.936 | 2 |
| 2025-09-07T21:53:00 | 55.536540 | 7.339912 | 2.0 | 17.861 | 2 | 43.487 | 18.014 | 32.933 | 2 |
| 2025-09-07T21:54:00 | 55.539071 | 7.339371 | 2.0 | 17.870 | 2 | 43.493 | 18.027 | 32.928 | 2 |
| 2025-09-07T21:55:00 | 55.541667 | 7.338858 | 2.0 | 17.877 | 2 | 43.501 | 18.036 | 32.927 | 2 |
| 2025-09-07T21:56:00 | 55.544261 | 7.338212 | 2.0 | 17.880 | 2 | 43.505 | 18.042 | 32.926 | 2 |
| 2025-09-07T21:57:00 | 55.546844 | 7.337762 | 2.0 | 17.882 | 2 | 43.507 | 18.044 | 32.926 | 2 |
| 2025-09-07T21:58:00 | 55.549414 | 7.337279 | 2.0 | 17.882 | 2 | 43.509 | 18.046 | 32.926 | 2 |
| 2025-09-07T21:59:00 | 55.551988 | 7.336731 | 2.0 | 17.880 | 2 | 43.512 | 18.047 | 32.928 | 2 |
| 2025-09-07T22:00:00 | 55.554582 | 7.336097 | 2.0 | 17.875 | 2 | 43.512 | 18.044 | 32.930 | 2 |
| 2025-09-07T22:01:00 | 55.557195 | 7.335489 | 2.0 | 17.866 | 2 | 43.510 | 18.039 | 32.933 | 2 |
| 2025-09-07T22:02:00 | 55.559809 | 7.335040 | 2.0 | 17.860 | 2 | 43.505 | 18.030 | 32.936 | 2 |
| 2025-09-07T22:03:00 | 55.562406 | 7.334388 | 2.0 | 17.855 | 2 | 43.501 | 18.024 | 32.937 | 2 |
| 2025-09-07T22:04:00 | 55.565009 | 7.333823 | 2.0 | 17.849 | 2 | 43.498 | 18.020 | 32.938 | 2 |
| 2025-09-07T22:05:00 | 55.567644 | 7.333365 | 2.0 | 17.842 | 2 | 43.495 | 18.014 | 32.940 | 2 |
| 2025-09-07T22:06:00 | 55.570244 | 7.332658 | 2.0 | 17.837 | 2 | 43.491 | 18.007 | 32.942 | 2 |
| 2025-09-07T22:07:00 | 55.572863 | 7.332122 | 2.0 | 17.832 | 2 | 43.488 | 18.001 | 32.945 | 2 |
| 2025-09-07T22:08:00 | 55.575504 | 7.331579 | 2.0 | 17.830 | 2 | 43.476 | 17.997 | 32.938 | 2 |
| 2025-09-07T22:09:00 | 55.578128 | 7.330976 | 2.0 | 17.826 | 2 | 43.481 | 17.994 | 32.944 | 2 |
| 2025-09-07T22:10:00 | 55.580762 | 7.330441 | 2.0 | 17.827 | 2 | 43.483 | 17.993 | 32.947 | 2 |
| 2025-09-07T22:11:00 | 55.583422 | 7.329922 | 2.0 | 17.827 | 2 | 43.485 | 17.992 | 32.949 | 2 |
| 2025-09-07T22:12:00 | 55.586076 | 7.329264 | 2.0 | 17.827 | 2 | 43.489 | 17.992 | 32.953 | 2 |
| 2025-09-07T22:13:00 | 55.588704 | 7.328649 | 2.0 | 17.826 | 2 | 43.492 | 17.992 | 32.955 | 2 |
| 2025-09-07T22:14:00 | 55.591349 | 7.328103 | 2.0 | 17.829 | 2 | 43.495 | 17.991 | 32.959 | 2 |
| 2025-09-07T22:15:00 | 55.593987 | 7.327521 | 2.0 | 17.835 | 2 | 43.496 | 17.995 | 32.956 | 2 |
| 2025-09-07T22:16:00 | 55.596592 | 7.326876 | 2.0 | 17.842 | 2 | 43.495 | 18.001 | 32.951 | 2 |
| 2025-09-07T22:17:00 | 55.599244 | 7.326327 | 2.0 | 17.841 | 2 | 43.505 | 18.007 | 32.954 | 2 |
| 2025-09-07T22:18:00 | 55.601941 | 7.325739 | 2.0 | 17.841 | 2 | 43.506 | 18.005 | 32.957 | 2 |
| 2025-09-07T22:19:00 | 55.604647 | 7.325137 | 2.0 | 17.865 | 2 | 43.496 | 18.008 | 32.946 | 2 |
| 2025-09-07T22:20:00 | 55.607360 | 7.324527 | 2.0 | 17.891 | 2 | 43.463 | 18.034 | 32.897 | 2 |
| 2025-09-07T22:21:00 | 55.610064 | 7.323893 | 2.0 | 17.906 | 2 | 43.437 | 18.056 | 32.857 | 2 |
| 2025-09-07T22:22:00 | 55.612744 | 7.323404 | 2.0 | 17.939 | 2 | 43.420 | 18.074 | 32.828 | 2 |
| 2025-09-07T22:23:00 | 55.615448 | 7.322723 | 2.0 | 17.969 | 2 | 43.406 | 18.107 | 32.790 | 2 |
| 2025-09-07T22:24:00 | 55.618127 | 7.322160 | 2.0 | 17.981 | 2 | 43.410 | 18.132 | 32.773 | 2 |
| 2025-09-07T22:25:00 | 55.620753 | 7.321749 | 2.0 | 17.986 | 2 | 43.409 | 18.144 | 32.763 | 2 |
| 2025-09-07T22:26:00 | 55.623408 | 7.321095 | 2.0 | 17.992 | 2 | 43.411 | 18.149 | 32.761 | 2 |
| 2025-09-07T22:27:00 | 55.626100 | 7.320511 | 2.0 | 18.002 | 2 | 43.416 | 18.156 | 32.759 | 2 |
| 2025-09-07T22:28:00 | 55.628797 | 7.319862 | 2.0 | 18.007 | 2 | 43.418 | 18.165 | 32.754 | 2 |
| 2025-09-07T22:29:00 | 55.631465 | 7.319335 | 2.0 | 18.015 | 2 | 43.418 | 18.172 | 32.748 | 2 |
| 2025-09-07T22:30:00 | 55.634163 | 7.318686 | 2.0 | 18.020 | 2 | 43.424 | 18.179 | 32.748 | 2 |
| 2025-09-07T22:31:00 | 55.636827 | 7.318106 | 2.0 | 18.022 | 2 | 43.431 | 18.183 | 32.750 | 2 |
| 2025-09-07T22:32:00 | 55.639496 | 7.317538 | 2.0 | 18.022 | 2 | 43.437 | 18.185 | 32.754 | 2 |
| 2025-09-07T22:33:00 | 55.642178 | 7.316997 | 2.0 | 18.018 | 2 | 43.440 | 18.185 | 32.756 | 2 |
| 2025-09-07T22:34:00 | 55.644858 | 7.316443 | 2.0 | 18.014 | 2 | 43.442 | 18.181 | 32.761 | 2 |
| 2025-09-07T22:35:00 | 55.647547 | 7.315844 | 2.0 | 18.007 | 2 | 43.447 | 18.178 | 32.768 | 2 |
| 2025-09-07T22:36:00 | 55.650263 | 7.315188 | 2.0 | 17.998 | 2 | 43.452 | 18.171 | 32.778 | 2 |
| 2025-09-07T22:37:00 | 55.653011 | 7.314652 | 2.0 | 17.989 | 2 | 43.463 | 18.162 | 32.794 | 2 |
| 2025-09-07T22:38:00 | 55.655738 | 7.314051 | 2.0 | 17.977 | 2 | 43.467 | 18.153 | 32.805 | 2 |
| 2025-09-07T22:39:00 | 55.658445 | 7.313447 | 2.0 | 17.975 | 2 | 43.472 | 18.142 | 32.818 | 2 |
| 2025-09-07T22:40:00 | 55.661098 | 7.312869 | 2.0 | 17.962 | 2 | 43.404 | 18.137 | 32.764 | 2 |
| 2025-09-07T22:41:00 | 55.663828 | 7.312222 | 2.0 | 17.946 | 2 | 43.376 | 18.124 | 32.751 | 2 |
| 2025-09-07T22:42:00 | 55.666577 | 7.311686 | 2.0 | 17.952 | 2 | 43.454 | 18.112 | 32.827 | 2 |
| 2025-09-07T22:43:00 | 55.669338 | 7.311117 | 2.0 | 17.961 | 2 | 43.460 | 18.118 | 32.827 | 2 |
| 2025-09-07T22:44:00 | 55.672086 | 7.310461 | 2.0 | 17.967 | 2 | 43.458 | 18.126 | 32.819 | 2 |
| 2025-09-07T22:45:00 | 55.674829 | 7.309894 | 2.0 | 17.966 | 2 | 43.449 | 18.131 | 32.807 | 2 |
| 2025-09-07T22:46:00 | 55.677557 | 7.309275 | 2.0 | 17.958 | 2 | 43.394 | 18.130 | 32.762 | 2 |
| 2025-09-07T22:47:00 | 55.680234 | 7.308663 | 2.0 | 17.956 | 2 | 43.386 | 18.122 | 32.761 | 2 |
| 2025-09-07T22:48:00 | 55.682956 | 7.308006 | 2.0 | 17.969 | 2 | 43.369 | 18.123 | 32.746 | 2 |
| 2025-09-07T22:49:00 | 55.685724 | 7.307486 | 2.0 | 17.992 | 2 | 43.165 | 18.136 | 32.564 | 2 |
| 2025-09-07T22:50:00 | 55.688549 | 7.306748 | 2.0 | 18.008 | 2 | 43.359 | 18.158 | 32.710 | 2 |
| 2025-09-07T22:51:00 | 55.691393 | 7.306246 | 2.0 | 18.027 | 2 | 43.103 | 18.174 | 32.481 | 2 |
| 2025-09-07T22:52:00 | 55.694226 | 7.305614 | 2.0 | 18.042 | 2 | 43.262 | 18.192 | 32.601 | 2 |
| 2025-09-07T22:53:00 | 55.697023 | 7.305047 | 2.0 | 18.048 | 2 | 43.172 | 18.206 | 32.514 | 2 |
| 2025-09-07T22:54:00 | 55.699780 | 7.304451 | 2.0 | 18.046 | 2 | 43.155 | 18.209 | 32.497 | 2 |
| 2025-09-07T22:55:00 | 55.702550 | 7.303825 | 2.0 | 18.048 | 2 | 43.304 | 18.210 | 32.622 | 2 |
| 2025-09-07T22:56:00 | 55.705324 | 7.303376 | 2.0 | 18.045 | 2 | 43.248 | 18.212 | 32.573 | 2 |
| 2025-09-07T22:57:00 | 55.708140 | 7.303110 | 2.0 | 18.044 | 2 | 43.328 | 18.208 | 32.644 | 2 |
| 2025-09-07T22:58:00 | 55.710919 | 7.302751 | 2.0 | 18.055 | 2 | 43.283 | 18.211 | 32.603 | 2 |
| 2025-09-07T22:59:00 | 55.713705 | 7.302560 | 2.0 | 18.057 | 2 | 43.279 | 18.219 | 32.594 | 2 |
| 2025-09-07T23:00:00 | 55.716499 | 7.302433 | 2.0 | 18.060 | 2 | 43.183 | 18.225 | 32.508 | 2 |
| 2025-09-07T23:01:00 | 55.719316 | 7.302355 | 2.0 | 18.047 | 2 | 43.153 | 18.221 | 32.486 | 2 |
| 2025-09-07T23:02:00 | 55.722146 | 7.302380 | 2.0 | 18.054 | 2 | 43.265 | 18.213 | 32.587 | 2 |
| 2025-09-07T23:03:00 | 55.724945 | 7.302442 | 2.0 | 18.070 | 2 | 43.055 | 18.223 | 32.402 | 2 |
| 2025-09-07T23:04:00 | 55.727713 | 7.302333 | 2.0 | 18.077 | 2 | 43.136 | 18.235 | 32.461 | 2 |
| 2025-09-07T23:05:00 | 55.730466 | 7.302415 | 2.0 | 18.079 | 2 | 43.030 | 18.241 | 32.367 | 2 |
| 2025-09-07T23:06:00 | 55.733278 | 7.302499 | 2.0 | 18.077 | 2 | 43.161 | 18.242 | 32.476 | 2 |
| 2025-09-07T23:07:00 | 55.736090 | 7.302463 | 2.0 | 18.073 | 2 | 43.076 | 18.240 | 32.406 | 2 |
| 2025-09-07T23:08:00 | 55.738894 | 7.302400 | 2.0 | 18.064 | 2 | 43.045 | 18.236 | 32.383 | 2 |
| 2025-09-07T23:09:00 | 55.741696 | 7.302427 | 2.0 | 18.054 | 2 | 43.137 | 18.228 | 32.467 | 2 |
| 2025-09-07T23:10:00 | 55.744531 | 7.302578 | 2.0 | 18.043 | 2 | 43.139 | 18.217 | 32.477 | 2 |
| 2025-09-07T23:11:00 | 55.747388 | 7.302458 | 2.0 | 18.030 | 2 | 43.172 | 18.206 | 32.514 | 2 |
| 2025-09-07T23:12:00 | 55.750226 | 7.302429 | 2.0 | 18.016 | 2 | 43.184 | 18.193 | 32.534 | 2 |
| 2025-09-07T23:13:00 | 55.753083 | 7.302383 | 2.0 | 18.001 | 2 | 43.205 | 18.179 | 32.563 | 2 |
| 2025-09-07T23:14:00 | 55.755956 | 7.302415 | 2.0 | 17.972 | 2 | 43.232 | 18.161 | 32.600 | 2 |
| 2025-09-07T23:15:00 | 55.758829 | 7.302421 | 2.0 | 17.950 | 2 | 43.274 | 18.136 | 32.655 | 2 |
| 2025-09-07T23:16:00 | 55.761664 | 7.302381 | 2.0 | 17.930 | 2 | 43.255 | 18.113 | 32.658 | 2 |
| 2025-09-07T23:17:00 | 55.764505 | 7.302390 | 2.0 | 17.918 | 2 | 43.289 | 18.095 | 32.701 | 2 |
| 2025-09-07T23:18:00 | 55.767340 | 7.302349 | 2.0 | 17.908 | 2 | 43.294 | 18.083 | 32.715 | 2 |
| 2025-09-07T23:19:00 | 55.770160 | 7.302445 | 2.0 | 17.898 | 2 | 43.306 | 18.072 | 32.734 | 2 |
| 2025-09-07T23:20:00 | 55.772994 | 7.302393 | 2.0 | 17.890 | 2 | 43.318 | 18.064 | 32.750 | 2 |
| 2025-09-07T23:21:00 | 55.775835 | 7.302426 | 2.0 | 17.878 | 2 | 43.326 | 18.054 | 32.765 | 2 |
| 2025-09-07T23:22:00 | 55.778669 | 7.302479 | 2.0 | 17.876 | 2 | 43.312 | 18.044 | 32.761 | 2 |
| 2025-09-07T23:23:00 | 55.781556 | 7.302396 | 2.0 | 17.872 | 2 | 43.347 | 18.041 | 32.793 | 2 |
| 2025-09-07T23:24:00 | 55.784419 | 7.302399 | 2.0 | 17.867 | 2 | 43.347 | 18.036 | 32.797 | 2 |
| 2025-09-07T23:25:00 | 55.787250 | 7.302448 | 2.0 | 17.861 | 2 | 43.375 | 18.031 | 32.825 | 2 |
| 2025-09-07T23:26:00 | 55.790088 | 7.302382 | 2.0 | 17.854 | 2 | 43.384 | 18.027 | 32.836 | 2 |
| 2025-09-07T23:27:00 | 55.792926 | 7.302452 | 2.0 | 17.841 | 2 | 43.373 | 18.019 | 32.833 | 2 |
| 2025-09-07T23:28:00 | 55.795767 | 7.302537 | 2.0 | 17.829 | 2 | 43.392 | 18.005 | 32.860 | 2 |
| 2025-09-07T23:29:00 | 55.798582 | 7.302381 | 2.0 | 17.821 | 2 | 43.403 | 17.994 | 32.878 | 2 |
| 2025-09-07T23:30:00 | 55.801397 | 7.302454 | 2.0 | 17.815 | 2 | 43.413 | 17.986 | 32.893 | 2 |
| 2025-09-07T23:31:00 | 55.804208 | 7.302389 | 2.0 | 17.802 | 2 | 43.416 | 17.979 | 32.901 | 2 |
| 2025-09-07T23:32:00 | 55.807034 | 7.302502 | 2.0 | 17.796 | 2 | 43.417 | 17.967 | 32.912 | 2 |
| 2025-09-07T23:33:00 | 55.809861 | 7.302460 | 2.0 | 17.792 | 2 | 43.436 | 17.963 | 32.931 | 2 |
| 2025-09-07T23:34:00 | 55.812696 | 7.302426 | 2.0 | 17.796 | 2 | 43.441 | 17.958 | 32.939 | 2 |
| 2025-09-07T23:35:00 | 55.815504 | 7.302459 | 2.0 | 17.809 | 2 | 43.449 | 17.963 | 32.942 | 2 |
| 2025-09-07T23:36:00 | 55.818342 | 7.302454 | 2.0 | 17.815 | 2 | 43.470 | 17.975 | 32.950 | 2 |
| 2025-09-07T23:37:00 | 55.821193 | 7.302470 | 2.0 | 17.819 | 2 | 43.487 | 17.981 | 32.960 | 2 |
| 2025-09-07T23:38:00 | 55.824027 | 7.302524 | 2.0 | 17.815 | 2 | 43.494 | 17.983 | 32.964 | 2 |
| 2025-09-07T23:39:00 | 55.826834 | 7.302517 | 2.0 | 17.799 | 2 | 43.507 | 17.980 | 32.978 | 2 |
| 2025-09-07T23:40:00 | 55.829671 | 7.302428 | 2.0 | 17.760 | 2 | 43.502 | 17.958 | 32.991 | 2 |
| 2025-09-07T23:41:00 | 55.832462 | 7.302431 | 2.0 | 17.755 | 2 | 43.474 | 17.927 | 32.992 | 2 |
| 2025-09-07T23:42:00 | 55.835270 | 7.302441 | 2.0 | 17.767 | 2 | 43.455 | 17.924 | 32.979 | 2 |
| 2025-09-07T23:43:00 | 55.838078 | 7.302440 | 2.0 | 17.774 | 2 | 43.451 | 17.933 | 32.968 | 2 |
| 2025-09-07T23:44:00 | 55.840918 | 7.302414 | 2.0 | 17.786 | 2 | 43.461 | 17.941 | 32.970 | 2 |
| 2025-09-07T23:45:00 | 55.843774 | 7.302377 | 2.0 | 17.796 | 2 | 43.483 | 17.953 | 32.979 | 2 |
| 2025-09-07T23:46:00 | 55.846631 | 7.302488 | 2.0 | 17.798 | 2 | 43.503 | 17.961 | 32.990 | 2 |
| 2025-09-07T23:47:00 | 55.849496 | 7.302617 | 2.0 | 17.794 | 2 | 43.515 | 17.961 | 33.000 | 2 |
| 2025-09-07T23:48:00 | 55.852371 | 7.302651 | 2.0 | 17.790 | 2 | 43.524 | 17.958 | 33.010 | 2 |
| 2025-09-07T23:49:00 | 55.855160 | 7.302867 | 2.0 | 17.785 | 2 | 43.532 | 17.954 | 33.020 | 2 |
| 2025-09-07T23:50:00 | 55.857969 | 7.302882 | 2.0 | 17.780 | 2 | 43.538 | 17.951 | 33.027 | 2 |
| 2025-09-07T23:51:00 | 55.860813 | 7.302958 | 2.0 | 17.776 | 2 | 43.540 | 17.945 | 33.034 | 2 |
| 2025-09-07T23:52:00 | 55.863667 | 7.303027 | 2.0 | 17.775 | 2 | 43.548 | 17.942 | 33.043 | 2 |
| 2025-09-07T23:53:00 | 55.866527 | 7.303154 | 2.0 | 17.773 | 2 | 43.552 | 17.940 | 33.048 | 2 |
| 2025-09-07T23:54:00 | 55.869368 | 7.303277 | 2.0 | 17.774 | 2 | 43.555 | 17.939 | 33.051 | 2 |
| 2025-09-07T23:55:00 | 55.872188 | 7.303299 | 2.0 | 17.768 | 2 | 43.557 | 17.939 | 33.053 | 2 |
| 2025-09-07T23:56:00 | 55.874956 | 7.303239 | 2.0 | 17.761 | 2 | 43.548 | 17.931 | 33.052 | 2 |
| 2025-09-07T23:57:00 | 55.877713 | 7.303458 | 2.0 | 17.763 | 2 | 43.534 | 17.927 | 33.043 | 2 |
| 2025-09-07T23:58:00 | 55.880530 | 7.303510 | 2.0 | 17.766 | 2 | 43.532 | 17.929 | 33.040 | 2 |
| 2025-09-07T23:59:00 | 55.883362 | 7.303508 | 2.0 | 17.766 | 2 | 43.530 | 17.931 | 33.037 | 2 |
| 2025-09-08T00:00:00 | 55.886202 | 7.303480 | 2.0 | 17.761 | 2 | 43.526 | 17.930 | 33.034 | 2 |
| 2025-09-08T00:01:00 | 55.889014 | 7.303551 | 2.0 | 17.760 | 2 | 43.516 | 17.925 | 33.030 | 2 |
| 2025-09-08T00:02:00 | 55.891849 | 7.303472 | 2.0 | 17.760 | 2 | 43.509 | 17.925 | 33.024 | 2 |
| 2025-09-08T00:03:00 | 55.894706 | 7.303469 | 2.0 | 17.764 | 2 | 43.500 | 17.925 | 33.016 | 2 |
| 2025-09-08T00:04:00 | 55.897580 | 7.303505 | 2.0 | 17.772 | 2 | 43.488 | 17.930 | 33.002 | 2 |
| 2025-09-08T00:05:00 | 55.900455 | 7.303447 | 2.0 | 17.767 | 2 | 43.478 | 17.936 | 32.989 | 2 |
| 2025-09-08T00:06:00 | 55.903318 | 7.303475 | 2.0 | 17.751 | 2 | 43.476 | 17.929 | 32.993 | 2 |
| 2025-09-08T00:07:00 | 55.906180 | 7.303517 | 2.0 | 17.747 | 2 | 43.472 | 17.918 | 32.998 | 2 |
| 2025-09-08T00:08:00 | 55.909062 | 7.303463 | 2.0 | 17.739 | 2 | 43.465 | 17.911 | 32.998 | 2 |
| 2025-09-08T00:09:00 | 55.911891 | 7.303543 | 2.0 | 17.734 | 2 | 43.455 | 17.905 | 32.994 | 2 |
| 2025-09-08T00:10:00 | 55.914680 | 7.303462 | 2.0 | 17.743 | 2 | 43.448 | 17.900 | 32.992 | 2 |
| 2025-09-08T00:11:00 | 55.917511 | 7.303453 | 2.0 | 17.749 | 2 | 43.441 | 17.909 | 32.979 | 2 |
| 2025-09-08T00:12:00 | 55.920367 | 7.303520 | 2.0 | 17.759 | 2 | 43.441 | 17.915 | 32.974 | 2 |
| 2025-09-08T00:13:00 | 55.923208 | 7.303432 | 2.0 | 17.767 | 2 | 43.444 | 17.925 | 32.969 | 2 |
| 2025-09-08T00:14:00 | 55.926078 | 7.303546 | 2.0 | 17.771 | 2 | 43.450 | 17.933 | 32.967 | 2 |
| 2025-09-08T00:15:00 | 55.928967 | 7.303514 | 2.0 | 17.769 | 2 | 43.457 | 17.936 | 32.971 | 2 |
| 2025-09-08T00:16:00 | 55.931837 | 7.303612 | 2.0 | 17.769 | 2 | 43.463 | 17.934 | 32.977 | 2 |
| 2025-09-08T00:17:00 | 55.934637 | 7.303425 | 2.0 | 17.770 | 2 | 43.472 | 17.934 | 32.985 | 2 |
| 2025-09-08T00:18:00 | 55.937484 | 7.303482 | 2.0 | 17.762 | 2 | 43.481 | 17.933 | 32.994 | 2 |
| 2025-09-08T00:19:00 | 55.940355 | 7.303488 | 2.0 | 17.756 | 2 | 43.490 | 17.927 | 33.006 | 2 |
| 2025-09-08T00:20:00 | 55.943236 | 7.303553 | 2.0 | 17.740 | 2 | 43.497 | 17.920 | 33.018 | 2 |
| 2025-09-08T00:21:00 | 55.946090 | 7.303561 | 2.0 | 17.723 | 2 | 43.503 | 17.904 | 33.036 | 2 |
| 2025-09-08T00:22:00 | 55.948960 | 7.303458 | 2.0 | 17.708 | 2 | 43.511 | 17.886 | 33.057 | 2 |
| 2025-09-08T00:23:00 | 55.951845 | 7.303444 | 2.0 | 17.695 | 2 | 43.518 | 17.873 | 33.074 | 2 |
| 2025-09-08T00:24:00 | 55.954689 | 7.303571 | 2.0 | 17.677 | 2 | 43.524 | 17.858 | 33.091 | 2 |
| 2025-09-08T00:25:00 | 55.957527 | 7.303486 | 2.0 | 17.655 | 2 | 43.532 | 17.839 | 33.113 | 2 |
| 2025-09-08T00:26:00 | 55.960349 | 7.303520 | 2.0 | 17.639 | 2 | 43.531 | 17.820 | 33.128 | 2 |
| 2025-09-08T00:27:00 | 55.963194 | 7.303442 | 2.0 | 17.619 | 2 | 43.541 | 17.805 | 33.148 | 2 |
| 2025-09-08T00:28:00 | 55.966066 | 7.303497 | 2.0 | 17.607 | 2 | 43.543 | 17.784 | 33.167 | 2 |
| 2025-09-08T00:29:00 | 55.968942 | 7.303523 | 2.0 | 17.597 | 2 | 43.545 | 17.773 | 33.178 | 2 |
| 2025-09-08T00:30:00 | 55.971794 | 7.303492 | 2.0 | 17.590 | 2 | 43.543 | 17.763 | 33.184 | 2 |
| 2025-09-08T00:31:00 | 55.974641 | 7.303430 | 2.0 | 17.577 | 2 | 43.539 | 17.755 | 33.187 | 2 |
| 2025-09-08T00:32:00 | 55.977498 | 7.303500 | 2.0 | 17.559 | 2 | 43.534 | 17.739 | 33.196 | 2 |
| 2025-09-08T00:33:00 | 55.980356 | 7.303521 | 2.0 | 17.559 | 2 | 43.534 | 17.727 | 33.206 | 2 |
| 2025-09-08T00:34:00 | 55.983209 | 7.303464 | 2.0 | 17.549 | 2 | 43.535 | 17.723 | 33.210 | 2 |
| 2025-09-08T00:35:00 | 55.985993 | 7.303577 | 2.0 | 17.543 | 2 | 43.532 | 17.713 | 33.216 | 2 |
| 2025-09-08T00:36:00 | 55.988820 | 7.303514 | 2.0 | 17.543 | 2 | 43.535 | 17.709 | 33.221 | 2 |
| 2025-09-08T00:37:00 | 55.991655 | 7.303458 | 2.0 | 17.541 | 2 | 43.541 | 17.708 | 33.227 | 2 |
| 2025-09-08T00:38:00 | 55.994471 | 7.303520 | 2.0 | 17.541 | 2 | 43.547 | 17.708 | 33.233 | 2 |
| 2025-09-08T00:39:00 | 55.997286 | 7.303486 | 2.0 | 17.540 | 2 | 43.555 | 17.707 | 33.240 | 2 |
| 2025-09-08T00:40:00 | 56.000135 | 7.303502 | 2.0 | 17.535 | 2 | 43.560 | 17.706 | 33.245 | 2 |
| 2025-09-08T00:41:00 | 56.002984 | 7.303444 | 2.0 | 17.531 | 2 | 43.563 | 17.701 | 33.252 | 2 |
| 2025-09-08T00:42:00 | 56.005785 | 7.303404 | 2.0 | 17.527 | 2 | 43.565 | 17.696 | 33.258 | 2 |
| 2025-09-08T00:43:00 | 56.008601 | 7.303485 | 2.0 | 17.522 | 2 | 43.568 | 17.693 | 33.263 | 2 |
| 2025-09-08T00:44:00 | 56.011435 | 7.303478 | 2.0 | 17.513 | 2 | 43.568 | 17.688 | 33.267 | 2 |
| 2025-09-08T00:45:00 | 56.014227 | 7.303463 | 2.0 | 17.509 | 2 | 43.564 | 17.680 | 33.270 | 2 |
| 2025-09-08T00:46:00 | 56.017078 | 7.303452 | 2.0 | 17.500 | 2 | 43.561 | 17.673 | 33.273 | 2 |
| 2025-09-08T00:47:00 | 56.019928 | 7.303418 | 2.0 | 17.494 | 2 | 43.557 | 17.666 | 33.275 | 2 |
| 2025-09-08T00:48:00 | 56.022739 | 7.303479 | 2.0 | 17.487 | 2 | 43.558 | 17.659 | 33.282 | 2 |
| 2025-09-08T00:49:00 | 56.025557 | 7.303288 | 2.0 | 17.478 | 2 | 43.557 | 17.652 | 33.287 | 2 |
| 2025-09-08T00:50:00 | 56.028405 | 7.303483 | 2.0 | 17.470 | 2 | 43.442 | 17.644 | 33.195 | 2 |
| 2025-09-08T00:51:00 | 56.031246 | 7.303420 | 2.0 | 17.468 | 2 | 43.488 | 17.637 | 33.240 | 2 |
| 2025-09-08T00:52:00 | 56.034102 | 7.303386 | 2.0 | 17.465 | 2 | 43.461 | 17.634 | 33.220 | 2 |
| 2025-09-08T00:53:00 | 56.036950 | 7.303406 | 2.0 | 17.467 | 2 | 43.532 | 17.632 | 33.282 | 2 |
| 2025-09-08T00:54:00 | 56.039786 | 7.303476 | 2.0 | 17.473 | 2 | 43.525 | 17.634 | 33.274 | 2 |
| 2025-09-08T00:55:00 | 56.042630 | 7.303464 | 2.0 | 17.480 | 2 | 43.578 | 17.641 | 33.314 | 2 |
| 2025-09-08T00:56:00 | 56.045476 | 7.303376 | 2.0 | 17.482 | 2 | 43.595 | 17.647 | 33.323 | 2 |
| 2025-09-08T00:57:00 | 56.048345 | 7.303390 | 2.0 | 17.480 | 2 | 43.605 | 17.649 | 33.330 | 2 |
| 2025-09-08T00:58:00 | 56.051204 | 7.303388 | 2.0 | 17.465 | 2 | 43.593 | 17.644 | 33.324 | 2 |
| 2025-09-08T00:59:00 | 56.054073 | 7.303323 | 2.0 | 17.438 | 2 | 43.595 | 17.628 | 33.339 | 2 |
| 2025-09-08T01:00:00 | 56.056949 | 7.303386 | 2.0 | 17.404 | 2 | 43.589 | 17.603 | 33.354 | 2 |
| 2025-09-08T01:01:00 | 56.059781 | 7.303457 | 2.0 | 17.407 | 2 | 43.535 | 17.574 | 33.332 | 2 |
| 2025-09-08T01:02:00 | 56.062635 | 7.303380 | 2.0 | 17.415 | 2 | 43.516 | 17.575 | 33.315 | 2 |
| 2025-09-08T01:03:00 | 56.065471 | 7.303368 | 2.0 | 17.423 | 2 | 43.523 | 17.584 | 33.314 | 2 |
| 2025-09-08T01:04:00 | 56.068292 | 7.303407 | 2.0 | 17.424 | 2 | 43.528 | 17.590 | 33.313 | 2 |
| 2025-09-08T01:05:00 | 56.071109 | 7.303440 | 2.0 | 17.429 | 2 | 43.529 | 17.591 | 33.313 | 2 |
| 2025-09-08T01:06:00 | 56.073909 | 7.303402 | 2.0 | 17.444 | 2 | 43.539 | 17.597 | 33.317 | 2 |
| 2025-09-08T01:07:00 | 56.076751 | 7.303461 | 2.0 | 17.464 | 2 | 43.562 | 17.614 | 33.322 | 2 |
| 2025-09-08T01:08:00 | 56.079633 | 7.303416 | 2.0 | 17.470 | 2 | 43.585 | 17.630 | 33.329 | 2 |
| 2025-09-08T01:09:00 | 56.082498 | 7.303505 | 2.0 | 17.471 | 2 | 43.599 | 17.634 | 33.338 | 2 |
| 2025-09-08T01:10:00 | 56.085329 | 7.303684 | 2.0 | 17.471 | 2 | 43.608 | 17.636 | 33.344 | 2 |
| 2025-09-08T01:11:00 | 56.088169 | 7.303656 | 2.0 | 17.468 | 2 | 43.615 | 17.636 | 33.350 | 2 |
| 2025-09-08T01:12:00 | 56.091024 | 7.303789 | 2.0 | 17.462 | 2 | 43.623 | 17.632 | 33.360 | 2 |
| 2025-09-08T01:13:00 | 56.093909 | 7.303847 | 2.0 | 17.451 | 2 | 43.626 | 17.626 | 33.367 | 2 |
| 2025-09-08T01:14:00 | 56.096791 | 7.303988 | 2.0 | 17.444 | 2 | 43.626 | 17.615 | 33.376 | 2 |
| 2025-09-08T01:15:00 | 56.099686 | 7.304054 | 2.0 | 17.438 | 2 | 43.630 | 17.609 | 33.385 | 2 |
| 2025-09-08T01:16:00 | 56.102590 | 7.304133 | 2.0 | 17.429 | 2 | 43.632 | 17.603 | 33.391 | 2 |
| 2025-09-08T01:17:00 | 56.105470 | 7.304267 | 2.0 | 17.420 | 2 | 43.634 | 17.594 | 33.400 | 2 |
| 2025-09-08T01:18:00 | 56.108354 | 7.304305 | 2.0 | 17.410 | 2 | 43.621 | 17.585 | 33.397 | 2 |
| 2025-09-08T01:19:00 | 56.111241 | 7.304286 | 2.0 | 17.399 | 2 | 43.618 | 17.575 | 33.402 | 2 |
| 2025-09-08T01:20:00 | 56.114127 | 7.304354 | 2.0 | 17.390 | 2 | 43.615 | 17.564 | 33.409 | 2 |
| 2025-09-08T01:21:00 | 56.117058 | 7.304300 | 2.0 | 17.385 | 2 | 43.612 | 17.557 | 33.412 | 2 |
| 2025-09-08T01:22:00 | 56.119972 | 7.304381 | 2.0 | 17.385 | 2 | 43.619 | 17.553 | 33.421 | 2 |
| 2025-09-08T01:23:00 | 56.122912 | 7.304270 | 2.0 | 17.385 | 2 | 43.628 | 17.553 | 33.429 | 2 |
| 2025-09-08T01:24:00 | 56.125820 | 7.304228 | 2.0 | 17.386 | 2 | 43.644 | 17.551 | 33.444 | 2 |
| 2025-09-08T01:25:00 | 56.128731 | 7.304324 | 2.0 | 17.386 | 2 | 43.657 | 17.552 | 33.455 | 2 |
| 2025-09-08T01:26:00 | 56.131588 | 7.304343 | 2.0 | 17.380 | 2 | 43.660 | 17.551 | 33.458 | 2 |
| 2025-09-08T01:27:00 | 56.134445 | 7.304270 | 2.0 | 17.374 | 2 | 43.667 | 17.546 | 33.468 | 2 |
| 2025-09-08T01:28:00 | 56.137294 | 7.304337 | 2.0 | 17.367 | 2 | 43.673 | 17.541 | 33.477 | 2 |
| 2025-09-08T01:29:00 | 56.140203 | 7.304356 | 2.0 | 17.364 | 2 | 43.684 | 17.534 | 33.493 | 2 |
| 2025-09-08T01:30:00 | 56.143091 | 7.304369 | 2.0 | 17.360 | 2 | 43.699 | 17.530 | 33.509 | 2 |
| 2025-09-08T01:31:00 | 56.145973 | 7.304341 | 2.0 | 17.355 | 2 | 43.709 | 17.526 | 33.521 | 2 |
| 2025-09-08T01:32:00 | 56.148876 | 7.304366 | 2.0 | 17.350 | 2 | 43.712 | 17.521 | 33.527 | 2 |
| 2025-09-08T01:33:00 | 56.151788 | 7.304376 | 2.0 | 17.345 | 2 | 43.728 | 17.515 | 33.546 | 2 |
| 2025-09-08T01:34:00 | 56.154704 | 7.304327 | 2.0 | 17.337 | 2 | 43.742 | 17.510 | 33.562 | 2 |
| 2025-09-08T01:35:00 | 56.157619 | 7.304314 | 2.0 | 17.328 | 2 | 43.749 | 17.502 | 33.575 | 2 |
| 2025-09-08T01:36:00 | 56.160532 | 7.304349 | 2.0 | 17.319 | 2 | 43.752 | 17.494 | 33.584 | 2 |
| 2025-09-08T01:37:00 | 56.163434 | 7.304341 | 2.0 | 17.308 | 2 | 43.751 | 17.484 | 33.591 | 2 |
| 2025-09-08T01:38:00 | 56.166322 | 7.304302 | 2.0 | 17.299 | 2 | 43.754 | 17.474 | 33.602 | 2 |
| 2025-09-08T01:39:00 | 56.169165 | 7.304236 | 2.0 | 17.295 | 2 | 43.760 | 17.466 | 33.614 | 2 |
| 2025-09-08T01:40:00 | 56.172055 | 7.304339 | 2.0 | 17.290 | 2 | 43.766 | 17.461 | 33.623 | 2 |
| 2025-09-08T01:41:00 | 56.174985 | 7.304311 | 2.0 | 17.281 | 2 | 43.774 | 17.456 | 33.634 | 2 |
| 2025-09-08T01:42:00 | 56.177911 | 7.304310 | 2.0 | 17.229 | 2 | 43.770 | 17.437 | 33.647 | 2 |
| 2025-09-08T01:43:00 | 56.180821 | 7.304318 | 2.0 | 17.222 | 2 | 43.757 | 17.398 | 33.668 | 2 |
| 2025-09-08T01:44:00 | 56.183734 | 7.304337 | 2.0 | 17.241 | 2 | 43.758 | 17.394 | 33.672 | 2 |
| 2025-09-08T01:45:00 | 56.186666 | 7.304355 | 2.0 | 17.237 | 2 | 43.777 | 17.411 | 33.674 | 2 |
| 2025-09-08T01:46:00 | 56.189571 | 7.304287 | 2.0 | 17.190 | 2 | 43.749 | 17.391 | 33.667 | 2 |
| 2025-09-08T01:47:00 | 56.192471 | 7.304351 | 2.0 | 17.193 | 2 | 43.699 | 17.359 | 33.651 | 2 |
| 2025-09-08T01:48:00 | 56.195322 | 7.304280 | 2.0 | 17.183 | 2 | 43.687 | 17.359 | 33.640 | 2 |
| 2025-09-08T01:49:00 | 56.198200 | 7.304431 | 2.0 | 17.179 | 2 | 43.667 | 17.351 | 33.630 | 2 |
| 2025-09-08T01:50:00 | 56.201106 | 7.304390 | 2.0 | 17.174 | 2 | 43.647 | 17.346 | 33.617 | 2 |
| 2025-09-08T01:51:00 | 56.203997 | 7.304361 | 2.0 | 17.179 | 2 | 43.643 | 17.343 | 33.616 | 2 |
| 2025-09-08T01:52:00 | 56.206912 | 7.304380 | 2.0 | 17.182 | 2 | 43.650 | 17.348 | 33.617 | 2 |
| 2025-09-08T01:53:00 | 56.209787 | 7.304451 | 2.0 | 17.183 | 2 | 43.656 | 17.350 | 33.621 | 2 |
| 2025-09-08T01:54:00 | 56.212691 | 7.304430 | 2.0 | 17.181 | 2 | 43.657 | 17.350 | 33.622 | 2 |
| 2025-09-08T01:55:00 | 56.215492 | 7.305133 | 2.0 | 17.181 | 2 | 43.659 | 17.349 | 33.624 | 2 |
| 2025-09-08T01:56:00 | 56.218208 | 7.306372 | 2.0 | 17.173 | 2 | 43.665 | 17.347 | 33.631 | 2 |
| 2025-09-08T01:57:00 | 56.220989 | 7.307414 | 2.0 | 17.158 | 2 | 43.666 | 17.338 | 33.640 | 2 |
| 2025-09-08T01:58:00 | 56.223777 | 7.308481 | 2.0 | 17.152 | 2 | 43.664 | 17.323 | 33.650 | 2 |
| 2025-09-08T01:59:00 | 56.226600 | 7.309550 | 2.0 | 17.155 | 2 | 43.676 | 17.321 | 33.662 | 2 |
| 2025-09-08T02:00:00 | 56.229433 | 7.310569 | 2.0 | 17.095 | 2 | 43.699 | 17.316 | 33.686 | 2 |
| 2025-09-08T02:01:00 | 56.232247 | 7.311641 | 2.0 | 17.064 | 2 | 43.675 | 17.255 | 33.716 | 2 |
| 2025-09-08T02:02:00 | 56.235019 | 7.312733 | 2.0 | 17.057 | 2 | 43.651 | 17.231 | 33.716 | 2 |
| 2025-09-08T02:03:00 | 56.237801 | 7.313782 | 2.0 | 17.059 | 2 | 43.639 | 17.226 | 33.710 | 2 |
| 2025-09-08T02:04:00 | 56.240587 | 7.314828 | 2.0 | 17.046 | 2 | 43.636 | 17.227 | 33.706 | 2 |
| 2025-09-08T02:05:00 | 56.243372 | 7.315967 | 2.0 | 17.025 | 2 | 43.619 | 17.211 | 33.705 | 2 |
| 2025-09-08T02:06:00 | 56.246179 | 7.316964 | 2.0 | 17.006 | 2 | 43.602 | 17.192 | 33.706 | 2 |
| 2025-09-08T02:07:00 | 56.248988 | 7.318033 | 2.0 | 17.000 | 2 | 43.587 | 17.173 | 33.709 | 2 |
| 2025-09-08T02:08:00 | 56.251790 | 7.319181 | 2.0 | 17.010 | 2 | 43.586 | 17.171 | 33.710 | 2 |
| 2025-09-08T02:09:00 | 56.254612 | 7.320249 | 2.0 | 17.009 | 2 | 43.594 | 17.179 | 33.710 | 2 |
| 2025-09-08T02:10:00 | 56.257404 | 7.321201 | 2.0 | 17.008 | 2 | 43.588 | 17.176 | 33.707 | 2 |
| 2025-09-08T02:11:00 | 56.260144 | 7.322318 | 2.0 | 17.001 | 2 | 43.588 | 17.174 | 33.709 | 2 |
| 2025-09-08T02:12:00 | 56.262926 | 7.323443 | 2.0 | 17.002 | 2 | 43.584 | 17.170 | 33.709 | 2 |
| 2025-09-08T02:13:00 | 56.265710 | 7.324454 | 2.0 | 16.992 | 2 | 43.584 | 17.168 | 33.710 | 2 |
| 2025-09-08T02:14:00 | 56.268461 | 7.325482 | 2.0 | 16.998 | 2 | 43.581 | 17.162 | 33.713 | 2 |
| 2025-09-08T02:15:00 | 56.271220 | 7.326615 | 2.0 | 17.001 | 2 | 43.585 | 17.166 | 33.713 | 2 |
| 2025-09-08T02:16:00 | 56.274006 | 7.327648 | 2.0 | 16.987 | 2 | 43.588 | 17.167 | 33.715 | 2 |
| 2025-09-08T02:17:00 | 56.276793 | 7.328685 | 2.0 | 16.974 | 2 | 43.582 | 17.156 | 33.719 | 2 |
| 2025-09-08T02:18:00 | 56.279551 | 7.329813 | 2.0 | 16.931 | 2 | 43.566 | 17.134 | 33.723 | 2 |
| 2025-09-08T02:19:00 | 56.282305 | 7.330838 | 2.0 | 16.933 | 2 | 43.545 | 17.104 | 33.730 | 2 |
| 2025-09-08T02:20:00 | 56.285060 | 7.331883 | 2.0 | 16.940 | 2 | 43.534 | 17.103 | 33.722 | 2 |
| 2025-09-08T02:21:00 | 56.287841 | 7.332874 | 2.0 | 16.952 | 2 | 43.539 | 17.110 | 33.720 | 2 |
| 2025-09-08T02:22:00 | 56.290586 | 7.334061 | 2.0 | 16.976 | 2 | 43.545 | 17.123 | 33.714 | 2 |
| 2025-09-08T02:23:00 | 56.293369 | 7.335033 | 2.0 | 16.985 | 2 | 43.560 | 17.143 | 33.711 | 2 |
| 2025-09-08T02:24:00 | 56.296110 | 7.336123 | 2.0 | 16.988 | 2 | 43.569 | 17.152 | 33.711 | 2 |
| 2025-09-08T02:25:00 | 56.298905 | 7.337098 | 2.0 | 16.979 | 2 | 43.568 | 17.154 | 33.708 | 2 |
| 2025-09-08T02:26:00 | 56.301717 | 7.338140 | 2.0 | 16.972 | 2 | 43.563 | 17.146 | 33.711 | 2 |
| 2025-09-08T02:27:00 | 56.304509 | 7.339339 | 2.0 | 16.963 | 2 | 43.559 | 17.139 | 33.713 | 2 |
| 2025-09-08T02:28:00 | 56.307314 | 7.340448 | 2.0 | 16.947 | 2 | 43.552 | 17.129 | 33.715 | 2 |
| 2025-09-08T02:29:00 | 56.310131 | 7.341449 | 2.0 | 16.919 | 2 | 43.536 | 17.111 | 33.717 | 2 |
| 2025-09-08T02:30:00 | 56.312923 | 7.342574 | 2.0 | 16.903 | 2 | 43.512 | 17.086 | 33.717 | 2 |
| 2025-09-08T02:31:00 | 56.315739 | 7.343621 | 2.0 | 16.901 | 2 | 43.500 | 17.072 | 33.718 | 2 |
| 2025-09-08T02:32:00 | 56.318518 | 7.344677 | 2.0 | 16.905 | 2 | 43.501 | 17.069 | 33.721 | 2 |
| 2025-09-08T02:33:00 | 56.321276 | 7.345700 | 2.0 | 16.913 | 2 | 43.508 | 17.074 | 33.723 | 2 |
| 2025-09-08T02:34:00 | 56.324047 | 7.346825 | 2.0 | 16.911 | 2 | 43.514 | 17.080 | 33.723 | 2 |
| 2025-09-08T02:35:00 | 56.326838 | 7.347858 | 2.0 | 16.906 | 2 | 43.517 | 17.077 | 33.729 | 2 |
| 2025-09-08T02:36:00 | 56.329626 | 7.348904 | 2.0 | 16.893 | 2 | 43.522 | 17.071 | 33.738 | 2 |
| 2025-09-08T02:37:00 | 56.332417 | 7.350044 | 2.0 | 16.884 | 2 | 43.519 | 17.061 | 33.744 | 2 |
| 2025-09-08T02:38:00 | 56.335201 | 7.351109 | 2.0 | 16.868 | 2 | 43.513 | 17.051 | 33.747 | 2 |
| 2025-09-08T02:39:00 | 56.337994 | 7.352184 | 2.0 | 16.854 | 2 | 43.497 | 17.035 | 33.746 | 2 |
| 2025-09-08T02:40:00 | 56.340786 | 7.353222 | 2.0 | 16.839 | 2 | 43.487 | 17.020 | 33.750 | 2 |
| 2025-09-08T02:41:00 | 56.343565 | 7.354316 | 2.0 | 16.808 | 2 | 43.479 | 17.004 | 33.757 | 2 |
| 2025-09-08T02:42:00 | 56.346362 | 7.355328 | 2.0 | 16.702 | 2 | 43.457 | 16.943 | 33.789 | 2 |
| 2025-09-08T02:43:00 | 56.349141 | 7.356403 | 2.0 | 16.706 | 2 | 43.427 | 16.879 | 33.817 | 2 |
| 2025-09-08T02:44:00 | 56.351932 | 7.357414 | 2.0 | 16.707 | 2 | 43.426 | 16.877 | 33.817 | 2 |
| 2025-09-08T02:45:00 | 56.354717 | 7.358437 | 2.0 | 16.700 | 2 | 43.421 | 16.876 | 33.814 | 2 |
| 2025-09-08T02:46:00 | 56.357476 | 7.359596 | 2.0 | 16.690 | 2 | 43.416 | 16.868 | 33.816 | 2 |
| 2025-09-08T02:47:00 | 56.360263 | 7.360565 | 2.0 | 16.687 | 2 | 43.414 | 16.859 | 33.822 | 2 |
| 2025-09-08T02:48:00 | 56.363017 | 7.361729 | 2.0 | 16.685 | 2 | 43.416 | 16.855 | 33.827 | 2 |
| 2025-09-08T02:49:00 | 56.365802 | 7.362789 | 2.0 | 16.685 | 2 | 43.420 | 16.855 | 33.831 | 2 |
| 2025-09-08T02:50:00 | 56.368593 | 7.363795 | 2.0 | 16.682 | 2 | 43.424 | 16.854 | 33.835 | 2 |
| 2025-09-08T02:51:00 | 56.371366 | 7.364927 | 2.0 | 16.678 | 2 | 43.424 | 16.850 | 33.838 | 2 |
| 2025-09-08T02:52:00 | 56.374166 | 7.365947 | 2.0 | 16.674 | 2 | 43.422 | 16.846 | 33.840 | 2 |
| 2025-09-08T02:53:00 | 56.376964 | 7.367013 | 2.0 | 16.673 | 2 | 43.421 | 16.843 | 33.842 | 2 |
| 2025-09-08T02:54:00 | 56.379733 | 7.368125 | 2.0 | 16.663 | 2 | 43.417 | 16.839 | 33.842 | 2 |
| 2025-09-08T02:55:00 | 56.382518 | 7.369148 | 2.0 | 16.664 | 2 | 43.415 | 16.833 | 33.845 | 2 |
| 2025-09-08T02:56:00 | 56.385323 | 7.370156 | 2.0 | 16.681 | 2 | 43.408 | 16.836 | 33.836 | 2 |
| 2025-09-08T02:57:00 | 56.388131 | 7.371246 | 2.0 | 16.686 | 2 | 43.386 | 16.850 | 33.805 | 2 |
| 2025-09-08T02:58:00 | 56.390911 | 7.372348 | 2.0 | 16.690 | 2 | 43.367 | 16.855 | 33.785 | 2 |
| 2025-09-08T02:59:00 | 56.393685 | 7.373451 | 2.0 | 16.694 | 2 | 43.358 | 16.859 | 33.773 | 2 |
| 2025-09-08T03:00:00 | 56.396478 | 7.374347 | 2.0 | 16.695 | 2 | 43.351 | 16.863 | 33.764 | 2 |
| 2025-09-08T03:01:00 | 56.399251 | 7.375481 | 2.0 | 16.708 | 2 | 43.354 | 16.864 | 33.766 | 2 |
| 2025-09-08T03:02:00 | 56.402000 | 7.376573 | 2.0 | 16.722 | 2 | 43.360 | 16.879 | 33.758 | 2 |
| 2025-09-08T03:03:00 | 56.404774 | 7.377675 | 2.0 | 16.727 | 2 | 43.371 | 16.890 | 33.759 | 2 |
| 2025-09-08T03:04:00 | 56.407570 | 7.378728 | 2.0 | 16.731 | 2 | 43.380 | 16.895 | 33.762 | 2 |
| 2025-09-08T03:05:00 | 56.410360 | 7.379758 | 2.0 | 16.721 | 2 | 43.381 | 16.897 | 33.761 | 2 |
| 2025-09-08T03:06:00 | 56.413118 | 7.380933 | 2.0 | 16.699 | 2 | 43.375 | 16.886 | 33.765 | 2 |
| 2025-09-08T03:07:00 | 56.415881 | 7.381888 | 2.0 | 16.652 | 2 | 43.358 | 16.859 | 33.773 | 2 |
| 2025-09-08T03:08:00 | 56.418629 | 7.382967 | 2.0 | 16.670 | 2 | 43.308 | 16.822 | 33.761 | 2 |
| 2025-09-08T03:09:00 | 56.421414 | 7.383991 | 2.0 | 16.704 | 2 | 43.326 | 16.845 | 33.757 | 2 |
| 2025-09-08T03:10:00 | 56.424190 | 7.385065 | 2.0 | 16.719 | 2 | 43.352 | 16.873 | 33.756 | 2 |
| 2025-09-08T03:11:00 | 56.426957 | 7.386145 | 2.0 | 16.706 | 2 | 43.356 | 16.883 | 33.751 | 2 |
| 2025-09-08T03:12:00 | 56.429700 | 7.387250 | 2.0 | 16.695 | 2 | 43.331 | 16.873 | 33.738 | 2 |
| 2025-09-08T03:13:00 | 56.432481 | 7.388273 | 2.0 | 16.683 | 2 | 43.308 | 16.860 | 33.729 | 2 |
| 2025-09-08T03:14:00 | 56.435265 | 7.389349 | 2.0 | 16.691 | 2 | 43.294 | 16.853 | 33.723 | 2 |
| 2025-09-08T03:15:00 | 56.438043 | 7.390386 | 2.0 | 16.698 | 2 | 43.298 | 16.859 | 33.721 | 2 |
| 2025-09-08T03:16:00 | 56.440801 | 7.391461 | 2.0 | 16.707 | 2 | 43.308 | 16.866 | 33.724 | 2 |
| 2025-09-08T03:17:00 | 56.443550 | 7.392548 | 2.0 | 16.710 | 2 | 43.304 | 16.874 | 33.714 | 2 |
| 2025-09-08T03:18:00 | 56.446314 | 7.393531 | 2.0 | 16.714 | 2 | 43.315 | 16.878 | 33.720 | 2 |
| 2025-09-08T03:19:00 | 56.449075 | 7.394692 | 2.0 | 16.715 | 2 | 43.322 | 16.881 | 33.724 | 2 |
| 2025-09-08T03:20:00 | 56.451877 | 7.395721 | 2.0 | 16.716 | 2 | 43.335 | 16.883 | 33.733 | 2 |
| 2025-09-08T03:21:00 | 56.454672 | 7.396788 | 2.0 | 16.719 | 2 | 43.344 | 16.884 | 33.740 | 2 |
| 2025-09-08T03:22:00 | 56.457398 | 7.397924 | 2.0 | 16.722 | 2 | 43.349 | 16.886 | 33.743 | 2 |
| 2025-09-08T03:23:00 | 56.460158 | 7.398855 | 2.0 | 16.722 | 2 | 43.351 | 16.889 | 33.742 | 2 |
| 2025-09-08T03:24:00 | 56.462924 | 7.399900 | 2.0 | 16.733 | 2 | 43.350 | 16.891 | 33.740 | 2 |
| 2025-09-08T03:25:00 | 56.465701 | 7.400966 | 2.0 | 16.756 | 2 | 43.352 | 16.904 | 33.730 | 2 |
| 2025-09-08T03:26:00 | 56.468509 | 7.402016 | 2.0 | 16.770 | 2 | 43.355 | 16.924 | 33.716 | 2 |
| 2025-09-08T03:27:00 | 56.471294 | 7.403106 | 2.0 | 16.785 | 2 | 43.351 | 16.938 | 33.701 | 2 |
| 2025-09-08T03:28:00 | 56.474060 | 7.404161 | 2.0 | 16.798 | 2 | 43.337 | 16.951 | 33.678 | 2 |
| 2025-09-08T03:29:00 | 56.476841 | 7.405183 | 2.0 | 16.826 | 2 | 43.322 | 16.969 | 33.650 | 2 |
| 2025-09-08T03:30:00 | 56.479653 | 7.406253 | 2.0 | 16.862 | 2 | 43.324 | 16.995 | 33.630 | 2 |
| 2025-09-08T03:31:00 | 56.482461 | 7.407390 | 2.0 | 16.898 | 2 | 43.337 | 17.031 | 33.611 | 2 |
| 2025-09-08T03:32:00 | 56.485265 | 7.408477 | 2.0 | 16.928 | 2 | 43.351 | 17.067 | 33.593 | 2 |
| 2025-09-08T03:33:00 | 56.488104 | 7.409456 | 2.0 | 16.951 | 2 | 43.363 | 17.094 | 33.581 | 2 |
| 2025-09-08T03:34:00 | 56.490884 | 7.410594 | 2.0 | 16.983 | 2 | 43.366 | 17.119 | 33.563 | 2 |
| 2025-09-08T03:35:00 | 56.493677 | 7.411657 | 2.0 | 17.001 | 2 | 43.379 | 17.150 | 33.548 | 2 |
| 2025-09-08T03:36:00 | 56.496489 | 7.412721 | 2.0 | 17.004 | 2 | 43.381 | 17.163 | 33.539 | 2 |
| 2025-09-08T03:37:00 | 56.499296 | 7.413862 | 2.0 | 17.016 | 2 | 43.392 | 17.171 | 33.542 | 2 |
| 2025-09-08T03:38:00 | 56.502146 | 7.414920 | 2.0 | 17.027 | 2 | 43.399 | 17.182 | 33.539 | 2 |
| 2025-09-08T03:39:00 | 56.504984 | 7.416060 | 2.0 | 17.032 | 2 | 43.405 | 17.193 | 33.535 | 2 |
| 2025-09-08T03:40:00 | 56.507812 | 7.417109 | 2.0 | 17.036 | 2 | 43.411 | 17.196 | 33.538 | 2 |
| 2025-09-08T03:41:00 | 56.510630 | 7.418158 | 2.0 | 17.037 | 2 | 43.411 | 17.200 | 33.534 | 2 |
| 2025-09-08T03:42:00 | 56.513450 | 7.419294 | 2.0 | 17.039 | 2 | 43.412 | 17.202 | 33.533 | 2 |
| 2025-09-08T03:43:00 | 56.516299 | 7.420413 | 2.0 | 17.031 | 2 | 43.410 | 17.202 | 33.532 | 2 |
| 2025-09-08T03:44:00 | 56.519132 | 7.421531 | 2.0 | 17.025 | 2 | 43.412 | 17.195 | 33.539 | 2 |
| 2025-09-08T03:45:00 | 56.521981 | 7.422621 | 2.0 | 17.012 | 2 | 43.421 | 17.187 | 33.554 | 2 |
| 2025-09-08T03:46:00 | 56.524806 | 7.423602 | 2.0 | 17.002 | 2 | 43.422 | 17.175 | 33.565 | 2 |
| 2025-09-08T03:47:00 | 56.527599 | 7.424700 | 2.0 | 16.995 | 2 | 43.425 | 17.166 | 33.575 | 2 |
| 2025-09-08T03:48:00 | 56.530405 | 7.425877 | 2.0 | 16.979 | 2 | 43.422 | 17.158 | 33.579 | 2 |
| 2025-09-08T03:49:00 | 56.533255 | 7.426947 | 2.0 | 16.972 | 2 | 43.409 | 17.145 | 33.578 | 2 |
| 2025-09-08T03:50:00 | 56.536107 | 7.427941 | 2.0 | 16.970 | 2 | 43.402 | 17.138 | 33.578 | 2 |
| 2025-09-08T03:51:00 | 56.538909 | 7.429050 | 2.0 | 16.944 | 2 | 43.395 | 17.134 | 33.575 | 2 |
| 2025-09-08T03:52:00 | 56.541723 | 7.430144 | 2.0 | 16.942 | 2 | 43.387 | 17.109 | 33.589 | 2 |
| 2025-09-08T03:53:00 | 56.544515 | 7.431206 | 2.0 | 16.946 | 2 | 43.386 | 17.108 | 33.589 | 2 |
| 2025-09-08T03:54:00 | 56.547303 | 7.432282 | 2.0 | 16.934 | 2 | 43.388 | 17.111 | 33.588 | 2 |
| 2025-09-08T03:55:00 | 56.550144 | 7.433374 | 2.0 | 16.900 | 2 | 43.390 | 17.098 | 33.601 | 2 |
| 2025-09-08T03:56:00 | 56.552962 | 7.434445 | 2.0 | 16.895 | 2 | 43.396 | 17.071 | 33.629 | 2 |
| 2025-09-08T03:57:00 | 56.555796 | 7.435632 | 2.0 | 16.874 | 2 | 43.395 | 17.060 | 33.637 | 2 |
| 2025-09-08T03:58:00 | 56.558630 | 7.436733 | 2.0 | 16.863 | 2 | 43.405 | 17.040 | 33.662 | 2 |
| 2025-09-08T03:59:00 | 56.561499 | 7.437704 | 2.0 | 16.827 | 2 | 43.405 | 17.021 | 33.678 | 2 |
| 2025-09-08T04:00:00 | 56.564291 | 7.438785 | 2.0 | 16.821 | 2 | 43.409 | 16.995 | 33.704 | 2 |
| 2025-09-08T04:01:00 | 56.566981 | 7.439970 | 2.0 | 16.839 | 2 | 43.410 | 16.995 | 33.704 | 2 |
| 2025-09-08T04:02:00 | 56.569744 | 7.440921 | 2.0 | 16.810 | 2 | 43.409 | 16.999 | 33.700 | 2 |
| 2025-09-08T04:03:00 | 56.572490 | 7.441940 | 2.0 | 16.804 | 2 | 43.415 | 16.978 | 33.723 | 2 |
| 2025-09-08T04:04:00 | 56.575258 | 7.443057 | 2.0 | 16.804 | 2 | 43.424 | 16.972 | 33.736 | 2 |
| 2025-09-08T04:05:00 | 56.578055 | 7.444188 | 2.0 | 16.809 | 2 | 43.434 | 16.973 | 33.744 | 2 |
| 2025-09-08T04:06:00 | 56.580878 | 7.445185 | 2.0 | 16.812 | 2 | 43.438 | 16.977 | 33.744 | 2 |
| 2025-09-08T04:07:00 | 56.583689 | 7.446302 | 2.0 | 16.812 | 2 | 43.440 | 16.978 | 33.745 | 2 |
| 2025-09-08T04:08:00 | 56.586510 | 7.447431 | 2.0 | 16.807 | 2 | 43.444 | 16.978 | 33.748 | 2 |
| 2025-09-08T04:09:00 | 56.589317 | 7.448560 | 2.0 | 16.806 | 2 | 43.455 | 16.974 | 33.761 | 2 |
| 2025-09-08T04:10:00 | 56.592138 | 7.449616 | 2.0 | 16.802 | 2 | 43.474 | 16.972 | 33.779 | 2 |
| 2025-09-08T04:11:00 | 56.594954 | 7.450762 | 2.0 | 16.802 | 2 | 43.489 | 16.968 | 33.796 | 2 |
| 2025-09-08T04:12:00 | 56.597790 | 7.451849 | 2.0 | 16.800 | 2 | 43.492 | 16.968 | 33.798 | 2 |
| 2025-09-08T04:13:00 | 56.600601 | 7.452904 | 2.0 | 16.787 | 2 | 43.488 | 16.964 | 33.798 | 2 |
| 2025-09-08T04:14:00 | 56.603413 | 7.453967 | 2.0 | 16.787 | 2 | 43.493 | 16.954 | 33.811 | 2 |
| 2025-09-08T04:15:00 | 56.606254 | 7.455037 | 2.0 | 16.782 | 2 | 43.492 | 16.954 | 33.810 | 2 |
| 2025-09-08T04:16:00 | 56.609101 | 7.456140 | 2.0 | 16.749 | 2 | 43.487 | 16.945 | 33.813 | 2 |
| 2025-09-08T04:17:00 | 56.611906 | 7.457225 | 2.0 | 16.721 | 2 | 43.502 | 16.909 | 33.857 | 2 |
| 2025-09-08T04:18:00 | 56.614719 | 7.458336 | 2.0 | 16.701 | 2 | 43.506 | 16.887 | 33.879 | 2 |
| 2025-09-08T04:19:00 | 56.617533 | 7.459447 | 2.0 | 16.700 | 2 | 43.509 | 16.866 | 33.899 | 2 |
| 2025-09-08T04:20:00 | 56.620341 | 7.460543 | 2.0 | 16.683 | 2 | 43.501 | 16.866 | 33.892 | 2 |
| 2025-09-08T04:21:00 | 56.623183 | 7.461509 | 2.0 | 16.626 | 2 | 43.490 | 16.846 | 33.899 | 2 |
| 2025-09-08T04:22:00 | 56.626005 | 7.462609 | 2.0 | 16.584 | 2 | 43.483 | 16.790 | 33.941 | 2 |
| 2025-09-08T04:23:00 | 56.628795 | 7.463717 | 2.0 | 16.566 | 2 | 43.474 | 16.758 | 33.960 | 2 |
| 2025-09-08T04:24:00 | 56.631589 | 7.464860 | 2.0 | 16.522 | 2 | 43.455 | 16.726 | 33.970 | 2 |
| 2025-09-08T04:25:00 | 56.634388 | 7.465870 | 2.0 | 16.373 | 2 | 43.415 | 16.668 | 33.985 | 2 |
| 2025-09-08T04:26:00 | 56.637086 | 7.466875 | 2.0 | 16.249 | 2 | 43.304 | 16.513 | 34.019 | 2 |
| 2025-09-08T04:27:00 | 56.639823 | 7.467847 | 2.0 | 16.270 | 2 | 43.255 | 16.435 | 34.042 | 2 |
| 2025-09-08T04:28:00 | 56.642534 | 7.468920 | 2.0 | 16.289 | 2 | 43.259 | 16.444 | 34.038 | 2 |
| 2025-09-08T04:29:00 | 56.645248 | 7.470000 | 2.0 | 16.306 | 2 | 43.289 | 16.462 | 34.049 | 2 |
| 2025-09-08T04:30:00 | 56.647994 | 7.471083 | 2.0 | 16.316 | 2 | 43.300 | 16.477 | 34.046 | 2 |
| 2025-09-08T04:31:00 | 56.650746 | 7.472045 | 2.0 | 16.325 | 2 | 43.295 | 16.487 | 34.033 | 2 |
| 2025-09-08T04:32:00 | 56.653494 | 7.473119 | 2.0 | 16.358 | 2 | 43.292 | 16.497 | 34.022 | 2 |
| 2025-09-08T04:33:00 | 56.656253 | 7.474195 | 2.0 | 16.386 | 2 | 43.310 | 16.530 | 34.010 | 2 |
| 2025-09-08T04:34:00 | 56.659015 | 7.475290 | 2.0 | 16.400 | 2 | 43.323 | 16.554 | 34.001 | 2 |
| 2025-09-08T04:35:00 | 56.661809 | 7.476338 | 2.0 | 16.421 | 2 | 43.329 | 16.572 | 33.991 | 2 |
| 2025-09-08T04:36:00 | 56.664572 | 7.477430 | 2.0 | 16.428 | 2 | 43.338 | 16.589 | 33.984 | 2 |
| 2025-09-08T04:37:00 | 56.667341 | 7.478515 | 2.0 | 16.427 | 2 | 43.341 | 16.594 | 33.983 | 2 |
| 2025-09-08T04:38:00 | 56.670105 | 7.479590 | 2.0 | 16.430 | 2 | 43.343 | 16.595 | 33.983 | 2 |
| 2025-09-08T04:39:00 | 56.672885 | 7.480628 | 2.0 | 16.427 | 2 | 43.343 | 16.597 | 33.982 | 2 |
| 2025-09-08T04:40:00 | 56.675641 | 7.481732 | 2.0 | 16.430 | 2 | 43.344 | 16.595 | 33.984 | 2 |
| 2025-09-08T04:41:00 | 56.678397 | 7.482682 | 2.0 | 16.477 | 2 | 43.350 | 16.599 | 33.986 | 2 |
| 2025-09-08T04:42:00 | 56.681146 | 7.483583 | 2.0 | 16.597 | 2 | 43.381 | 16.664 | 33.958 | 2 |
| 2025-09-08T04:43:00 | 56.683852 | 7.484694 | 2.0 | 16.664 | 2 | 43.419 | 16.766 | 33.905 | 2 |
| 2025-09-08T04:44:00 | 56.686605 | 7.485788 | 2.0 | 16.731 | 2 | 43.417 | 16.837 | 33.843 | 2 |
| 2025-09-08T04:45:00 | 56.689367 | 7.486818 | 2.0 | 16.730 | 2 | 43.408 | 16.891 | 33.790 | 2 |
| 2025-09-08T04:46:00 | 56.692117 | 7.487932 | 2.0 | 16.769 | 2 | 43.409 | 16.902 | 33.782 | 2 |
| 2025-09-08T04:47:00 | 56.694920 | 7.489022 | 2.0 | 16.784 | 2 | 43.407 | 16.932 | 33.755 | 2 |
| 2025-09-08T04:48:00 | 56.697729 | 7.490115 | 2.0 | 16.806 | 2 | 43.402 | 16.950 | 33.735 | 2 |
| 2025-09-08T04:49:00 | 56.700555 | 7.491170 | 2.0 | 16.810 | 2 | 43.392 | 16.970 | 33.710 | 2 |
| 2025-09-08T04:50:00 | 56.703359 | 7.492280 | 2.0 | 16.818 | 2 | 43.393 | 16.975 | 33.706 | 2 |
| 2025-09-08T04:51:00 | 56.706168 | 7.493387 | 2.0 | 16.827 | 2 | 43.385 | 16.984 | 33.692 | 2 |
| 2025-09-08T04:52:00 | 56.708958 | 7.494560 | 2.0 | 16.828 | 2 | 43.388 | 16.992 | 33.688 | 2 |
| 2025-09-08T04:53:00 | 56.711743 | 7.495598 | 2.0 | 16.827 | 2 | 43.394 | 16.993 | 33.692 | 2 |
| 2025-09-08T04:54:00 | 56.714522 | 7.496692 | 2.0 | 16.817 | 2 | 43.401 | 16.989 | 33.702 | 2 |
| 2025-09-08T04:55:00 | 56.717289 | 7.497797 | 2.0 | 16.823 | 2 | 43.406 | 16.984 | 33.710 | 2 |
| 2025-09-08T04:56:00 | 56.720069 | 7.498908 | 2.0 | 16.804 | 2 | 43.406 | 16.986 | 33.708 | 2 |
| 2025-09-08T04:57:00 | 56.722838 | 7.499998 | 2.0 | 16.798 | 2 | 43.413 | 16.968 | 33.730 | 2 |
| 2025-09-08T04:58:00 | 56.725604 | 7.500986 | 2.0 | 16.796 | 2 | 43.419 | 16.965 | 33.737 | 2 |
| 2025-09-08T04:59:00 | 56.728356 | 7.502099 | 2.0 | 16.793 | 2 | 43.427 | 16.963 | 33.746 | 2 |
| 2025-09-08T05:00:00 | 56.731126 | 7.503161 | 2.0 | 16.768 | 2 | 43.425 | 16.953 | 33.753 | 2 |
| 2025-09-08T05:01:00 | 56.733893 | 7.504233 | 2.0 | 16.761 | 2 | 43.420 | 16.934 | 33.764 | 2 |
| 2025-09-08T05:02:00 | 56.736685 | 7.505257 | 2.0 | 16.754 | 2 | 43.418 | 16.926 | 33.769 | 2 |
| 2025-09-08T05:03:00 | 56.739460 | 7.506371 | 2.0 | 16.727 | 2 | 43.413 | 16.916 | 33.773 | 2 |
| 2025-09-08T05:04:00 | 56.742198 | 7.507497 | 2.0 | 16.700 | 2 | 43.392 | 16.891 | 33.776 | 2 |
| 2025-09-08T05:05:00 | 56.744943 | 7.508524 | 2.0 | 16.662 | 2 | 43.386 | 16.860 | 33.797 | 2 |
| 2025-09-08T05:06:00 | 56.747685 | 7.509581 | 2.0 | 16.650 | 2 | 43.377 | 16.831 | 33.813 | 2 |
| 2025-09-08T05:07:00 | 56.750398 | 7.510717 | 2.0 | 16.638 | 2 | 43.375 | 16.816 | 33.824 | 2 |
| 2025-09-08T05:08:00 | 56.753133 | 7.511706 | 2.0 | 16.630 | 2 | 43.374 | 16.804 | 33.834 | 2 |
| 2025-09-08T05:09:00 | 56.755857 | 7.512763 | 2.0 | 16.620 | 2 | 43.374 | 16.796 | 33.840 | 2 |
| 2025-09-08T05:10:00 | 56.758564 | 7.513790 | 2.0 | 16.622 | 2 | 43.374 | 16.789 | 33.846 | 2 |
| 2025-09-08T05:11:00 | 56.761286 | 7.514848 | 2.0 | 16.625 | 2 | 43.373 | 16.791 | 33.844 | 2 |
| 2025-09-08T05:12:00 | 56.764013 | 7.515897 | 2.0 | 16.620 | 2 | 43.372 | 16.792 | 33.842 | 2 |
| 2025-09-08T05:13:00 | 56.766740 | 7.516960 | 2.0 | 16.591 | 2 | 43.367 | 16.780 | 33.848 | 2 |
| 2025-09-08T05:14:00 | 56.769479 | 7.517990 | 2.0 | 16.585 | 2 | 43.360 | 16.760 | 33.859 | 2 |
| 2025-09-08T05:15:00 | 56.772200 | 7.519051 | 2.0 | 16.568 | 2 | 43.352 | 16.749 | 33.861 | 2 |
| 2025-09-08T05:16:00 | 56.774870 | 7.520099 | 2.0 | 16.539 | 2 | 43.337 | 16.728 | 33.865 | 2 |
| 2025-09-08T05:17:00 | 56.777537 | 7.521174 | 2.0 | 16.530 | 2 | 43.341 | 16.707 | 33.887 | 2 |
| 2025-09-08T05:18:00 | 56.780243 | 7.522097 | 2.0 | 16.523 | 2 | 43.343 | 16.697 | 33.897 | 2 |
| 2025-09-08T05:19:00 | 56.782918 | 7.523189 | 2.0 | 16.504 | 2 | 43.338 | 16.688 | 33.900 | 2 |
| 2025-09-08T05:20:00 | 56.785593 | 7.524293 | 2.0 | 16.487 | 2 | 43.330 | 16.669 | 33.909 | 2 |
| 2025-09-08T05:21:00 | 56.788292 | 7.525281 | 2.0 | 16.486 | 2 | 43.327 | 16.656 | 33.918 | 2 |
| 2025-09-08T05:22:00 | 56.790999 | 7.526248 | 2.0 | 16.492 | 2 | 43.327 | 16.655 | 33.919 | 2 |
| 2025-09-08T05:23:00 | 56.793686 | 7.527279 | 2.0 | 16.472 | 2 | 43.330 | 16.654 | 33.922 | 2 |
| 2025-09-08T05:24:00 | 56.796375 | 7.528363 | 2.0 | 16.440 | 2 | 43.325 | 16.635 | 33.934 | 2 |
| 2025-09-08T05:25:00 | 56.799073 | 7.529455 | 2.0 | 16.422 | 2 | 43.312 | 16.606 | 33.947 | 2 |
| 2025-09-08T05:26:00 | 56.801785 | 7.530413 | 2.0 | 16.416 | 2 | 43.301 | 16.591 | 33.950 | 2 |
| 2025-09-08T05:27:00 | 56.804476 | 7.531497 | 2.0 | 16.397 | 2 | 43.292 | 16.581 | 33.951 | 2 |
| 2025-09-08T05:28:00 | 56.807165 | 7.532520 | 2.0 | 16.381 | 2 | 43.279 | 16.564 | 33.954 | 2 |
| 2025-09-08T05:29:00 | 56.809860 | 7.533586 | 2.0 | 16.361 | 2 | 43.264 | 16.546 | 33.956 | 2 |
| 2025-09-08T05:30:00 | 56.812563 | 7.534613 | 2.0 | 16.359 | 2 | 43.253 | 16.529 | 33.961 | 2 |
| 2025-09-08T05:31:00 | 56.815264 | 7.535593 | 2.0 | 16.368 | 2 | 43.252 | 16.530 | 33.959 | 2 |
| 2025-09-08T05:32:00 | 56.817937 | 7.536678 | 2.0 | 16.373 | 2 | 43.259 | 16.538 | 33.958 | 2 |
| 2025-09-08T05:33:00 | 56.820629 | 7.537683 | 2.0 | 16.365 | 2 | 43.256 | 16.540 | 33.954 | 2 |
| 2025-09-08T05:34:00 | 56.823343 | 7.538701 | 2.0 | 16.356 | 2 | 43.251 | 16.532 | 33.956 | 2 |
| 2025-09-08T05:35:00 | 56.826037 | 7.539808 | 2.0 | 16.351 | 2 | 43.253 | 16.523 | 33.966 | 2 |
| 2025-09-08T05:36:00 | 56.828743 | 7.540858 | 2.0 | 16.341 | 2 | 43.253 | 16.519 | 33.969 | 2 |
| 2025-09-08T05:37:00 | 56.831468 | 7.541926 | 2.0 | 16.325 | 2 | 43.251 | 16.506 | 33.978 | 2 |
| 2025-09-08T05:38:00 | 56.834183 | 7.542979 | 2.0 | 16.311 | 2 | 43.242 | 16.492 | 33.982 | 2 |
| 2025-09-08T05:39:00 | 56.836877 | 7.544002 | 2.0 | 16.320 | 2 | 43.251 | 16.480 | 34.001 | 2 |
| 2025-09-08T05:40:00 | 56.839596 | 7.545025 | 2.0 | 16.327 | 2 | 43.278 | 16.489 | 34.017 | 2 |
| 2025-09-08T05:41:00 | 56.842334 | 7.546040 | 2.0 | 16.330 | 2 | 43.291 | 16.496 | 34.022 | 2 |
| 2025-09-08T05:42:00 | 56.845050 | 7.547062 | 2.0 | 16.326 | 2 | 43.298 | 16.497 | 34.027 | 2 |
| 2025-09-08T05:43:00 | 56.847742 | 7.548076 | 2.0 | 16.303 | 2 | 43.297 | 16.491 | 34.032 | 2 |
| 2025-09-08T05:44:00 | 56.850440 | 7.549191 | 2.0 | 16.297 | 2 | 43.295 | 16.473 | 34.045 | 2 |
| 2025-09-08T05:45:00 | 56.853141 | 7.550231 | 2.0 | 16.272 | 2 | 43.288 | 16.462 | 34.048 | 2 |
| 2025-09-08T05:46:00 | 56.855826 | 7.551267 | 2.0 | 16.258 | 2 | 43.273 | 16.440 | 34.054 | 2 |
| 2025-09-08T05:47:00 | 56.858514 | 7.552305 | 2.0 | 16.244 | 2 | 43.266 | 16.427 | 34.059 | 2 |
| 2025-09-08T05:48:00 | 56.861215 | 7.553310 | 2.0 | 16.236 | 2 | 43.260 | 16.413 | 34.066 | 2 |
| 2025-09-08T05:49:00 | 56.863935 | 7.554363 | 2.0 | 16.221 | 2 | 43.256 | 16.404 | 34.070 | 2 |
| 2025-09-08T05:50:00 | 56.866632 | 7.555429 | 2.0 | 16.208 | 2 | 43.252 | 16.389 | 34.079 | 2 |
| 2025-09-08T05:51:00 | 56.869341 | 7.556421 | 2.0 | 16.222 | 2 | 43.250 | 16.380 | 34.085 | 2 |
| 2025-09-08T05:52:00 | 56.872050 | 7.557420 | 2.0 | 16.213 | 2 | 43.269 | 16.390 | 34.093 | 2 |
| 2025-09-08T05:53:00 | 56.874737 | 7.558554 | 2.0 | 16.202 | 2 | 43.265 | 16.380 | 34.098 | 2 |
| 2025-09-08T05:54:00 | 56.877440 | 7.559598 | 2.0 | 16.183 | 2 | 43.252 | 16.368 | 34.097 | 2 |
| 2025-09-08T05:55:00 | 56.880140 | 7.560575 | 2.0 | 16.164 | 2 | 43.227 | 16.349 | 34.091 | 2 |
| 2025-09-08T05:56:00 | 56.882817 | 7.561719 | 2.0 | 16.152 | 2 | 43.208 | 16.332 | 34.089 | 2 |
| 2025-09-08T05:57:00 | 56.885543 | 7.562701 | 2.0 | 16.139 | 2 | 43.197 | 16.319 | 34.090 | 2 |
| 2025-09-08T05:58:00 | 56.888252 | 7.563735 | 2.0 | 16.144 | 2 | 43.192 | 16.310 | 34.094 | 2 |
| 2025-09-08T05:59:00 | 56.890957 | 7.564830 | 2.0 | 16.155 | 2 | 43.202 | 16.315 | 34.098 | 2 |
| 2025-09-08T06:00:00 | 56.893673 | 7.565873 | 2.0 | 16.162 | 2 | 43.235 | 16.325 | 34.119 | 2 |
| 2025-09-08T06:01:00 | 56.896390 | 7.566927 | 2.0 | 16.164 | 2 | 43.252 | 16.331 | 34.129 | 2 |
| 2025-09-08T06:02:00 | 56.899089 | 7.568024 | 2.0 | 16.180 | 2 | 43.260 | 16.334 | 34.133 | 2 |
| 2025-09-08T06:03:00 | 56.901780 | 7.569066 | 2.0 | 16.193 | 2 | 43.299 | 16.349 | 34.155 | 2 |
| 2025-09-08T06:04:00 | 56.904456 | 7.570142 | 2.0 | 16.201 | 2 | 43.326 | 16.362 | 34.167 | 2 |
| 2025-09-08T06:05:00 | 56.907134 | 7.571173 | 2.0 | 16.211 | 2 | 43.341 | 16.370 | 34.174 | 2 |
| 2025-09-08T06:06:00 | 56.909827 | 7.572241 | 2.0 | 16.217 | 2 | 43.365 | 16.380 | 34.186 | 2 |
| 2025-09-08T06:07:00 | 56.912535 | 7.573293 | 2.0 | 16.225 | 2 | 43.384 | 16.385 | 34.199 | 2 |
| 2025-09-08T06:08:00 | 56.915242 | 7.574376 | 2.0 | 16.229 | 2 | 43.405 | 16.393 | 34.211 | 2 |
| 2025-09-08T06:09:00 | 56.917946 | 7.575510 | 2.0 | 16.232 | 2 | 43.420 | 16.397 | 34.220 | 2 |
| 2025-09-08T06:10:00 | 56.920682 | 7.576478 | 2.0 | 16.230 | 2 | 43.425 | 16.399 | 34.223 | 2 |
| 2025-09-08T06:11:00 | 56.923413 | 7.577503 | 2.0 | 16.229 | 2 | 43.424 | 16.397 | 34.224 | 2 |
| 2025-09-08T06:12:00 | 56.926140 | 7.578677 | 2.0 | 16.236 | 2 | 43.437 | 16.398 | 34.234 | 2 |
| 2025-09-08T06:13:00 | 56.928901 | 7.579699 | 2.0 | 16.238 | 2 | 43.463 | 16.404 | 34.252 | 2 |
| 2025-09-08T06:14:00 | 56.931630 | 7.580811 | 2.0 | 16.238 | 2 | 43.470 | 16.405 | 34.258 | 2 |
| 2025-09-08T06:15:00 | 56.934377 | 7.581862 | 2.0 | 16.232 | 2 | 43.476 | 16.403 | 34.265 | 2 |
| 2025-09-08T06:16:00 | 56.937146 | 7.582893 | 2.0 | 16.241 | 2 | 43.485 | 16.400 | 34.275 | 2 |
| 2025-09-08T06:17:00 | 56.939651 | 7.584818 | 2.0 | 16.240 | 2 | 43.506 | 16.407 | 34.288 | 2 |
| 2025-09-08T06:18:00 | 56.941099 | 7.588482 | 2.0 | 16.219 | 2 | 43.509 | 16.406 | 34.291 | 2 |
| 2025-09-08T06:19:00 | 56.942189 | 7.592448 | 2.0 | 16.199 | 2 | 43.463 | 16.382 | 34.271 | 2 |
| 2025-09-08T06:20:00 | 56.943327 | 7.596427 | 2.0 | 16.191 | 2 | 43.429 | 16.367 | 34.254 | 2 |
| 2025-09-08T06:21:00 | 56.944442 | 7.600466 | 2.0 | 16.193 | 2 | 43.423 | 16.361 | 34.254 | 2 |
| 2025-09-08T06:22:00 | 56.945557 | 7.604508 | 2.0 | 16.191 | 2 | 43.421 | 16.360 | 34.253 | 2 |
| 2025-09-08T06:23:00 | 56.946725 | 7.608564 | 2.0 | 16.207 | 2 | 43.418 | 16.362 | 34.249 | 2 |
| 2025-09-08T06:24:00 | 56.947841 | 7.612630 | 2.0 | 16.214 | 2 | 43.435 | 16.374 | 34.253 | 2 |
| 2025-09-08T06:25:00 | 56.948960 | 7.616656 | 2.0 | 16.214 | 2 | 43.441 | 16.381 | 34.253 | 2 |
| 2025-09-08T06:26:00 | 56.950045 | 7.620709 | 2.0 | 16.212 | 2 | 43.436 | 16.381 | 34.248 | 2 |
| 2025-09-08T06:27:00 | 56.951171 | 7.624693 | 2.0 | 16.213 | 2 | 43.435 | 16.381 | 34.247 | 2 |
| 2025-09-08T06:28:00 | 56.952264 | 7.628673 | 2.0 | 16.207 | 2 | 43.432 | 16.381 | 34.245 | 2 |
| 2025-09-08T06:29:00 | 56.953401 | 7.632656 | 2.0 | 16.204 | 2 | 43.420 | 16.375 | 34.239 | 2 |
| 2025-09-08T06:30:00 | 56.954480 | 7.636642 | 2.0 | 16.200 | 2 | 43.412 | 16.372 | 34.235 | 2 |
| 2025-09-08T06:31:00 | 56.955595 | 7.640611 | 2.0 | 16.206 | 2 | 43.405 | 16.369 | 34.231 | 2 |
| 2025-09-08T06:32:00 | 56.956704 | 7.644561 | 2.0 | 16.217 | 2 | 43.413 | 16.375 | 34.233 | 2 |
| 2025-09-08T06:33:00 | 56.957788 | 7.648503 | 2.0 | 16.233 | 2 | 43.432 | 16.388 | 34.239 | 2 |
| 2025-09-08T06:34:00 | 56.958904 | 7.652458 | 2.0 | 16.235 | 2 | 43.447 | 16.400 | 34.242 | 2 |
| 2025-09-08T06:35:00 | 56.959983 | 7.656461 | 2.0 | 16.239 | 2 | 43.450 | 16.402 | 34.242 | 2 |
| 2025-09-08T06:36:00 | 56.961072 | 7.660416 | 2.0 | 16.239 | 2 | 43.458 | 16.407 | 34.245 | 2 |
| 2025-09-08T06:37:00 | 56.962165 | 7.664316 | 2.0 | 16.238 | 2 | 43.459 | 16.406 | 34.247 | 2 |
| 2025-09-08T06:38:00 | 56.963289 | 7.668253 | 2.0 | 16.243 | 2 | 43.457 | 16.407 | 34.244 | 2 |
| 2025-09-08T06:39:00 | 56.964379 | 7.672231 | 2.0 | 16.249 | 2 | 43.461 | 16.410 | 34.245 | 2 |
| 2025-09-08T06:40:00 | 56.965467 | 7.676149 | 2.0 | 16.263 | 2 | 43.481 | 16.419 | 34.255 | 2 |
| 2025-09-08T06:41:00 | 56.966541 | 7.680073 | 2.0 | 16.264 | 2 | 43.506 | 16.431 | 34.267 | 2 |
| 2025-09-08T06:42:00 | 56.967611 | 7.683986 | 2.0 | 16.252 | 2 | 43.512 | 16.429 | 34.274 | 2 |
| 2025-09-08T06:43:00 | 56.968713 | 7.687901 | 2.0 | 16.250 | 2 | 43.504 | 16.419 | 34.275 | 2 |
| 2025-09-08T06:44:00 | 56.969825 | 7.691857 | 2.0 | 16.241 | 2 | 43.502 | 16.416 | 34.276 | 2 |
| 2025-09-08T06:45:00 | 56.970934 | 7.695782 | 2.0 | 16.236 | 2 | 43.481 | 16.408 | 34.265 | 2 |
| 2025-09-08T06:46:00 | 56.971993 | 7.699701 | 2.0 | 16.230 | 2 | 43.458 | 16.402 | 34.250 | 2 |
| 2025-09-08T06:47:00 | 56.973053 | 7.703623 | 2.0 | 16.223 | 2 | 43.447 | 16.396 | 34.245 | 2 |
| 2025-09-08T06:48:00 | 56.974158 | 7.707502 | 2.0 | 16.219 | 2 | 43.432 | 16.390 | 34.237 | 2 |
| 2025-09-08T06:49:00 | 56.975219 | 7.711379 | 2.0 | 16.213 | 2 | 43.420 | 16.384 | 34.231 | 2 |
| 2025-09-08T06:50:00 | 56.976293 | 7.715260 | 2.0 | 16.208 | 2 | 43.414 | 16.380 | 34.230 | 2 |
| 2025-09-08T06:51:00 | 56.977390 | 7.719166 | 2.0 | 16.205 | 2 | 43.414 | 16.376 | 34.233 | 2 |
| 2025-09-08T06:52:00 | 56.978456 | 7.723109 | 2.0 | 16.193 | 2 | 43.406 | 16.369 | 34.232 | 2 |
| 2025-09-08T06:53:00 | 56.979559 | 7.727024 | 2.0 | 16.190 | 2 | 43.393 | 16.361 | 34.227 | 2 |
| 2025-09-08T06:54:00 | 56.980647 | 7.730987 | 2.0 | 16.175 | 2 | 43.383 | 16.356 | 34.223 | 2 |
| 2025-09-08T06:55:00 | 56.981777 | 7.734928 | 2.0 | 16.161 | 2 | 43.350 | 16.342 | 34.206 | 2 |
| 2025-09-08T06:56:00 | 56.982878 | 7.738925 | 2.0 | 16.147 | 2 | 43.312 | 16.326 | 34.186 | 2 |
| 2025-09-08T06:57:00 | 56.983998 | 7.742922 | 2.0 | 16.142 | 2 | 43.267 | 16.315 | 34.156 | 2 |
| 2025-09-08T06:58:00 | 56.985112 | 7.746939 | 2.0 | 16.147 | 2 | 43.240 | 16.310 | 34.136 | 2 |
| 2025-09-08T06:59:00 | 56.986254 | 7.750953 | 2.0 | 16.167 | 2 | 43.228 | 16.318 | 34.119 | 2 |
| 2025-09-08T07:00:00 | 56.987373 | 7.755004 | 2.0 | 16.181 | 2 | 43.229 | 16.336 | 34.104 | 2 |
| 2025-09-08T07:01:00 | 56.988509 | 7.759074 | 2.0 | 16.186 | 2 | 43.232 | 16.348 | 34.097 | 2 |
| 2025-09-08T07:02:00 | 56.989637 | 7.763149 | 2.0 | 16.185 | 2 | 43.231 | 16.352 | 34.092 | 2 |
| 2025-09-08T07:03:00 | 56.990766 | 7.767225 | 2.0 | 16.182 | 2 | 43.224 | 16.352 | 34.086 | 2 |
| 2025-09-08T07:04:00 | 56.991904 | 7.771309 | 2.0 | 16.178 | 2 | 43.226 | 16.348 | 34.091 | 2 |
| 2025-09-08T07:05:00 | 56.993014 | 7.775421 | 2.0 | 16.172 | 2 | 43.226 | 16.344 | 34.095 | 2 |
| 2025-09-08T07:06:00 | 56.994145 | 7.779505 | 2.0 | 16.168 | 2 | 43.207 | 16.339 | 34.082 | 2 |
| 2025-09-08T07:07:00 | 56.995289 | 7.783580 | 2.0 | 16.160 | 2 | 43.197 | 16.334 | 34.078 | 2 |
| 2025-09-08T07:08:00 | 56.996440 | 7.787632 | 2.0 | 16.158 | 2 | 43.189 | 16.327 | 34.077 | 2 |
| 2025-09-08T07:09:00 | 56.997548 | 7.791739 | 2.0 | 16.163 | 2 | 43.189 | 16.325 | 34.078 | 2 |
| 2025-09-08T07:10:00 | 56.998658 | 7.795829 | 2.0 | 16.167 | 2 | 43.190 | 16.331 | 34.074 | 2 |
| 2025-09-08T07:11:00 | 56.999812 | 7.799931 | 2.0 | 16.167 | 2 | 43.184 | 16.334 | 34.066 | 2 |
| 2025-09-08T07:12:00 | 57.000992 | 7.804023 | 2.0 | 16.167 | 2 | 43.178 | 16.334 | 34.061 | 2 |
| 2025-09-08T07:13:00 | 57.002091 | 7.808183 | 2.0 | 16.176 | 2 | 43.182 | 16.334 | 34.064 | 2 |
| 2025-09-08T07:14:00 | 57.003295 | 7.812281 | 2.0 | 16.199 | 2 | 43.191 | 16.347 | 34.061 | 2 |
| 2025-09-08T07:15:00 | 57.004446 | 7.816448 | 2.0 | 16.223 | 2 | 43.187 | 16.368 | 34.040 | 2 |
| 2025-09-08T07:16:00 | 57.005573 | 7.820634 | 2.0 | 16.226 | 2 | 43.193 | 16.388 | 34.028 | 2 |
| 2025-09-08T07:17:00 | 57.006720 | 7.824771 | 2.0 | 16.235 | 2 | 43.193 | 16.394 | 34.023 | 2 |
| 2025-09-08T07:18:00 | 57.007869 | 7.828923 | 2.0 | 16.262 | 2 | 43.186 | 16.405 | 34.007 | 2 |
| 2025-09-08T07:19:00 | 57.009073 | 7.833056 | 2.0 | 16.287 | 2 | 43.180 | 16.431 | 33.980 | 2 |
| 2025-09-08T07:20:00 | 57.010229 | 7.837242 | 2.0 | 16.296 | 2 | 43.168 | 16.453 | 33.951 | 2 |
| 2025-09-08T07:21:00 | 57.011365 | 7.841406 | 2.0 | 16.294 | 2 | 43.162 | 16.462 | 33.938 | 2 |
| 2025-09-08T07:22:00 | 57.012451 | 7.845198 | 2.0 | 16.292 | 2 | 43.168 | 16.457 | 33.947 | 2 |
| 2025-09-08T07:23:00 | 57.013462 | 7.848930 | 2.0 | 16.296 | 2 | 43.176 | 16.460 | 33.952 | 2 |
| 2025-09-08T07:24:00 | 57.014483 | 7.852575 | 2.0 | 16.297 | 2 | 43.182 | 16.463 | 33.954 | 2 |
| 2025-09-08T07:25:00 | 57.015478 | 7.856225 | 2.0 | 16.292 | 2 | 43.181 | 16.462 | 33.954 | 2 |
| 2025-09-08T07:26:00 | 57.016478 | 7.859862 | 2.0 | 16.300 | 2 | 43.175 | 16.459 | 33.952 | 2 |
| 2025-09-08T07:27:00 | 57.017494 | 7.863498 | 2.0 | 16.306 | 2 | 43.176 | 16.467 | 33.946 | 2 |
| 2025-09-08T07:28:00 | 57.018553 | 7.867125 | 2.0 | 16.304 | 2 | 43.176 | 16.471 | 33.942 | 2 |
| 2025-09-08T07:29:00 | 57.019573 | 7.870817 | 2.0 | 16.326 | 2 | 43.174 | 16.469 | 33.942 | 2 |
| 2025-09-08T07:30:00 | 57.020607 | 7.874495 | 2.0 | 16.364 | 2 | 43.168 | 16.498 | 33.912 | 2 |
| 2025-09-08T07:31:00 | 57.021656 | 7.878198 | 2.0 | 16.336 | 2 | 43.174 | 16.518 | 33.901 | 2 |
| 2025-09-08T07:32:00 | 57.022676 | 7.881981 | 2.0 | 16.371 | 2 | 43.184 | 16.506 | 33.920 | 2 |
| 2025-09-08T07:33:00 | 57.023816 | 7.885999 | 2.0 | 16.399 | 2 | 43.176 | 16.540 | 33.884 | 2 |
| 2025-09-08T07:34:00 | 57.024949 | 7.890180 | 2.0 | 16.416 | 2 | 43.182 | 16.562 | 33.870 | 2 |
| 2025-09-08T07:35:00 | 57.026177 | 7.894354 | 2.0 | 16.433 | 2 | 43.187 | 16.585 | 33.855 | 2 |
| 2025-09-08T07:36:00 | 57.027293 | 7.898639 | 2.0 | 16.447 | 2 | 43.192 | 16.596 | 33.850 | 2 |
| 2025-09-08T07:37:00 | 57.028512 | 7.902860 | 2.0 | 16.484 | 2 | 43.183 | 16.628 | 33.815 | 2 |
| 2025-09-08T07:38:00 | 57.029613 | 7.907176 | 2.0 | 16.473 | 2 | 43.200 | 16.638 | 33.822 | 2 |
| 2025-09-08T07:39:00 | 57.030770 | 7.911386 | 2.0 | 16.501 | 2 | 43.201 | 16.647 | 33.815 | 2 |
| 2025-09-08T07:40:00 | 57.032001 | 7.915580 | 2.0 | 16.506 | 2 | 43.203 | 16.662 | 33.804 | 2 |
| 2025-09-08T07:41:00 | 57.033180 | 7.919811 | 2.0 | 16.546 | 2 | 43.201 | 16.676 | 33.791 | 2 |
| 2025-09-08T07:42:00 | 57.034337 | 7.924062 | 2.0 | 16.563 | 2 | 43.198 | 16.712 | 33.758 | 2 |
| 2025-09-08T07:43:00 | 57.035510 | 7.928300 | 2.0 | 16.596 | 2 | 43.202 | 16.730 | 33.746 | 2 |
| 2025-09-08T07:44:00 | 57.036713 | 7.932539 | 2.0 | 16.628 | 2 | 43.202 | 16.775 | 33.708 | 2 |
| 2025-09-08T07:45:00 | 57.037837 | 7.936843 | 2.0 | 16.558 | 2 | 43.221 | 16.768 | 33.730 | 2 |
| 2025-09-08T07:46:00 | 57.039059 | 7.941061 | 2.0 | 16.660 | 2 | 43.220 | 16.748 | 33.746 | 2 |
| 2025-09-08T07:47:00 | 57.040260 | 7.945343 | 2.0 | 16.597 | 2 | 43.223 | 16.813 | 33.694 | 2 |
| 2025-09-08T07:48:00 | 57.041426 | 7.949636 | 2.0 | 16.666 | 2 | 43.236 | 16.776 | 33.737 | 2 |
| 2025-09-08T07:49:00 | 57.042645 | 7.953916 | 2.0 | 16.762 | 2 | 43.219 | 16.844 | 33.665 | 2 |
| 2025-09-08T07:50:00 | 57.043822 | 7.958222 | 2.0 | 16.757 | 2 | 43.223 | 16.917 | 33.607 | 2 |
| 2025-09-08T07:51:00 | 57.044936 | 7.962539 | 2.0 | 16.743 | 2 | 43.242 | 16.907 | 33.632 | 2 |
| 2025-09-08T07:52:00 | 57.046171 | 7.966756 | 2.0 | 16.807 | 2 | 43.242 | 16.919 | 33.622 | 2 |
| 2025-09-08T07:53:00 | 57.047404 | 7.971011 | 2.0 | 16.877 | 2 | 43.244 | 16.983 | 33.570 | 2 |
| 2025-09-08T07:54:00 | 57.048545 | 7.975315 | 2.0 | 16.892 | 2 | 43.251 | 17.033 | 33.535 | 2 |
| 2025-09-08T07:55:00 | 57.049737 | 7.979553 | 2.0 | 16.924 | 2 | 43.254 | 17.055 | 33.519 | 2 |
| 2025-09-08T07:56:00 | 57.050992 | 7.983790 | 2.0 | 16.933 | 2 | 43.278 | 17.088 | 33.512 | 2 |
| 2025-09-08T07:57:00 | 57.052155 | 7.988011 | 2.0 | 16.958 | 2 | 43.294 | 17.101 | 33.515 | 2 |
| 2025-09-08T07:58:00 | 57.053230 | 7.992257 | 2.0 | 16.919 | 2 | 43.294 | 17.114 | 33.505 | 2 |
| 2025-09-08T07:59:00 | 57.054389 | 7.996459 | 2.0 | 16.978 | 2 | 43.287 | 17.082 | 33.525 | 2 |
| 2025-09-08T08:00:00 | 57.055644 | 8.000631 | 2.0 | 17.125 | 2 | 43.290 | 17.175 | 33.450 | 2 |
| 2025-09-08T08:01:00 | 57.056865 | 8.004873 | 2.0 | 17.115 | 2 | 43.305 | 17.281 | 33.376 | 2 |
| 2025-09-08T08:02:00 | 57.057973 | 8.009177 | 2.0 | 17.161 | 2 | 43.310 | 17.279 | 33.382 | 2 |
| 2025-09-08T08:03:00 | 57.059126 | 8.013416 | 2.0 | 17.169 | 2 | 43.305 | 17.320 | 33.344 | 2 |
| 2025-09-08T08:04:00 | 57.060263 | 8.017660 | 2.0 | 17.166 | 2 | 43.297 | 17.326 | 33.332 | 2 |
| 2025-09-08T08:05:00 | 57.061500 | 8.021864 | 2.0 | 17.152 | 2 | 43.291 | 17.327 | 33.326 | 2 |
| 2025-09-08T08:06:00 | 57.062697 | 8.026127 | 2.0 | 17.121 | 2 | 43.289 | 17.305 | 33.342 | 2 |
| 2025-09-08T08:07:00 | 57.063856 | 8.030396 | 2.0 | 17.115 | 2 | 43.287 | 17.281 | 33.360 | 2 |
| 2025-09-08T08:08:00 | 57.065036 | 8.034622 | 2.0 | 17.119 | 2 | 43.281 | 17.280 | 33.356 | 2 |
| 2025-09-08T08:09:00 | 57.066201 | 8.038843 | 2.0 | 17.101 | 2 | 43.276 | 17.278 | 33.353 | 2 |
| 2025-09-08T08:10:00 | 57.067297 | 8.042903 | 2.0 | 17.098 | 2 | 43.273 | 17.263 | 33.363 | 2 |
| 2025-09-08T08:11:00 | 57.068398 | 8.046809 | 2.0 | 17.090 | 2 | 43.269 | 17.259 | 33.363 | 2 |
| 2025-09-08T08:12:00 | 57.069475 | 8.050658 | 2.0 | 17.084 | 2 | 43.261 | 17.251 | 33.363 | 2 |
| 2025-09-08T08:13:00 | 57.070531 | 8.054502 | 2.0 | 17.080 | 2 | 43.253 | 17.245 | 33.361 | 2 |
| 2025-09-08T08:14:00 | 57.071598 | 8.058337 | 2.0 | 17.074 | 2 | 43.245 | 17.242 | 33.356 | 2 |
| 2025-09-08T08:15:00 | 57.072664 | 8.062179 | 2.0 | 17.063 | 2 | 43.231 | 17.234 | 33.351 | 2 |
| 2025-09-08T08:16:00 | 57.073723 | 8.066044 | 2.0 | 17.055 | 2 | 43.222 | 17.224 | 33.351 | 2 |
| 2025-09-08T08:17:00 | 57.074812 | 8.069903 | 2.0 | 17.061 | 2 | 43.216 | 17.217 | 33.352 | 2 |
| 2025-09-08T08:18:00 | 57.075880 | 8.073759 | 2.0 | 17.109 | 2 | 43.218 | 17.232 | 33.341 | 2 |
| 2025-09-08T08:19:00 | 57.076836 | 8.077302 | 2.0 | 17.129 | 2 | 43.249 | 17.274 | 33.333 | 2 |
| 2025-09-08T08:20:00 | 57.077587 | 8.079552 | 2.0 | 17.133 | 2 | 43.265 | 17.289 | 33.335 | 2 |
| 2025-09-08T08:21:00 | 57.078288 | 8.080749 | 2.0 | 17.132 | 2 | 43.268 | 17.292 | 33.335 | 2 |
| 2025-09-08T08:22:00 | 57.078539 | 8.081557 | 2.0 | 17.135 | 2 | 43.266 | 17.292 | 33.333 | 2 |
| 2025-09-08T08:23:00 | 57.078694 | 8.081994 | 2.0 | 17.137 | 2 | 43.266 | 17.294 | 33.331 | 2 |
| 2025-09-08T08:24:00 | 57.078804 | 8.082163 | 2.0 | 17.141 | 2 | 43.265 | 17.295 | 33.330 | 2 |
| 2025-09-08T08:25:00 | 57.078821 | 8.082176 | 2.0 | 17.142 | 2 | 43.266 | 17.300 | 33.326 | 2 |
| 2025-09-08T08:26:00 | 57.078779 | 8.082178 | 2.0 | 17.140 | 2 | 43.266 | 17.301 | 33.326 | 2 |
| 2025-09-08T08:27:00 | 57.078800 | 8.082171 | 2.0 | 17.140 | 2 | 43.265 | 17.299 | 33.326 | 2 |
| 2025-09-08T08:28:00 | 57.078851 | 8.082138 | 2.0 | 17.143 | 2 | 43.264 | 17.300 | 33.325 | 2 |
| 2025-09-08T08:29:00 | 57.078888 | 8.082204 | 2.0 | 17.141 | 2 | 43.266 | 17.303 | 33.324 | 2 |
| 2025-09-08T08:30:00 | 57.078917 | 8.082316 | 2.0 | 17.142 | 2 | 43.264 | 17.301 | 33.324 | 2 |
| 2025-09-08T08:31:00 | 57.078935 | 8.082457 | 2.0 | 17.142 | 2 | 43.257 | 17.302 | 33.317 | 2 |
| 2025-09-08T08:32:00 | 57.078923 | 8.082507 | 2.0 | 17.143 | 2 | 43.258 | 17.302 | 33.318 | 2 |
| 2025-09-08T08:33:00 | 57.078906 | 8.082524 | 2.0 | 17.144 | 2 | 43.260 | 17.304 | 33.318 | 2 |
| 2025-09-08T08:34:00 | 57.078916 | 8.082627 | 2.0 | 17.146 | 2 | 43.262 | 17.304 | 33.320 | 2 |
| 2025-09-08T08:35:00 | 57.078912 | 8.082743 | 2.0 | 17.149 | 2 | 43.264 | 17.307 | 33.319 | 2 |
| 2025-09-08T08:36:00 | 57.078903 | 8.082837 | 2.0 | 17.150 | 2 | 43.265 | 17.309 | 33.318 | 2 |
| 2025-09-08T08:37:00 | 57.078890 | 8.082866 | 2.0 | 17.150 | 2 | 43.266 | 17.309 | 33.319 | 2 |
| 2025-09-08T08:38:00 | 57.078898 | 8.082886 | 2.0 | 17.155 | 2 | 43.267 | 17.311 | 33.318 | 2 |
| 2025-09-08T08:39:00 | 57.078927 | 8.082931 | 2.0 | 17.152 | 2 | 43.271 | 17.313 | 33.320 | 2 |
| 2025-09-08T08:40:00 | 57.078954 | 8.082980 | 2.0 | 17.156 | 2 | 43.272 | 17.314 | 33.320 | 2 |
| 2025-09-08T08:41:00 | 57.078984 | 8.083055 | 2.0 | 17.160 | 2 | 43.274 | 17.317 | 33.319 | 2 |
| 2025-09-08T08:42:00 | 57.078979 | 8.083102 | 2.0 | 17.164 | 2 | 43.276 | 17.319 | 33.319 | 2 |
| 2025-09-08T08:43:00 | 57.079026 | 8.083173 | 2.0 | 17.165 | 2 | 43.276 | 17.324 | 33.315 | 2 |
| 2025-09-08T08:44:00 | 57.079119 | 8.083238 | 2.0 | 17.168 | 2 | 43.279 | 17.325 | 33.317 | 2 |
| 2025-09-08T08:45:00 | 57.079194 | 8.083286 | 2.0 | 17.168 | 2 | 43.281 | 17.327 | 33.317 | 2 |
| 2025-09-08T08:46:00 | 57.079190 | 8.083395 | 2.0 | 17.169 | 2 | 43.282 | 17.328 | 33.317 | 2 |
| 2025-09-08T08:47:00 | 57.079150 | 8.083510 | 2.0 | 17.172 | 2 | 43.283 | 17.329 | 33.317 | 2 |
| 2025-09-08T08:48:00 | 57.079121 | 8.083563 | 2.0 | 17.173 | 2 | 43.285 | 17.332 | 33.316 | 2 |
| 2025-09-08T08:49:00 | 57.079139 | 8.083532 | 2.0 | 17.172 | 2 | 43.285 | 17.331 | 33.317 | 2 |
| 2025-09-08T08:50:00 | 57.079234 | 8.083440 | 2.0 | 17.176 | 2 | 43.286 | 17.332 | 33.317 | 2 |
| 2025-09-08T08:51:00 | 57.079325 | 8.083343 | 2.0 | 17.181 | 2 | 43.289 | 17.337 | 33.316 | 2 |
| 2025-09-08T08:52:00 | 57.079339 | 8.083289 | 2.0 | 17.186 | 2 | 43.293 | 17.341 | 33.316 | 2 |
| 2025-09-08T08:53:00 | 57.079361 | 8.083350 | 2.0 | 17.178 | 2 | 43.298 | 17.347 | 33.315 | 2 |
| 2025-09-08T08:54:00 | 57.079367 | 8.083459 | 2.0 | 17.179 | 2 | 43.292 | 17.339 | 33.317 | 2 |
| 2025-09-08T08:55:00 | 57.079332 | 8.083609 | 2.0 | 17.181 | 2 | 43.291 | 17.339 | 33.316 | 2 |
| 2025-09-08T08:56:00 | 57.079267 | 8.083835 | 2.0 | 17.180 | 2 | 43.293 | 17.342 | 33.315 | 2 |
| 2025-09-08T08:57:00 | 57.079252 | 8.084034 | 2.0 | 17.187 | 2 | 43.292 | 17.341 | 33.315 | 2 |
| 2025-09-08T08:58:00 | 57.079254 | 8.084112 | 2.0 | 17.191 | 2 | 43.299 | 17.348 | 33.315 | 2 |
| 2025-09-08T08:59:00 | 57.079250 | 8.084046 | 2.0 | 17.191 | 2 | 43.304 | 17.352 | 33.316 | 2 |
| 2025-09-08T09:00:00 | 57.079295 | 8.083937 | 2.0 | 17.192 | 2 | 43.304 | 17.351 | 33.317 | 2 |
| 2025-09-08T09:01:00 | 57.079391 | 8.083792 | 2.0 | 17.193 | 2 | 43.302 | 17.352 | 33.315 | 2 |
| 2025-09-08T09:02:00 | 57.079492 | 8.083628 | 2.0 | 17.195 | 2 | 43.302 | 17.352 | 33.315 | 2 |
| 2025-09-08T09:03:00 | 57.079553 | 8.083595 | 2.0 | 17.197 | 2 | 43.304 | 17.355 | 33.314 | 2 |
| 2025-09-08T09:04:00 | 57.079561 | 8.083554 | 2.0 | 17.203 | 2 | 43.307 | 17.358 | 33.314 | 2 |
| 2025-09-08T09:05:00 | 57.079490 | 8.083616 | 2.0 | 17.204 | 2 | 43.311 | 17.363 | 33.313 | 2 |
| 2025-09-08T09:06:00 | 57.079399 | 8.083819 | 2.0 | 17.205 | 2 | 43.312 | 17.365 | 33.312 | 2 |
| 2025-09-08T09:07:00 | 57.079312 | 8.084084 | 2.0 | 17.203 | 2 | 43.311 | 17.364 | 33.312 | 2 |
| 2025-09-08T09:08:00 | 57.079193 | 8.084402 | 2.0 | 17.207 | 2 | 43.309 | 17.364 | 33.311 | 2 |
| 2025-09-08T09:09:00 | 57.079109 | 8.084633 | 2.0 | 17.210 | 2 | 43.312 | 17.368 | 33.310 | 2 |
| 2025-09-08T09:10:00 | 57.079061 | 8.084769 | 2.0 | 17.213 | 2 | 43.316 | 17.372 | 33.310 | 2 |
| 2025-09-08T09:11:00 | 57.079014 | 8.084820 | 2.0 | 17.241 | 2 | 43.318 | 17.376 | 33.309 | 2 |
| 2025-09-08T09:12:00 | 57.078962 | 8.084830 | 2.0 | 17.246 | 2 | 43.327 | 17.400 | 33.297 | 2 |
| 2025-09-08T09:13:00 | 57.078906 | 8.084844 | 2.0 | 17.244 | 2 | 43.329 | 17.406 | 33.293 | 2 |
| 2025-09-08T09:14:00 | 57.078849 | 8.084866 | 2.0 | 17.251 | 2 | 43.328 | 17.406 | 33.293 | 2 |
| 2025-09-08T09:15:00 | 57.078822 | 8.084948 | 2.0 | 17.258 | 2 | 43.326 | 17.412 | 33.286 | 2 |
| 2025-09-08T09:16:00 | 57.078846 | 8.085060 | 2.0 | 17.256 | 2 | 43.322 | 17.417 | 33.278 | 2 |
| 2025-09-08T09:17:00 | 57.078820 | 8.085094 | 2.0 | 17.267 | 2 | 43.326 | 17.419 | 33.280 | 2 |
| 2025-09-08T09:18:00 | 57.078789 | 8.085166 | 2.0 | 17.262 | 2 | 43.331 | 17.426 | 33.279 | 2 |
| 2025-09-08T09:19:00 | 57.078763 | 8.085245 | 2.0 | 17.265 | 2 | 43.329 | 17.422 | 33.280 | 2 |
| 2025-09-08T09:20:00 | 57.078756 | 8.085258 | 2.0 | 17.261 | 2 | 43.332 | 17.425 | 33.280 | 2 |
| 2025-09-08T09:21:00 | 57.078776 | 8.085239 | 2.0 | 17.263 | 2 | 43.331 | 17.422 | 33.282 | 2 |
| 2025-09-08T09:22:00 | 57.078831 | 8.085234 | 2.0 | 17.270 | 2 | 43.333 | 17.425 | 33.281 | 2 |
| 2025-09-08T09:23:00 | 57.078857 | 8.085198 | 2.0 | 17.272 | 2 | 43.337 | 17.430 | 33.281 | 2 |
| 2025-09-08T09:24:00 | 57.078832 | 8.085078 | 2.0 | 17.273 | 2 | 43.338 | 17.432 | 33.280 | 2 |
| 2025-09-08T09:25:00 | 57.078810 | 8.084964 | 2.0 | 17.270 | 2 | 43.340 | 17.433 | 33.281 | 2 |
| 2025-09-08T09:26:00 | 57.078804 | 8.084938 | 2.0 | 17.268 | 2 | 43.338 | 17.430 | 33.281 | 2 |
| 2025-09-08T09:27:00 | 57.078800 | 8.084956 | 2.0 | 17.269 | 2 | 43.337 | 17.428 | 33.282 | 2 |
| 2025-09-08T09:28:00 | 57.078790 | 8.085033 | 2.0 | 17.264 | 2 | 43.337 | 17.428 | 33.282 | 2 |
| 2025-09-08T09:29:00 | 57.078770 | 8.085121 | 2.0 | 17.268 | 2 | 43.336 | 17.427 | 33.282 | 2 |
| 2025-09-08T09:30:00 | 57.078719 | 8.085205 | 2.0 | 17.258 | 2 | 43.335 | 17.423 | 33.285 | 2 |
| 2025-09-08T09:31:00 | 57.078696 | 8.085336 | 2.0 | 17.263 | 2 | 43.334 | 17.421 | 33.285 | 2 |
| 2025-09-08T09:32:00 | 57.078638 | 8.085472 | 2.0 | 17.270 | 2 | 43.335 | 17.425 | 33.283 | 2 |
| 2025-09-08T09:33:00 | 57.078571 | 8.085599 | 2.0 | 17.257 | 2 | 43.336 | 17.426 | 33.283 | 2 |
| 2025-09-08T09:34:00 | 57.078511 | 8.085662 | 2.0 | 17.256 | 2 | 43.331 | 17.420 | 33.284 | 2 |
| 2025-09-08T09:35:00 | 57.078500 | 8.085713 | 2.0 | 17.263 | 2 | 43.331 | 17.418 | 33.285 | 2 |
| 2025-09-08T09:36:00 | 57.078497 | 8.085770 | 2.0 | 17.264 | 2 | 43.335 | 17.424 | 33.284 | 2 |
| 2025-09-08T09:37:00 | 57.078465 | 8.085783 | 2.0 | 17.263 | 2 | 43.335 | 17.424 | 33.284 | 2 |
| 2025-09-08T09:38:00 | 57.078421 | 8.085790 | 2.0 | 17.260 | 2 | 43.334 | 17.423 | 33.284 | 2 |
| 2025-09-08T09:39:00 | 57.078370 | 8.085807 | 2.0 | 17.265 | 2 | 43.333 | 17.422 | 33.284 | 2 |
| 2025-09-08T09:40:00 | 57.078311 | 8.085799 | 2.0 | 17.266 | 2 | 43.335 | 17.424 | 33.284 | 2 |
| 2025-09-08T09:41:00 | 57.078254 | 8.085788 | 2.0 | 17.256 | 2 | 43.336 | 17.425 | 33.284 | 2 |
| 2025-09-08T09:42:00 | 57.078242 | 8.085815 | 2.0 | 17.250 | 2 | 43.329 | 17.416 | 33.285 | 2 |
| 2025-09-08T09:43:00 | 57.078208 | 8.085812 | 2.0 | 17.259 | 2 | 43.326 | 17.411 | 33.287 | 2 |
| 2025-09-08T09:44:00 | 57.078187 | 8.085826 | 2.0 | 17.253 | 2 | 43.331 | 17.417 | 33.286 | 2 |
| 2025-09-08T09:45:00 | 57.078164 | 8.085875 | 2.0 | 17.259 | 2 | 43.329 | 17.415 | 33.286 | 2 |
| 2025-09-08T09:46:00 | 57.078117 | 8.085943 | 2.0 | 17.261 | 2 | 43.331 | 17.421 | 33.283 | 2 |
| 2025-09-08T09:47:00 | 57.078046 | 8.085989 | 2.0 | 17.248 | 2 | 43.330 | 17.417 | 33.285 | 2 |
| 2025-09-08T09:48:00 | 57.077966 | 8.086030 | 2.0 | 17.256 | 2 | 43.327 | 17.412 | 33.287 | 2 |
| 2025-09-08T09:49:00 | 57.077884 | 8.086101 | 2.0 | 17.263 | 2 | 43.330 | 17.416 | 33.286 | 2 |
| 2025-09-08T09:50:00 | 57.077786 | 8.086119 | 2.0 | 17.272 | 2 | 43.337 | 17.426 | 33.284 | 2 |
| 2025-09-08T09:51:00 | 57.077750 | 8.086102 | 2.0 | 17.267 | 2 | 43.340 | 17.429 | 33.284 | 2 |
| 2025-09-08T09:52:00 | 57.077778 | 8.086124 | 2.0 | 17.269 | 2 | 43.341 | 17.430 | 33.284 | 2 |
| 2025-09-08T09:53:00 | 57.077825 | 8.086116 | 2.0 | 17.269 | 2 | 43.341 | 17.429 | 33.285 | 2 |
| 2025-09-08T09:54:00 | 57.077826 | 8.086088 | 2.0 | 17.276 | 2 | 43.341 | 17.431 | 33.283 | 2 |
| 2025-09-08T09:55:00 | 57.077805 | 8.086065 | 2.0 | 17.275 | 2 | 43.344 | 17.436 | 33.282 | 2 |
| 2025-09-08T09:56:00 | 57.077760 | 8.086080 | 2.0 | 17.275 | 2 | 43.344 | 17.437 | 33.281 | 2 |
| 2025-09-08T09:57:00 | 57.077719 | 8.086131 | 2.0 | 17.276 | 2 | 43.343 | 17.436 | 33.281 | 2 |
| 2025-09-08T09:58:00 | 57.077693 | 8.086221 | 2.0 | 17.276 | 2 | 43.343 | 17.435 | 33.282 | 2 |
| 2025-09-08T09:59:00 | 57.077661 | 8.086332 | 2.0 | 17.270 | 2 | 43.344 | 17.436 | 33.282 | 2 |
| 2025-09-08T10:00:00 | 57.077611 | 8.086491 | 2.0 | 17.268 | 2 | 43.339 | 17.429 | 33.283 | 2 |
| 2025-09-08T10:01:00 | 57.077388 | 8.086407 | 2.0 | 17.268 | 2 | 43.337 | 17.429 | 33.281 | 2 |
| 2025-09-08T10:02:00 | 57.077049 | 8.086018 | 2.0 | 17.268 | 2 | 43.339 | 17.427 | 33.285 | 2 |
| 2025-09-08T10:03:00 | 57.076720 | 8.085299 | 2.0 | 17.301 | 2 | 43.346 | 17.435 | 33.284 | 2 |
| 2025-09-08T10:04:00 | 57.076596 | 8.084254 | 2.0 | 17.264 | 2 | 43.356 | 17.452 | 33.279 | 2 |
| 2025-09-08T10:05:00 | 57.076718 | 8.083058 | 2.0 | 17.265 | 2 | 43.347 | 17.427 | 33.292 | 2 |
| 2025-09-08T10:06:00 | 57.076889 | 8.081821 | 2.0 | 17.263 | 2 | 43.350 | 17.428 | 33.293 | 2 |
| 2025-09-08T10:07:00 | 57.077082 | 8.080644 | 2.0 | 17.256 | 2 | 43.351 | 17.423 | 33.298 | 2 |
| 2025-09-08T10:08:00 | 57.077436 | 8.079762 | 2.0 | 17.259 | 2 | 43.345 | 17.414 | 33.301 | 2 |
| 2025-09-08T10:09:00 | 57.077874 | 8.079190 | 2.0 | 17.260 | 2 | 43.346 | 17.421 | 33.296 | 2 |
| 2025-09-08T10:10:00 | 57.078331 | 8.078860 | 2.0 | 17.275 | 2 | 43.347 | 17.425 | 33.293 | 2 |
| 2025-09-08T10:11:00 | 57.078661 | 8.078741 | 2.0 | 17.289 | 2 | 43.353 | 17.437 | 33.289 | 2 |
| 2025-09-08T10:12:00 | 57.078894 | 8.078659 | 2.0 | 17.307 | 2 | 43.362 | 17.451 | 33.285 | 2 |
| 2025-09-08T10:13:00 | 57.079107 | 8.078666 | 2.0 | 17.301 | 2 | 43.375 | 17.466 | 33.284 | 2 |
| 2025-09-08T10:14:00 | 57.079138 | 8.078805 | 2.0 | 17.282 | 2 | 43.375 | 17.456 | 33.292 | 2 |
| 2025-09-08T10:15:00 | 57.078860 | 8.078846 | 2.0 | 17.305 | 2 | 43.368 | 17.446 | 33.294 | 2 |
| 2025-09-08T10:16:00 | 57.078466 | 8.078533 | 2.0 | 17.297 | 2 | 43.375 | 17.467 | 33.283 | 2 |
| 2025-09-08T10:17:00 | 57.078105 | 8.077963 | 2.0 | 17.267 | 2 | 43.366 | 17.449 | 33.290 | 2 |
| 2025-09-08T10:18:00 | 57.077774 | 8.077183 | 2.0 | 17.276 | 2 | 43.356 | 17.433 | 33.294 | 2 |
| 2025-09-08T10:19:00 | 57.077420 | 8.076495 | 2.0 | 17.269 | 2 | 43.361 | 17.435 | 33.297 | 2 |
| 2025-09-08T10:20:00 | 57.077063 | 8.075682 | 2.0 | 17.257 | 2 | 43.362 | 17.428 | 33.304 | 2 |
| 2025-09-08T10:21:00 | 57.076707 | 8.074787 | 2.0 | 17.282 | 2 | 43.364 | 17.426 | 33.307 | 2 |
| 2025-09-08T10:22:00 | 57.076385 | 8.073898 | 2.0 | 17.313 | 2 | 43.376 | 17.448 | 33.299 | 2 |
| 2025-09-08T10:23:00 | 57.076073 | 8.072993 | 2.0 | 17.312 | 2 | 43.388 | 17.469 | 33.292 | 2 |
| 2025-09-08T10:24:00 | 57.075748 | 8.072052 | 2.0 | 17.312 | 2 | 43.389 | 17.469 | 33.293 | 2 |
| 2025-09-08T10:25:00 | 57.075464 | 8.071188 | 2.0 | 17.305 | 2 | 43.391 | 17.471 | 33.293 | 2 |
| 2025-09-08T10:26:00 | 57.075250 | 8.070387 | 2.0 | 17.300 | 2 | 43.390 | 17.467 | 33.296 | 2 |
| 2025-09-08T10:27:00 | 57.075083 | 8.069636 | 2.0 | 17.293 | 2 | 43.392 | 17.460 | 33.303 | 2 |
| 2025-09-08T10:28:00 | 57.074931 | 8.068889 | 2.0 | 17.294 | 2 | 43.390 | 17.453 | 33.307 | 2 |
| 2025-09-08T10:29:00 | 57.074786 | 8.068197 | 2.0 | 17.290 | 2 | 43.394 | 17.454 | 33.310 | 2 |
| 2025-09-08T10:30:00 | 57.074689 | 8.067543 | 2.0 | 17.288 | 2 | 43.395 | 17.453 | 33.311 | 2 |
| 2025-09-08T10:31:00 | 57.074653 | 8.066923 | 2.0 | 17.298 | 2 | 43.395 | 17.452 | 33.312 | 2 |
| 2025-09-08T10:32:00 | 57.074633 | 8.066302 | 2.0 | 17.283 | 2 | 43.399 | 17.454 | 33.314 | 2 |
| 2025-09-08T10:33:00 | 57.074532 | 8.065621 | 2.0 | 17.289 | 2 | 43.396 | 17.448 | 33.316 | 2 |
| 2025-09-08T10:34:00 | 57.074364 | 8.064880 | 2.0 | 17.258 | 2 | 43.394 | 17.442 | 33.320 | 2 |
| 2025-09-08T10:35:00 | 57.074145 | 8.064091 | 2.0 | 17.241 | 2 | 43.377 | 17.418 | 33.325 | 2 |
| 2025-09-08T10:36:00 | 57.073948 | 8.063353 | 2.0 | 17.219 | 2 | 43.359 | 17.394 | 33.329 | 2 |
| 2025-09-08T10:37:00 | 57.073729 | 8.062566 | 2.0 | 17.199 | 2 | 43.349 | 17.381 | 33.331 | 2 |
| 2025-09-08T10:38:00 | 57.073475 | 8.061794 | 2.0 | 17.199 | 2 | 43.333 | 17.366 | 33.330 | 2 |
| 2025-09-08T10:39:00 | 57.073147 | 8.060951 | 2.0 | 17.194 | 2 | 43.330 | 17.362 | 33.330 | 2 |
| 2025-09-08T10:40:00 | 57.072771 | 8.060035 | 2.0 | 17.193 | 2 | 43.325 | 17.357 | 33.330 | 2 |
| 2025-09-08T10:41:00 | 57.072421 | 8.059144 | 2.0 | 17.201 | 2 | 43.326 | 17.357 | 33.331 | 2 |
| 2025-09-08T10:42:00 | 57.072098 | 8.058330 | 2.0 | 17.202 | 2 | 43.337 | 17.364 | 33.335 | 2 |
| 2025-09-08T10:43:00 | 57.071756 | 8.057483 | 2.0 | 17.205 | 2 | 43.342 | 17.366 | 33.337 | 2 |
| 2025-09-08T10:44:00 | 57.071420 | 8.056628 | 2.0 | 17.204 | 2 | 43.344 | 17.365 | 33.340 | 2 |
| 2025-09-08T10:45:00 | 57.071084 | 8.055741 | 2.0 | 17.208 | 2 | 43.345 | 17.366 | 33.340 | 2 |
| 2025-09-08T10:46:00 | 57.070758 | 8.054883 | 2.0 | 17.210 | 2 | 43.348 | 17.370 | 33.339 | 2 |
| 2025-09-08T10:47:00 | 57.070425 | 8.054029 | 2.0 | 17.201 | 2 | 43.348 | 17.367 | 33.342 | 2 |
| 2025-09-08T10:48:00 | 57.070064 | 8.053164 | 2.0 | 17.203 | 2 | 43.344 | 17.362 | 33.342 | 2 |
| 2025-09-08T10:49:00 | 57.069693 | 8.052302 | 2.0 | 17.208 | 2 | 43.346 | 17.364 | 33.343 | 2 |
| 2025-09-08T10:50:00 | 57.069324 | 8.051417 | 2.0 | 17.211 | 2 | 43.351 | 17.369 | 33.343 | 2 |
| 2025-09-08T10:51:00 | 57.068923 | 8.050501 | 2.0 | 17.213 | 2 | 43.354 | 17.372 | 33.343 | 2 |
| 2025-09-08T10:52:00 | 57.068514 | 8.049556 | 2.0 | 17.202 | 2 | 43.354 | 17.370 | 33.344 | 2 |
| 2025-09-08T10:53:00 | 57.068108 | 8.048627 | 2.0 | 17.201 | 2 | 43.349 | 17.365 | 33.344 | 2 |
| 2025-09-08T10:54:00 | 57.067709 | 8.047717 | 2.0 | 17.192 | 2 | 43.346 | 17.360 | 33.346 | 2 |
| 2025-09-08T10:55:00 | 57.067333 | 8.046853 | 2.0 | 17.183 | 2 | 43.339 | 17.351 | 33.347 | 2 |
| 2025-09-08T10:56:00 | 57.066959 | 8.045992 | 2.0 | 17.167 | 2 | 43.330 | 17.340 | 33.349 | 2 |
| 2025-09-08T10:57:00 | 57.066582 | 8.045121 | 2.0 | 17.171 | 2 | 43.322 | 17.330 | 33.350 | 2 |
| 2025-09-08T10:58:00 | 57.066218 | 8.044284 | 2.0 | 17.184 | 2 | 43.324 | 17.332 | 33.350 | 2 |
| 2025-09-08T10:59:00 | 57.065839 | 8.043424 | 2.0 | 17.180 | 2 | 43.336 | 17.343 | 33.351 | 2 |
| 2025-09-08T11:00:00 | 57.065425 | 8.042548 | 2.0 | 17.178 | 2 | 43.333 | 17.340 | 33.351 | 2 |
| 2025-09-08T11:01:00 | 57.065012 | 8.041685 | 2.0 | 17.160 | 2 | 43.331 | 17.336 | 33.353 | 2 |
| 2025-09-08T11:02:00 | 57.064625 | 8.040841 | 2.0 | 17.167 | 2 | 43.321 | 17.325 | 33.353 | 2 |
| 2025-09-08T11:03:00 | 57.064244 | 8.039981 | 2.0 | 17.164 | 2 | 43.322 | 17.326 | 33.353 | 2 |
| 2025-09-08T11:04:00 | 57.063904 | 8.039148 | 2.0 | 17.153 | 2 | 43.317 | 17.322 | 33.352 | 2 |
| 2025-09-08T11:05:00 | 57.063564 | 8.038333 | 2.0 | 17.159 | 2 | 43.314 | 17.316 | 33.355 | 2 |
| 2025-09-08T11:06:00 | 57.063246 | 8.037516 | 2.0 | 17.152 | 2 | 43.318 | 17.320 | 33.355 | 2 |
| 2025-09-08T11:07:00 | 57.062911 | 8.036683 | 2.0 | 17.160 | 2 | 43.315 | 17.317 | 33.355 | 2 |
| 2025-09-08T11:08:00 | 57.062609 | 8.035875 | 2.0 | 17.162 | 2 | 43.319 | 17.321 | 33.355 | 2 |
| 2025-09-08T11:09:00 | 57.062338 | 8.035083 | 2.0 | 17.174 | 2 | 43.324 | 17.325 | 33.356 | 2 |
| 2025-09-08T11:10:00 | 57.062062 | 8.034269 | 2.0 | 17.202 | 2 | 43.335 | 17.342 | 33.351 | 2 |
| 2025-09-08T11:11:00 | 57.061765 | 8.033441 | 2.0 | 17.209 | 2 | 43.338 | 17.361 | 33.338 | 2 |
| 2025-09-08T11:12:00 | 57.061423 | 8.032573 | 2.0 | 17.217 | 2 | 43.340 | 17.369 | 33.333 | 2 |
| 2025-09-08T11:13:00 | 57.061074 | 8.031712 | 2.0 | 17.217 | 2 | 43.347 | 17.377 | 33.333 | 2 |
| 2025-09-08T11:14:00 | 57.060697 | 8.030852 | 2.0 | 17.222 | 2 | 43.350 | 17.379 | 33.334 | 2 |
| 2025-09-08T11:15:00 | 57.060301 | 8.029992 | 2.0 | 17.232 | 2 | 43.353 | 17.385 | 33.331 | 2 |
| 2025-09-08T11:16:00 | 57.059926 | 8.029143 | 2.0 | 17.225 | 2 | 43.350 | 17.389 | 33.325 | 2 |
| 2025-09-08T11:17:00 | 57.059520 | 8.028262 | 2.0 | 17.231 | 2 | 43.349 | 17.388 | 33.325 | 2 |
| 2025-09-08T11:18:00 | 57.059086 | 8.027368 | 2.0 | 17.240 | 2 | 43.361 | 17.395 | 33.330 | 2 |
| 2025-09-08T11:19:00 | 57.058667 | 8.026523 | 2.0 | 17.236 | 2 | 43.370 | 17.400 | 33.334 | 2 |
| 2025-09-08T11:20:00 | 57.058275 | 8.025684 | 2.0 | 17.236 | 2 | 43.370 | 17.397 | 33.336 | 2 |
| 2025-09-08T11:21:00 | 57.057868 | 8.024862 | 2.0 | 17.231 | 2 | 43.368 | 17.393 | 33.338 | 2 |
| 2025-09-08T11:22:00 | 57.057433 | 8.024010 | 2.0 | 17.230 | 2 | 43.368 | 17.391 | 33.339 | 2 |
| 2025-09-08T11:23:00 | 57.057022 | 8.023166 | 2.0 | 17.230 | 2 | 43.370 | 17.392 | 33.340 | 2 |
| 2025-09-08T11:24:00 | 57.056615 | 8.022318 | 2.0 | 17.244 | 2 | 43.374 | 17.394 | 33.342 | 2 |
| 2025-09-08T11:25:00 | 57.056196 | 8.021465 | 2.0 | 17.249 | 2 | 43.385 | 17.405 | 33.342 | 2 |
| 2025-09-08T11:26:00 | 57.055806 | 8.020632 | 2.0 | 17.252 | 2 | 43.387 | 17.408 | 33.342 | 2 |
| 2025-09-08T11:27:00 | 57.055462 | 8.019847 | 2.0 | 17.243 | 2 | 43.388 | 17.410 | 33.341 | 2 |
| 2025-09-08T11:28:00 | 57.055158 | 8.019106 | 2.0 | 17.249 | 2 | 43.387 | 17.408 | 33.342 | 2 |
| 2025-09-08T11:29:00 | 57.054839 | 8.018349 | 2.0 | 17.245 | 2 | 43.386 | 17.406 | 33.342 | 2 |
| 2025-09-08T11:30:00 | 57.054477 | 8.017551 | 2.0 | 17.248 | 2 | 43.387 | 17.408 | 33.342 | 2 |
| 2025-09-08T11:31:00 | 57.054153 | 8.016798 | 2.0 | 17.252 | 2 | 43.385 | 17.409 | 33.339 | 2 |
| 2025-09-08T11:32:00 | 57.053863 | 8.016080 | 2.0 | 17.265 | 2 | 43.392 | 17.415 | 33.340 | 2 |
| 2025-09-08T11:33:00 | 57.053549 | 8.015328 | 2.0 | 17.279 | 2 | 43.405 | 17.429 | 33.340 | 2 |
| 2025-09-08T11:34:00 | 57.053262 | 8.014595 | 2.0 | 17.276 | 2 | 43.405 | 17.436 | 33.334 | 2 |
| 2025-09-08T11:35:00 | 57.052970 | 8.013845 | 2.0 | 17.272 | 2 | 43.401 | 17.437 | 33.330 | 2 |
| 2025-09-08T11:36:00 | 57.052680 | 8.013101 | 2.0 | 17.259 | 2 | 43.398 | 17.429 | 33.334 | 2 |
| 2025-09-08T11:37:00 | 57.052274 | 8.012267 | 2.0 | 17.270 | 2 | 43.391 | 17.421 | 33.334 | 2 |
| 2025-09-08T11:38:00 | 57.051780 | 8.011403 | 2.0 | 17.268 | 2 | 43.399 | 17.429 | 33.335 | 2 |
| 2025-09-08T11:39:00 | 57.051267 | 8.010524 | 2.0 | 17.270 | 2 | 43.397 | 17.427 | 33.335 | 2 |
| 2025-09-08T11:40:00 | 57.050753 | 8.009645 | 2.0 | 17.273 | 2 | 43.400 | 17.432 | 33.333 | 2 |
| 2025-09-08T11:41:00 | 57.050250 | 8.008768 | 2.0 | 17.270 | 2 | 43.401 | 17.434 | 33.332 | 2 |
| 2025-09-08T11:42:00 | 57.049778 | 8.007897 | 2.0 | 17.272 | 2 | 43.400 | 17.434 | 33.331 | 2 |
| 2025-09-08T11:43:00 | 57.049399 | 8.007070 | 2.0 | 17.278 | 2 | 43.403 | 17.435 | 33.333 | 2 |
| 2025-09-08T11:44:00 | 57.049036 | 8.006270 | 2.0 | 17.274 | 2 | 43.408 | 17.437 | 33.336 | 2 |
| 2025-09-08T11:45:00 | 57.048697 | 8.005527 | 2.0 | 17.271 | 2 | 43.408 | 17.435 | 33.337 | 2 |
| 2025-09-08T11:46:00 | 57.048365 | 8.004758 | 2.0 | 17.297 | 2 | 43.413 | 17.437 | 33.340 | 2 |
| 2025-09-08T11:47:00 | 57.047996 | 8.003933 | 2.0 | 17.303 | 2 | 43.429 | 17.458 | 33.336 | 2 |
| 2025-09-08T11:48:00 | 57.047592 | 8.003076 | 2.0 | 17.302 | 2 | 43.433 | 17.463 | 33.336 | 2 |
| 2025-09-08T11:49:00 | 57.047181 | 8.002216 | 2.0 | 17.302 | 2 | 43.435 | 17.462 | 33.338 | 2 |
| 2025-09-08T11:50:00 | 57.046773 | 8.001355 | 2.0 | 17.315 | 2 | 43.435 | 17.462 | 33.338 | 2 |
| 2025-09-08T11:51:00 | 57.046364 | 8.000486 | 2.0 | 17.318 | 2 | 43.430 | 17.474 | 33.324 | 2 |
| 2025-09-08T11:52:00 | 57.045987 | 7.999647 | 2.0 | 17.331 | 2 | 43.418 | 17.482 | 33.307 | 2 |
| 2025-09-08T11:53:00 | 57.045617 | 7.998845 | 2.0 | 17.345 | 2 | 43.429 | 17.490 | 33.310 | 2 |
| 2025-09-08T11:54:00 | 57.045246 | 7.998050 | 2.0 | 17.349 | 2 | 43.448 | 17.504 | 33.315 | 2 |
| 2025-09-08T11:55:00 | 57.044838 | 7.997208 | 2.0 | 17.346 | 2 | 43.450 | 17.507 | 33.314 | 2 |
| 2025-09-08T11:56:00 | 57.044412 | 7.996353 | 2.0 | 17.344 | 2 | 43.444 | 17.506 | 33.310 | 2 |
| 2025-09-08T11:57:00 | 57.043970 | 7.995473 | 2.0 | 17.336 | 2 | 43.443 | 17.505 | 33.310 | 2 |
| 2025-09-08T11:58:00 | 57.043517 | 7.994596 | 2.0 | 17.307 | 2 | 43.434 | 17.487 | 33.317 | 2 |
| 2025-09-08T11:59:00 | 57.043085 | 7.993731 | 2.0 | 17.300 | 2 | 43.419 | 17.468 | 33.320 | 2 |
| 2025-09-08T12:00:00 | 57.042643 | 7.992900 | 2.0 | 17.313 | 2 | 43.419 | 17.461 | 33.325 | 2 |
| 2025-09-08T12:01:00 | 57.042187 | 7.992038 | 2.0 | 17.320 | 2 | 43.435 | 17.476 | 33.327 | 2 |
| 2025-09-08T12:02:00 | 57.041704 | 7.991178 | 2.0 | 17.324 | 2 | 43.443 | 17.480 | 33.330 | 2 |
| 2025-09-08T12:03:00 | 57.041236 | 7.990301 | 2.0 | 17.327 | 2 | 43.450 | 17.483 | 33.334 | 2 |
| 2025-09-08T12:04:00 | 57.040753 | 7.989411 | 2.0 | 17.330 | 2 | 43.454 | 17.486 | 33.335 | 2 |
| 2025-09-08T12:05:00 | 57.040294 | 7.988522 | 2.0 | 17.346 | 2 | 43.459 | 17.495 | 33.332 | 2 |
| 2025-09-08T12:06:00 | 57.039864 | 7.987639 | 2.0 | 17.361 | 2 | 43.467 | 17.508 | 33.328 | 2 |
| 2025-09-08T12:07:00 | 57.039479 | 7.986755 | 2.0 | 17.382 | 2 | 43.478 | 17.528 | 33.321 | 2 |
| 2025-09-08T12:08:00 | 57.039141 | 7.985926 | 2.0 | 17.381 | 2 | 43.485 | 17.540 | 33.317 | 2 |
| 2025-09-08T12:09:00 | 57.038831 | 7.985047 | 2.0 | 17.363 | 2 | 43.479 | 17.536 | 33.315 | 2 |
| 2025-09-08T12:10:00 | 57.038678 | 7.983865 | 2.0 | 17.377 | 2 | 43.464 | 17.527 | 33.310 | 2 |
| 2025-09-08T12:11:00 | 57.038767 | 7.982509 | 2.0 | 17.372 | 2 | 43.478 | 17.531 | 33.318 | 2 |
| 2025-09-08T12:12:00 | 57.039043 | 7.981158 | 2.0 | 17.380 | 2 | 43.493 | 17.539 | 33.325 | 2 |
| 2025-09-08T12:13:00 | 57.039529 | 7.980067 | 2.0 | 17.358 | 2 | 43.494 | 17.536 | 33.328 | 2 |
| 2025-09-08T12:14:00 | 57.040143 | 7.979237 | 2.0 | 17.373 | 2 | 43.481 | 17.519 | 33.331 | 2 |
| 2025-09-08T12:15:00 | 57.040771 | 7.978410 | 2.0 | 17.370 | 2 | 43.489 | 17.529 | 33.330 | 2 |
| 2025-09-08T12:16:00 | 57.041384 | 7.977640 | 2.0 | 17.337 | 2 | 43.502 | 17.531 | 33.339 | 2 |
| 2025-09-08T12:17:00 | 57.041968 | 7.976864 | 2.0 | 17.248 | 2 | 43.490 | 17.477 | 33.373 | 2 |
| 2025-09-08T12:18:00 | 57.042548 | 7.976128 | 2.0 | 17.209 | 2 | 43.441 | 17.394 | 33.400 | 2 |
| 2025-09-08T12:19:00 | 57.043117 | 7.975404 | 2.0 | 17.274 | 2 | 43.428 | 17.382 | 33.398 | 2 |
| 2025-09-08T12:20:00 | 57.043676 | 7.974691 | 2.0 | 17.294 | 2 | 43.467 | 17.435 | 33.388 | 2 |
| 2025-09-08T12:21:00 | 57.044239 | 7.973964 | 2.0 | 17.221 | 2 | 43.490 | 17.457 | 33.390 | 2 |
| 2025-09-08T12:22:00 | 57.044805 | 7.973241 | 2.0 | 17.173 | 2 | 43.446 | 17.367 | 33.426 | 2 |
| 2025-09-08T12:23:00 | 57.045370 | 7.972507 | 2.0 | 17.175 | 2 | 43.419 | 17.338 | 33.427 | 2 |
| 2025-09-08T12:24:00 | 57.045934 | 7.971803 | 2.0 | 17.166 | 2 | 43.423 | 17.337 | 33.431 | 2 |
| 2025-09-08T12:25:00 | 57.046479 | 7.971109 | 2.0 | 17.168 | 2 | 43.424 | 17.328 | 33.439 | 2 |
| 2025-09-08T12:26:00 | 57.047011 | 7.970418 | 2.0 | 17.228 | 2 | 43.433 | 17.346 | 33.432 | 2 |
| 2025-09-08T12:27:00 | 57.047548 | 7.969737 | 2.0 | 17.210 | 2 | 43.461 | 17.385 | 33.424 | 2 |
| 2025-09-08T12:28:00 | 57.048102 | 7.969033 | 2.0 | 17.218 | 2 | 43.454 | 17.368 | 33.432 | 2 |
| 2025-09-08T12:29:00 | 57.048665 | 7.968309 | 2.0 | 17.190 | 2 | 43.458 | 17.378 | 33.427 | 2 |
| 2025-09-08T12:30:00 | 57.049236 | 7.967625 | 2.0 | 17.232 | 2 | 43.442 | 17.350 | 33.437 | 2 |
| 2025-09-08T12:31:00 | 57.049800 | 7.966936 | 2.0 | 17.264 | 2 | 43.469 | 17.400 | 33.419 | 2 |
| 2025-09-08T12:32:00 | 57.050365 | 7.966234 | 2.0 | 17.284 | 2 | 43.494 | 17.425 | 33.419 | 2 |
| 2025-09-08T12:33:00 | 57.050941 | 7.965528 | 2.0 | 17.268 | 2 | 43.511 | 17.441 | 33.421 | 2 |
| 2025-09-08T12:34:00 | 57.051527 | 7.964815 | 2.0 | 17.261 | 2 | 43.509 | 17.427 | 33.431 | 2 |
| 2025-09-08T12:35:00 | 57.052127 | 7.964083 | 2.0 | 17.266 | 2 | 43.507 | 17.429 | 33.427 | 2 |
| 2025-09-08T12:36:00 | 57.052730 | 7.963344 | 2.0 | 17.250 | 2 | 43.502 | 17.421 | 33.430 | 2 |
| 2025-09-08T12:37:00 | 57.053330 | 7.962614 | 2.0 | 17.243 | 2 | 43.494 | 17.411 | 33.431 | 2 |
| 2025-09-08T12:38:00 | 57.053928 | 7.961885 | 2.0 | 17.229 | 2 | 43.485 | 17.398 | 33.434 | 2 |
| 2025-09-08T12:39:00 | 57.054533 | 7.961188 | 2.0 | 17.223 | 2 | 43.482 | 17.393 | 33.436 | 2 |
| 2025-09-08T12:40:00 | 57.055121 | 7.960479 | 2.0 | 17.210 | 2 | 43.478 | 17.377 | 33.445 | 2 |
| 2025-09-08T12:41:00 | 57.055691 | 7.959799 | 2.0 | 17.123 | 2 | 43.471 | 17.354 | 33.458 | 2 |
| 2025-09-08T12:42:00 | 57.056255 | 7.959115 | 2.0 | 17.132 | 2 | 43.443 | 17.293 | 33.485 | 2 |
| 2025-09-08T12:43:00 | 57.056822 | 7.958428 | 2.0 | 17.148 | 2 | 43.443 | 17.301 | 33.478 | 2 |
| 2025-09-08T12:44:00 | 57.057386 | 7.957736 | 2.0 | 17.152 | 2 | 43.441 | 17.285 | 33.490 | 2 |
| 2025-09-08T12:45:00 | 57.057939 | 7.957056 | 2.0 | 17.157 | 2 | 43.448 | 17.312 | 33.473 | 2 |
| 2025-09-08T12:46:00 | 57.058482 | 7.956410 | 2.0 | 17.169 | 2 | 43.455 | 17.318 | 33.474 | 2 |
| 2025-09-08T12:47:00 | 57.059016 | 7.955761 | 2.0 | 17.201 | 2 | 43.464 | 17.333 | 33.470 | 2 |
| 2025-09-08T12:48:00 | 57.059552 | 7.955112 | 2.0 | 17.166 | 2 | 43.482 | 17.357 | 33.465 | 2 |
| 2025-09-08T12:49:00 | 57.060082 | 7.954470 | 2.0 | 17.111 | 2 | 43.468 | 17.316 | 33.487 | 2 |
| 2025-09-08T12:50:00 | 57.060622 | 7.953826 | 2.0 | 17.069 | 2 | 43.439 | 17.251 | 33.516 | 2 |
| 2025-09-08T12:51:00 | 57.061164 | 7.953197 | 2.0 | 17.133 | 2 | 43.438 | 17.256 | 33.511 | 2 |
| 2025-09-08T12:52:00 | 57.061720 | 7.952554 | 2.0 | 17.086 | 2 | 43.454 | 17.271 | 33.512 | 2 |
| 2025-09-08T12:53:00 | 57.062291 | 7.951928 | 2.0 | 17.137 | 2 | 43.451 | 17.266 | 33.514 | 2 |
| 2025-09-08T12:54:00 | 57.062844 | 7.951279 | 2.0 | 17.110 | 2 | 43.473 | 17.290 | 33.513 | 2 |
| 2025-09-08T12:55:00 | 57.063392 | 7.950657 | 2.0 | 17.116 | 2 | 43.464 | 17.261 | 33.529 | 2 |
| 2025-09-08T12:56:00 | 57.063929 | 7.950047 | 2.0 | 17.082 | 2 | 43.468 | 17.261 | 33.533 | 2 |
| 2025-09-08T12:57:00 | 57.064467 | 7.949431 | 2.0 | 16.999 | 2 | 43.459 | 17.228 | 33.552 | 2 |
| 2025-09-08T12:58:00 | 57.065014 | 7.948841 | 2.0 | 17.037 | 2 | 43.434 | 17.177 | 33.573 | 2 |
| 2025-09-08T12:59:00 | 57.065561 | 7.948246 | 2.0 | 17.098 | 2 | 43.447 | 17.203 | 33.563 | 2 |
| 2025-09-08T13:00:00 | 57.066115 | 7.947612 | 2.0 | 16.918 | 2 | 43.472 | 17.228 | 33.564 | 2 |
| 2025-09-08T13:01:00 | 57.066676 | 7.946985 | 2.0 | 16.867 | 2 | 43.406 | 17.093 | 33.619 | 2 |
| 2025-09-08T13:02:00 | 57.067237 | 7.946358 | 2.0 | 16.795 | 2 | 43.373 | 17.008 | 33.661 | 2 |
| 2025-09-08T13:03:00 | 57.067789 | 7.945760 | 2.0 | 16.820 | 2 | 43.337 | 16.969 | 33.663 | 2 |
| 2025-09-08T13:04:00 | 57.068335 | 7.945150 | 2.0 | 16.780 | 2 | 43.359 | 16.978 | 33.674 | 2 |
| 2025-09-08T13:05:00 | 57.068877 | 7.944513 | 2.0 | 16.703 | 2 | 43.370 | 16.944 | 33.712 | 2 |
| 2025-09-08T13:06:00 | 57.069419 | 7.943889 | 2.0 | 16.628 | 2 | 43.329 | 16.849 | 33.757 | 2 |
| 2025-09-08T13:07:00 | 57.069944 | 7.943290 | 2.0 | 16.700 | 2 | 43.301 | 16.809 | 33.766 | 2 |
| 2025-09-08T13:08:00 | 57.070445 | 7.942734 | 2.0 | 16.711 | 2 | 43.334 | 16.860 | 33.752 | 2 |
| 2025-09-08T13:09:00 | 57.070941 | 7.942173 | 2.0 | 16.761 | 2 | 43.346 | 16.883 | 33.743 | 2 |
| 2025-09-08T13:10:00 | 57.071454 | 7.941605 | 2.0 | 16.765 | 2 | 43.377 | 16.931 | 33.729 | 2 |
| 2025-09-08T13:11:00 | 57.071974 | 7.941049 | 2.0 | 16.688 | 2 | 43.386 | 16.906 | 33.758 | 2 |
| 2025-09-08T13:12:00 | 57.072493 | 7.940482 | 2.0 | 16.707 | 2 | 43.368 | 16.866 | 33.776 | 2 |
| 2025-09-08T13:13:00 | 57.073002 | 7.939916 | 2.0 | 16.674 | 2 | 43.363 | 16.858 | 33.779 | 2 |
| 2025-09-08T13:14:00 | 57.073498 | 7.939375 | 2.0 | 16.722 | 2 | 43.353 | 16.851 | 33.776 | 2 |
| 2025-09-08T13:15:00 | 57.073987 | 7.938835 | 2.0 | 16.673 | 2 | 43.384 | 16.890 | 33.770 | 2 |
| 2025-09-08T13:16:00 | 57.074477 | 7.938242 | 2.0 | 16.537 | 2 | 43.336 | 16.819 | 33.788 | 2 |
| 2025-09-08T13:17:00 | 57.074960 | 7.937578 | 2.0 | 16.582 | 2 | 43.261 | 16.722 | 33.804 | 2 |
| 2025-09-08T13:18:00 | 57.075452 | 7.936946 | 2.0 | 16.550 | 2 | 43.283 | 16.751 | 33.799 | 2 |
| 2025-09-08T13:19:00 | 57.075928 | 7.936266 | 2.0 | 16.534 | 2 | 43.261 | 16.707 | 33.817 | 2 |
| 2025-09-08T13:20:00 | 57.076410 | 7.935622 | 2.0 | 16.466 | 2 | 43.252 | 16.694 | 33.820 | 2 |
| 2025-09-08T13:21:00 | 57.076891 | 7.935021 | 2.0 | 16.504 | 2 | 43.223 | 16.640 | 33.840 | 2 |
| 2025-09-08T13:22:00 | 57.077371 | 7.934530 | 2.0 | 16.578 | 2 | 43.246 | 16.684 | 33.823 | 2 |
| 2025-09-08T13:23:00 | 57.077849 | 7.933987 | 2.0 | 16.634 | 2 | 43.291 | 16.753 | 33.804 | 2 |
| 2025-09-08T13:24:00 | 57.078331 | 7.933452 | 2.0 | 16.661 | 2 | 43.323 | 16.798 | 33.794 | 2 |
| 2025-09-08T13:25:00 | 57.078809 | 7.932905 | 2.0 | 16.615 | 2 | 43.347 | 16.823 | 33.794 | 2 |
| 2025-09-08T13:26:00 | 57.079296 | 7.932265 | 2.0 | 16.523 | 2 | 43.313 | 16.762 | 33.816 | 2 |
| 2025-09-08T13:27:00 | 57.079799 | 7.931542 | 2.0 | 16.437 | 2 | 43.255 | 16.671 | 33.842 | 2 |
| 2025-09-08T13:28:00 | 57.080311 | 7.930818 | 2.0 | 16.420 | 2 | 43.218 | 16.604 | 33.866 | 2 |
| 2025-09-08T13:29:00 | 57.080834 | 7.930093 | 2.0 | 16.466 | 2 | 43.213 | 16.598 | 33.867 | 2 |
| 2025-09-08T13:30:00 | 57.081384 | 7.929371 | 2.0 | 16.568 | 2 | 43.239 | 16.643 | 33.852 | 2 |
| 2025-09-08T13:31:00 | 57.081941 | 7.928672 | 2.0 | 16.673 | 2 | 43.302 | 16.743 | 33.822 | 2 |
| 2025-09-08T13:32:00 | 57.082490 | 7.928034 | 2.0 | 16.714 | 2 | 43.378 | 16.840 | 33.807 | 2 |
| 2025-09-08T13:33:00 | 57.083028 | 7.927343 | 2.0 | 16.355 | 2 | 43.398 | 16.835 | 33.828 | 2 |
| 2025-09-08T13:34:00 | 57.083563 | 7.926644 | 2.0 | 16.440 | 2 | 43.237 | 16.570 | 33.912 | 2 |
| 2025-09-08T13:35:00 | 57.084088 | 7.925962 | 2.0 | 16.504 | 2 | 43.248 | 16.629 | 33.871 | 2 |
| 2025-09-08T13:36:00 | 57.084610 | 7.925307 | 2.0 | 16.446 | 2 | 43.273 | 16.657 | 33.870 | 2 |
| 2025-09-08T13:37:00 | 57.085138 | 7.924721 | 2.0 | 16.532 | 2 | 43.261 | 16.627 | 33.884 | 2 |
| 2025-09-08T13:38:00 | 57.085666 | 7.924141 | 2.0 | 16.618 | 2 | 43.313 | 16.722 | 33.850 | 2 |
| 2025-09-08T13:39:00 | 57.086202 | 7.923550 | 2.0 | 16.557 | 2 | 43.358 | 16.770 | 33.848 | 2 |
| 2025-09-08T13:40:00 | 57.086713 | 7.922921 | 2.0 | 16.381 | 2 | 43.316 | 16.670 | 33.896 | 2 |
| 2025-09-08T13:41:00 | 57.087217 | 7.922258 | 2.0 | 16.389 | 2 | 43.238 | 16.554 | 33.926 | 2 |
| 2025-09-08T13:42:00 | 57.087721 | 7.921609 | 2.0 | 16.398 | 2 | 43.246 | 16.568 | 33.921 | 2 |
| 2025-09-08T13:43:00 | 57.088231 | 7.920986 | 2.0 | 16.465 | 2 | 43.252 | 16.569 | 33.926 | 2 |
| 2025-09-08T13:44:00 | 57.088740 | 7.920375 | 2.0 | 16.595 | 2 | 43.287 | 16.643 | 33.894 | 2 |
| 2025-09-08T13:45:00 | 57.089228 | 7.919779 | 2.0 | 16.606 | 2 | 43.361 | 16.764 | 33.856 | 2 |
| 2025-09-08T13:46:00 | 57.089715 | 7.919190 | 2.0 | 16.611 | 2 | 43.377 | 16.765 | 33.869 | 2 |
| 2025-09-08T13:47:00 | 57.090220 | 7.918596 | 2.0 | 16.615 | 2 | 43.389 | 16.781 | 33.866 | 2 |
| 2025-09-08T13:48:00 | 57.090725 | 7.918000 | 2.0 | 16.583 | 2 | 43.394 | 16.776 | 33.875 | 2 |
| 2025-09-08T13:49:00 | 57.091232 | 7.917419 | 2.0 | 16.500 | 2 | 43.372 | 16.721 | 33.902 | 2 |
| 2025-09-08T13:50:00 | 57.091747 | 7.916828 | 2.0 | 16.579 | 2 | 43.335 | 16.671 | 33.912 | 2 |
| 2025-09-08T13:51:00 | 57.092266 | 7.916245 | 2.0 | 16.554 | 2 | 43.374 | 16.739 | 33.889 | 2 |
| 2025-09-08T13:52:00 | 57.092796 | 7.915674 | 2.0 | 16.540 | 2 | 43.366 | 16.714 | 33.903 | 2 |
| 2025-09-08T13:53:00 | 57.093336 | 7.915117 | 2.0 | 16.553 | 2 | 43.360 | 16.705 | 33.905 | 2 |
| 2025-09-08T13:54:00 | 57.093869 | 7.914569 | 2.0 | 16.574 | 2 | 43.372 | 16.723 | 33.900 | 2 |
| 2025-09-08T13:55:00 | 57.094398 | 7.914017 | 2.0 | 16.560 | 2 | 43.385 | 16.732 | 33.904 | 2 |
| 2025-09-08T13:56:00 | 57.094920 | 7.913480 | 2.0 | 16.572 | 2 | 43.385 | 16.728 | 33.907 | 2 |
| 2025-09-08T13:57:00 | 57.095440 | 7.912960 | 2.0 | 16.601 | 2 | 43.394 | 16.740 | 33.905 | 2 |
| 2025-09-08T13:58:00 | 57.095952 | 7.912424 | 2.0 | 16.592 | 2 | 43.414 | 16.768 | 33.899 | 2 |
| 2025-09-08T13:59:00 | 57.096477 | 7.911903 | 2.0 | 16.619 | 2 | 43.418 | 16.756 | 33.913 | 2 |
| 2025-09-08T14:00:00 | 57.097010 | 7.911385 | 2.0 | 16.517 | 2 | 43.435 | 16.776 | 33.911 | 2 |
| 2025-09-08T14:01:00 | 57.097549 | 7.910832 | 2.0 | 16.479 | 2 | 43.405 | 16.693 | 33.955 | 2 |
| 2025-09-08T14:02:00 | 57.098059 | 7.910279 | 2.0 | 16.291 | 2 | 43.350 | 16.589 | 33.995 | 2 |
| 2025-09-08T14:03:00 | 57.098539 | 7.909715 | 2.0 | 16.322 | 2 | 43.268 | 16.474 | 34.021 | 2 |
| 2025-09-08T14:04:00 | 57.098993 | 7.909200 | 2.0 | 16.330 | 2 | 43.274 | 16.492 | 34.011 | 2 |
| 2025-09-08T14:05:00 | 57.099426 | 7.908733 | 2.0 | 16.347 | 2 | 43.284 | 16.501 | 34.012 | 2 |
| 2025-09-08T14:06:00 | 57.099844 | 7.908266 | 2.0 | 16.406 | 2 | 43.301 | 16.520 | 34.010 | 2 |
| 2025-09-08T14:07:00 | 57.100263 | 7.907823 | 2.0 | 16.400 | 2 | 43.343 | 16.578 | 33.998 | 2 |
| 2025-09-08T14:08:00 | 57.100670 | 7.907371 | 2.0 | 16.362 | 2 | 43.337 | 16.555 | 34.012 | 2 |
| 2025-09-08T14:09:00 | 57.101072 | 7.906955 | 2.0 | 16.401 | 2 | 43.324 | 16.540 | 34.014 | 2 |
| 2025-09-08T14:10:00 | 57.101462 | 7.906549 | 2.0 | 16.422 | 2 | 43.350 | 16.574 | 34.007 | 2 |
| 2025-09-08T14:11:00 | 57.101865 | 7.906186 | 2.0 | 16.409 | 2 | 43.355 | 16.579 | 34.008 | 2 |
| 2025-09-08T14:12:00 | 57.102265 | 7.905819 | 2.0 | 16.425 | 2 | 43.359 | 16.576 | 34.014 | 2 |
| 2025-09-08T14:13:00 | 57.102676 | 7.905442 | 2.0 | 16.470 | 2 | 43.383 | 16.605 | 34.010 | 2 |
| 2025-09-08T14:14:00 | 57.103080 | 7.905048 | 2.0 | 16.459 | 2 | 43.403 | 16.620 | 34.015 | 2 |
| 2025-09-08T14:15:00 | 57.103501 | 7.904640 | 2.0 | 16.481 | 2 | 43.410 | 16.635 | 34.008 | 2 |
| 2025-09-08T14:16:00 | 57.103930 | 7.904211 | 2.0 | 16.390 | 2 | 43.413 | 16.623 | 34.021 | 2 |
| 2025-09-08T14:17:00 | 57.104342 | 7.903767 | 2.0 | 16.385 | 2 | 43.364 | 16.554 | 34.037 | 2 |
| 2025-09-08T14:18:00 | 57.104746 | 7.903336 | 2.0 | 16.449 | 2 | 43.362 | 16.565 | 34.026 | 2 |
| 2025-09-08T14:19:00 | 57.105143 | 7.902912 | 2.0 | 16.446 | 2 | 43.409 | 16.620 | 34.020 | 2 |
| 2025-09-08T14:20:00 | 57.105528 | 7.902468 | 2.0 | 16.435 | 2 | 43.400 | 16.602 | 34.028 | 2 |
| 2025-09-08T14:21:00 | 57.105909 | 7.902057 | 2.0 | 16.451 | 2 | 43.399 | 16.604 | 34.025 | 2 |
| 2025-09-08T14:22:00 | 57.106300 | 7.901669 | 2.0 | 16.489 | 2 | 43.416 | 16.623 | 34.024 | 2 |
| 2025-09-08T14:23:00 | 57.106702 | 7.901263 | 2.0 | 16.504 | 2 | 43.448 | 16.657 | 34.023 | 2 |
| 2025-09-08T14:24:00 | 57.107103 | 7.900825 | 2.0 | 16.461 | 2 | 43.460 | 16.662 | 34.029 | 2 |
| 2025-09-08T14:25:00 | 57.107512 | 7.900400 | 2.0 | 16.466 | 2 | 43.432 | 16.624 | 34.037 | 2 |
| 2025-09-08T14:26:00 | 57.107924 | 7.899982 | 2.0 | 16.481 | 2 | 43.436 | 16.632 | 34.034 | 2 |
| 2025-09-08T14:27:00 | 57.108337 | 7.899577 | 2.0 | 16.519 | 2 | 43.450 | 16.652 | 34.029 | 2 |
| 2025-09-08T14:28:00 | 57.108770 | 7.899183 | 2.0 | 16.478 | 2 | 43.479 | 16.676 | 34.034 | 2 |
| 2025-09-08T14:29:00 | 57.109204 | 7.898740 | 2.0 | 16.461 | 2 | 43.469 | 16.637 | 34.058 | 2 |
| 2025-09-08T14:30:00 | 57.109629 | 7.898293 | 2.0 | 16.463 | 2 | 43.464 | 16.625 | 34.064 | 2 |
| 2025-09-08T14:31:00 | 57.110047 | 7.897861 | 2.0 | 16.473 | 2 | 43.473 | 16.632 | 34.066 | 2 |
| 2025-09-08T14:32:00 | 57.110458 | 7.897440 | 2.0 | 16.482 | 2 | 43.474 | 16.632 | 34.067 | 2 |
| 2025-09-08T14:33:00 | 57.110881 | 7.897039 | 2.0 | 16.519 | 2 | 43.481 | 16.654 | 34.054 | 2 |
| 2025-09-08T14:34:00 | 57.111312 | 7.896614 | 2.0 | 16.517 | 2 | 43.501 | 16.684 | 34.046 | 2 |
| 2025-09-08T14:35:00 | 57.111741 | 7.896175 | 2.0 | 16.508 | 2 | 43.504 | 16.675 | 34.057 | 2 |
| 2025-09-08T14:36:00 | 57.112175 | 7.895680 | 2.0 | 16.512 | 2 | 43.490 | 16.679 | 34.041 | 2 |
| 2025-09-08T14:37:00 | 57.112610 | 7.895183 | 2.0 | 16.468 | 2 | 43.477 | 16.659 | 34.046 | 2 |
| 2025-09-08T14:38:00 | 57.113049 | 7.894656 | 2.0 | 16.484 | 2 | 43.403 | 16.635 | 34.002 | 2 |
| 2025-09-08T14:39:00 | 57.113495 | 7.894181 | 2.0 | 16.533 | 2 | 43.445 | 16.657 | 34.020 | 2 |
| 2025-09-08T14:40:00 | 57.113917 | 7.893728 | 2.0 | 16.519 | 2 | 43.462 | 16.698 | 34.000 | 2 |
| 2025-09-08T14:41:00 | 57.114334 | 7.893276 | 2.0 | 16.516 | 2 | 43.462 | 16.678 | 34.017 | 2 |
| 2025-09-08T14:42:00 | 57.114751 | 7.892833 | 2.0 | 16.522 | 2 | 43.499 | 16.681 | 34.047 | 2 |
| 2025-09-08T14:43:00 | 57.115165 | 7.892370 | 2.0 | 16.581 | 2 | 43.501 | 16.701 | 34.032 | 2 |
| 2025-09-08T14:44:00 | 57.115578 | 7.891901 | 2.0 | 16.574 | 2 | 43.516 | 16.743 | 34.009 | 2 |
| 2025-09-08T14:45:00 | 57.116007 | 7.891463 | 2.0 | 16.550 | 2 | 43.556 | 16.733 | 34.053 | 2 |
| 2025-09-08T14:46:00 | 57.116441 | 7.891011 | 2.0 | 16.576 | 2 | 43.567 | 16.717 | 34.076 | 2 |
| 2025-09-08T14:47:00 | 57.116891 | 7.890569 | 2.0 | 16.595 | 2 | 43.604 | 16.742 | 34.087 | 2 |
| 2025-09-08T14:48:00 | 57.117329 | 7.890084 | 2.0 | 16.573 | 2 | 43.628 | 16.753 | 34.099 | 2 |
| 2025-09-08T14:49:00 | 57.117776 | 7.889634 | 2.0 | 16.546 | 2 | 43.621 | 16.734 | 34.109 | 2 |
| 2025-09-08T14:50:00 | 57.118214 | 7.889195 | 2.0 | 16.568 | 2 | 43.620 | 16.714 | 34.125 | 2 |
| 2025-09-08T14:51:00 | 57.118651 | 7.888775 | 2.0 | 16.570 | 2 | 43.643 | 16.735 | 34.127 | 2 |
| 2025-09-08T14:52:00 | 57.119097 | 7.888348 | 2.0 | 16.584 | 2 | 43.675 | 16.739 | 34.152 | 2 |
| 2025-09-08T14:53:00 | 57.119582 | 7.887909 | 2.0 | 16.580 | 2 | 43.678 | 16.749 | 34.146 | 2 |
| 2025-09-08T14:54:00 | 57.120062 | 7.887474 | 2.0 | 16.582 | 2 | 43.683 | 16.748 | 34.151 | 2 |
| 2025-09-08T14:55:00 | 57.120552 | 7.887045 | 2.0 | 16.586 | 2 | 43.683 | 16.744 | 34.154 | 2 |
| 2025-09-08T14:56:00 | 57.121052 | 7.886580 | 2.0 | 16.596 | 2 | 43.692 | 16.756 | 34.152 | 2 |
| 2025-09-08T14:57:00 | 57.121545 | 7.886115 | 2.0 | 16.582 | 2 | 43.708 | 16.755 | 34.167 | 2 |
| 2025-09-08T14:58:00 | 57.122053 | 7.885661 | 2.0 | 16.616 | 2 | 43.705 | 16.751 | 34.168 | 2 |
| 2025-09-08T14:59:00 | 57.122566 | 7.885205 | 2.0 | 16.598 | 2 | 43.728 | 16.774 | 34.168 | 2 |
| 2025-09-08T15:00:00 | 57.123061 | 7.884737 | 2.0 | 16.597 | 2 | 43.723 | 16.760 | 34.176 | 2 |
| 2025-09-08T15:01:00 | 57.123554 | 7.884313 | 2.0 | 16.588 | 2 | 43.727 | 16.759 | 34.180 | 2 |
| 2025-09-08T15:02:00 | 57.124031 | 7.883857 | 2.0 | 16.599 | 2 | 43.728 | 16.758 | 34.182 | 2 |
| 2025-09-08T15:03:00 | 57.124516 | 7.883415 | 2.0 | 16.611 | 2 | 43.730 | 16.764 | 34.179 | 2 |
| 2025-09-08T15:04:00 | 57.124990 | 7.882954 | 2.0 | 16.620 | 2 | 43.743 | 16.779 | 34.177 | 2 |
| 2025-09-08T15:05:00 | 57.125483 | 7.882468 | 2.0 | 16.634 | 2 | 43.757 | 16.787 | 34.183 | 2 |
| 2025-09-08T15:06:00 | 57.126061 | 7.881975 | 2.0 | 16.639 | 2 | 43.774 | 16.795 | 34.191 | 2 |
| 2025-09-08T15:07:00 | 57.126728 | 7.881670 | 2.0 | 16.635 | 2 | 43.786 | 16.800 | 34.197 | 2 |
| 2025-09-08T15:08:00 | 57.127382 | 7.881774 | 2.0 | 16.639 | 2 | 43.787 | 16.799 | 34.198 | 2 |
| 2025-09-08T15:09:00 | 57.127973 | 7.882225 | 2.0 | 16.639 | 2 | 43.792 | 16.802 | 34.200 | 2 |
| 2025-09-08T15:10:00 | 57.128447 | 7.882954 | 2.0 | 16.637 | 2 | 43.791 | 16.799 | 34.202 | 2 |
| 2025-09-08T15:11:00 | 57.128831 | 7.883796 | 2.0 | 16.636 | 2 | 43.790 | 16.800 | 34.200 | 2 |
| 2025-09-08T15:12:00 | 57.129077 | 7.884703 | 2.0 | 16.639 | 2 | 43.786 | 16.799 | 34.198 | 2 |
| 2025-09-08T15:13:00 | 57.129205 | 7.885613 | 2.0 | 16.639 | 2 | 43.781 | 16.800 | 34.192 | 2 |
| 2025-09-08T15:14:00 | 57.129219 | 7.886469 | 2.0 | 16.637 | 2 | 43.780 | 16.801 | 34.191 | 2 |
| 2025-09-08T15:15:00 | 57.129148 | 7.887193 | 2.0 | 16.617 | 2 | 43.772 | 16.796 | 34.188 | 2 |
| 2025-09-08T15:16:00 | 57.129060 | 7.887710 | 2.0 | 16.601 | 2 | 43.749 | 16.779 | 34.182 | 2 |
| 2025-09-08T15:17:00 | 57.128853 | 7.888109 | 2.0 | 16.583 | 2 | 43.726 | 16.760 | 34.178 | 2 |
| 2025-09-08T15:18:00 | 57.128520 | 7.888521 | 2.0 | 16.599 | 2 | 43.712 | 16.747 | 34.177 | 2 |
| 2025-09-08T15:19:00 | 57.128117 | 7.889000 | 2.0 | 16.595 | 2 | 43.719 | 16.763 | 34.170 | 2 |
| 2025-09-08T15:20:00 | 57.127633 | 7.889564 | 2.0 | 16.595 | 2 | 43.714 | 16.757 | 34.170 | 2 |
| 2025-09-08T15:21:00 | 57.127078 | 7.890217 | 2.0 | 16.594 | 2 | 43.713 | 16.757 | 34.170 | 2 |
| 2025-09-08T15:22:00 | 57.126497 | 7.890913 | 2.0 | 16.587 | 2 | 43.712 | 16.757 | 34.169 | 2 |
| 2025-09-08T15:23:00 | 57.125859 | 7.891626 | 2.0 | 16.616 | 2 | 43.709 | 16.754 | 34.169 | 2 |
| 2025-09-08T15:24:00 | 57.125187 | 7.892382 | 2.0 | 16.601 | 2 | 43.719 | 16.771 | 34.163 | 2 |
| 2025-09-08T15:25:00 | 57.124541 | 7.893134 | 2.0 | 16.632 | 2 | 43.712 | 16.768 | 34.159 | 2 |
| 2025-09-08T15:26:00 | 57.123872 | 7.893872 | 2.0 | 16.626 | 2 | 43.723 | 16.791 | 34.149 | 2 |
| 2025-09-08T15:27:00 | 57.123198 | 7.894653 | 2.0 | 16.647 | 2 | 43.724 | 16.794 | 34.148 | 2 |
| 2025-09-08T15:28:00 | 57.122516 | 7.895448 | 2.0 | 16.621 | 2 | 43.727 | 16.806 | 34.140 | 2 |
| 2025-09-08T15:29:00 | 57.121856 | 7.896236 | 2.0 | 16.575 | 2 | 43.694 | 16.770 | 34.142 | 2 |
| 2025-09-08T15:30:00 | 57.121183 | 7.897020 | 2.0 | 16.603 | 2 | 43.669 | 16.755 | 34.133 | 2 |
| 2025-09-08T15:31:00 | 57.120490 | 7.897817 | 2.0 | 16.559 | 2 | 43.665 | 16.754 | 34.130 | 2 |
| 2025-09-08T15:32:00 | 57.119792 | 7.898617 | 2.0 | 16.577 | 2 | 43.644 | 16.726 | 34.136 | 2 |
| 2025-09-08T15:33:00 | 57.119068 | 7.899409 | 2.0 | 16.583 | 2 | 43.645 | 16.743 | 34.122 | 2 |
| 2025-09-08T15:34:00 | 57.118447 | 7.900193 | 2.0 | 16.572 | 2 | 43.630 | 16.742 | 34.110 | 2 |
| 2025-09-08T15:35:00 | 57.117897 | 7.900818 | 2.0 | 16.524 | 2 | 43.616 | 16.729 | 34.109 | 2 |
| 2025-09-08T15:36:00 | 57.117431 | 7.901388 | 2.0 | 16.541 | 2 | 43.588 | 16.688 | 34.119 | 2 |
| 2025-09-08T15:37:00 | 57.116988 | 7.901983 | 2.0 | 16.536 | 2 | 43.565 | 16.702 | 34.087 | 2 |
| 2025-09-08T15:38:00 | 57.116587 | 7.902610 | 2.0 | 16.518 | 2 | 43.527 | 16.693 | 34.061 | 2 |
| 2025-09-08T15:39:00 | 57.116122 | 7.903205 | 2.0 | 16.508 | 2 | 43.518 | 16.681 | 34.064 | 2 |
| 2025-09-08T15:40:00 | 57.115612 | 7.903869 | 2.0 | 16.507 | 2 | 43.508 | 16.671 | 34.063 | 2 |
| 2025-09-08T15:41:00 | 57.115048 | 7.904591 | 2.0 | 16.495 | 2 | 43.506 | 16.677 | 34.057 | 2 |
| 2025-09-08T15:42:00 | 57.114455 | 7.905309 | 2.0 | 16.504 | 2 | 43.497 | 16.660 | 34.063 | 2 |
| 2025-09-08T15:43:00 | 57.113852 | 7.906033 | 2.0 | 16.497 | 2 | 43.491 | 16.666 | 34.053 | 2 |
| 2025-09-08T15:44:00 | 57.113260 | 7.906763 | 2.0 | 16.499 | 2 | 43.477 | 16.658 | 34.047 | 2 |
| 2025-09-08T15:45:00 | 57.112675 | 7.907472 | 2.0 | 16.464 | 2 | 43.468 | 16.660 | 34.038 | 2 |
| 2025-09-08T15:46:00 | 57.112129 | 7.908150 | 2.0 | 16.466 | 2 | 43.443 | 16.632 | 34.040 | 2 |
| 2025-09-08T15:47:00 | 57.111602 | 7.908802 | 2.0 | 16.481 | 2 | 43.435 | 16.631 | 34.034 | 2 |
| 2025-09-08T15:48:00 | 57.111072 | 7.909454 | 2.0 | 16.474 | 2 | 43.440 | 16.643 | 34.028 | 2 |
| 2025-09-08T15:49:00 | 57.110539 | 7.910090 | 2.0 | 16.461 | 2 | 43.436 | 16.637 | 34.029 | 2 |
| 2025-09-08T15:50:00 | 57.109982 | 7.910737 | 2.0 | 16.461 | 2 | 43.425 | 16.623 | 34.032 | 2 |
| 2025-09-08T15:51:00 | 57.109404 | 7.911399 | 2.0 | 16.452 | 2 | 43.426 | 16.624 | 34.032 | 2 |
| 2025-09-08T15:52:00 | 57.108821 | 7.912048 | 2.0 | 16.441 | 2 | 43.422 | 16.617 | 34.034 | 2 |
| 2025-09-08T15:53:00 | 57.108238 | 7.912698 | 2.0 | 16.454 | 2 | 43.411 | 16.602 | 34.037 | 2 |
| 2025-09-08T15:54:00 | 57.107679 | 7.913312 | 2.0 | 16.443 | 2 | 43.410 | 16.614 | 34.026 | 2 |
| 2025-09-08T15:55:00 | 57.107117 | 7.913889 | 2.0 | 16.453 | 2 | 43.399 | 16.600 | 34.028 | 2 |
| 2025-09-08T15:56:00 | 57.106565 | 7.914458 | 2.0 | 16.448 | 2 | 43.401 | 16.615 | 34.017 | 2 |
| 2025-09-08T15:57:00 | 57.106007 | 7.915026 | 2.0 | 16.472 | 2 | 43.398 | 16.619 | 34.011 | 2 |
| 2025-09-08T15:58:00 | 57.105483 | 7.915599 | 2.0 | 16.526 | 2 | 43.408 | 16.648 | 33.995 | 2 |
| 2025-09-08T15:59:00 | 57.104987 | 7.916108 | 2.0 | 16.518 | 2 | 43.424 | 16.682 | 33.981 | 2 |
| 2025-09-08T16:00:00 | 57.104469 | 7.916602 | 2.0 | 16.562 | 2 | 43.426 | 16.691 | 33.975 | 2 |
| 2025-09-08T16:01:00 | 57.103933 | 7.917130 | 2.0 | 16.609 | 2 | 43.443 | 16.735 | 33.952 | 2 |
| 2025-09-08T16:02:00 | 57.103466 | 7.917689 | 2.0 | 16.627 | 2 | 43.455 | 16.768 | 33.935 | 2 |
| 2025-09-08T16:03:00 | 57.103018 | 7.918190 | 2.0 | 16.616 | 2 | 43.458 | 16.781 | 33.926 | 2 |
| 2025-09-08T16:04:00 | 57.102604 | 7.918660 | 2.0 | 16.629 | 2 | 43.455 | 16.782 | 33.923 | 2 |
| 2025-09-08T16:05:00 | 57.102217 | 7.919082 | 2.0 | 16.632 | 2 | 43.455 | 16.788 | 33.918 | 2 |
| 2025-09-08T16:06:00 | 57.101833 | 7.919521 | 2.0 | 16.634 | 2 | 43.456 | 16.797 | 33.911 | 2 |
| 2025-09-08T16:07:00 | 57.101383 | 7.919968 | 2.0 | 16.657 | 2 | 43.453 | 16.795 | 33.910 | 2 |
| 2025-09-08T16:08:00 | 57.100914 | 7.920448 | 2.0 | 16.675 | 2 | 43.465 | 16.824 | 33.896 | 2 |
| 2025-09-08T16:09:00 | 57.100426 | 7.920920 | 2.0 | 16.638 | 2 | 43.466 | 16.828 | 33.894 | 2 |
| 2025-09-08T16:10:00 | 57.099901 | 7.921409 | 2.0 | 16.634 | 2 | 43.446 | 16.798 | 33.902 | 2 |
| 2025-09-08T16:11:00 | 57.099373 | 7.921904 | 2.0 | 16.642 | 2 | 43.435 | 16.802 | 33.889 | 2 |
| 2025-09-08T16:12:00 | 57.098824 | 7.922398 | 2.0 | 16.625 | 2 | 43.426 | 16.801 | 33.882 | 2 |
| 2025-09-08T16:13:00 | 57.098268 | 7.922936 | 2.0 | 16.647 | 2 | 43.421 | 16.806 | 33.873 | 2 |
| 2025-09-08T16:14:00 | 57.097685 | 7.923488 | 2.0 | 16.582 | 2 | 43.412 | 16.793 | 33.876 | 2 |
| 2025-09-08T16:15:00 | 57.097075 | 7.924020 | 2.0 | 16.596 | 2 | 43.382 | 16.750 | 33.886 | 2 |
| 2025-09-08T16:16:00 | 57.096478 | 7.924571 | 2.0 | 16.587 | 2 | 43.383 | 16.758 | 33.880 | 2 |
| 2025-09-08T16:17:00 | 57.095881 | 7.925118 | 2.0 | 16.623 | 2 | 43.376 | 16.748 | 33.883 | 2 |
| 2025-09-08T16:18:00 | 57.095298 | 7.925687 | 2.0 | 16.653 | 2 | 43.402 | 16.800 | 33.861 | 2 |
| 2025-09-08T16:19:00 | 57.094708 | 7.926259 | 2.0 | 16.657 | 2 | 43.411 | 16.815 | 33.857 | 2 |
| 2025-09-08T16:20:00 | 57.094130 | 7.926843 | 2.0 | 16.628 | 2 | 43.411 | 16.816 | 33.856 | 2 |
| 2025-09-08T16:21:00 | 57.093526 | 7.927412 | 2.0 | 16.632 | 2 | 43.390 | 16.790 | 33.859 | 2 |
| 2025-09-08T16:22:00 | 57.092895 | 7.927988 | 2.0 | 16.633 | 2 | 43.388 | 16.792 | 33.856 | 2 |
| 2025-09-08T16:23:00 | 57.092340 | 7.928553 | 2.0 | 16.643 | 2 | 43.387 | 16.797 | 33.851 | 2 |
| 2025-09-08T16:24:00 | 57.091875 | 7.929090 | 2.0 | 16.620 | 2 | 43.384 | 16.801 | 33.845 | 2 |
| 2025-09-08T16:25:00 | 57.091549 | 7.929542 | 2.0 | 16.602 | 2 | 43.367 | 16.780 | 33.848 | 2 |
| 2025-09-08T16:26:00 | 57.091299 | 7.929875 | 2.0 | 16.575 | 2 | 43.353 | 16.762 | 33.851 | 2 |
| 2025-09-08T16:27:00 | 57.091126 | 7.930139 | 2.0 | 16.571 | 2 | 43.331 | 16.740 | 33.850 | 2 |
| 2025-09-08T16:28:00 | 57.090973 | 7.930341 | 2.0 | 16.564 | 2 | 43.325 | 16.733 | 33.851 | 2 |
| 2025-09-08T16:29:00 | 57.090807 | 7.930540 | 2.0 | 16.562 | 2 | 43.319 | 16.727 | 33.851 | 2 |
| 2025-09-08T16:30:00 | 57.090660 | 7.930764 | 2.0 | 16.564 | 2 | 43.319 | 16.725 | 33.852 | 2 |
| 2025-09-08T16:31:00 | 57.090505 | 7.930969 | 2.0 | 16.567 | 2 | 43.320 | 16.727 | 33.851 | 2 |
| 2025-09-08T16:32:00 | 57.090316 | 7.931203 | 2.0 | 16.582 | 2 | 43.319 | 16.732 | 33.846 | 2 |
| 2025-09-08T16:33:00 | 57.090076 | 7.931496 | 2.0 | 16.577 | 2 | 43.321 | 16.746 | 33.836 | 2 |
| 2025-09-08T16:34:00 | 57.089787 | 7.931835 | 2.0 | 16.579 | 2 | 43.318 | 16.739 | 33.840 | 2 |
| 2025-09-08T16:35:00 | 57.089480 | 7.932228 | 2.0 | 16.596 | 2 | 43.315 | 16.747 | 33.830 | 2 |
| 2025-09-08T16:36:00 | 57.089189 | 7.932614 | 2.0 | 16.651 | 2 | 43.313 | 16.759 | 33.818 | 2 |
| 2025-09-08T16:37:00 | 57.088937 | 7.932996 | 2.0 | 16.768 | 2 | 43.342 | 16.830 | 33.784 | 2 |
| 2025-09-08T16:38:00 | 57.088742 | 7.933369 | 2.0 | 16.754 | 2 | 43.404 | 16.920 | 33.762 | 2 |
| 2025-09-08T16:39:00 | 57.088594 | 7.933731 | 2.0 | 16.817 | 2 | 43.405 | 16.916 | 33.766 | 2 |
| 2025-09-08T16:40:00 | 57.088460 | 7.934052 | 2.0 | 16.969 | 2 | 43.437 | 16.991 | 33.731 | 2 |
| 2025-09-08T16:41:00 | 57.088339 | 7.934433 | 2.0 | 16.980 | 2 | 43.484 | 17.121 | 33.663 | 2 |
| 2025-09-08T16:42:00 | 57.088220 | 7.934821 | 2.0 | 16.991 | 2 | 43.491 | 17.136 | 33.657 | 2 |
| 2025-09-08T16:43:00 | 57.088115 | 7.935201 | 2.0 | 16.987 | 2 | 43.488 | 17.146 | 33.646 | 2 |
| 2025-09-08T16:44:00 | 57.087989 | 7.935519 | 2.0 | 16.972 | 2 | 43.478 | 17.140 | 33.642 | 2 |
| 2025-09-08T16:45:00 | 57.087865 | 7.935869 | 2.0 | 16.959 | 2 | 43.470 | 17.127 | 33.646 | 2 |
| 2025-09-08T16:46:00 | 57.087749 | 7.936207 | 2.0 | 16.963 | 2 | 43.462 | 17.121 | 33.644 | 2 |
| 2025-09-08T16:47:00 | 57.087621 | 7.936547 | 2.0 | 16.955 | 2 | 43.458 | 17.120 | 33.642 | 2 |
| 2025-09-08T16:48:00 | 57.087496 | 7.936909 | 2.0 | 16.960 | 2 | 43.448 | 17.116 | 33.636 | 2 |
| 2025-09-08T16:49:00 | 57.087370 | 7.937290 | 2.0 | 16.965 | 2 | 43.443 | 17.121 | 33.628 | 2 |
| 2025-09-08T16:50:00 | 57.087185 | 7.937707 | 2.0 | 16.958 | 2 | 43.443 | 17.123 | 33.626 | 2 |
| 2025-09-08T16:51:00 | 57.086955 | 7.938179 | 2.0 | 16.945 | 2 | 43.440 | 17.116 | 33.629 | 2 |
| 2025-09-08T16:52:00 | 57.086708 | 7.938694 | 2.0 | 16.937 | 2 | 43.434 | 17.104 | 33.634 | 2 |
| 2025-09-08T16:53:00 | 57.086438 | 7.939229 | 2.0 | 16.923 | 2 | 43.428 | 17.095 | 33.636 | 2 |
| 2025-09-08T16:54:00 | 57.086179 | 7.939767 | 2.0 | 16.914 | 2 | 43.422 | 17.083 | 33.641 | 2 |
| 2025-09-08T16:55:00 | 57.085917 | 7.940252 | 2.0 | 16.898 | 2 | 43.414 | 17.073 | 33.643 | 2 |
| 2025-09-08T16:56:00 | 57.085604 | 7.940647 | 2.0 | 16.874 | 2 | 43.404 | 17.056 | 33.648 | 2 |
| 2025-09-08T16:57:00 | 57.085278 | 7.941012 | 2.0 | 16.862 | 2 | 43.393 | 17.034 | 33.657 | 2 |
| 2025-09-08T16:58:00 | 57.084975 | 7.941326 | 2.0 | 16.854 | 2 | 43.381 | 17.020 | 33.658 | 2 |
| 2025-09-08T16:59:00 | 57.084643 | 7.941636 | 2.0 | 16.873 | 2 | 43.371 | 17.017 | 33.652 | 2 |
| 2025-09-08T17:00:00 | 57.084265 | 7.941958 | 2.0 | 16.892 | 2 | 43.374 | 17.040 | 33.636 | 2 |
| 2025-09-08T17:01:00 | 57.083869 | 7.942313 | 2.0 | 16.891 | 2 | 43.378 | 17.046 | 33.634 | 2 |
| 2025-09-08T17:02:00 | 57.083483 | 7.942681 | 2.0 | 16.954 | 2 | 43.385 | 17.066 | 33.623 | 2 |
| 2025-09-08T17:03:00 | 57.083093 | 7.943083 | 2.0 | 16.990 | 2 | 43.419 | 17.121 | 33.607 | 2 |
| 2025-09-08T17:04:00 | 57.082718 | 7.943484 | 2.0 | 16.978 | 2 | 43.435 | 17.140 | 33.605 | 2 |
| 2025-09-08T17:05:00 | 57.082347 | 7.943890 | 2.0 | 16.963 | 2 | 43.431 | 17.133 | 33.607 | 2 |
| 2025-09-08T17:06:00 | 57.081980 | 7.944297 | 2.0 | 16.987 | 2 | 43.423 | 17.123 | 33.609 | 2 |
| 2025-09-08T17:07:00 | 57.081615 | 7.944687 | 2.0 | 17.021 | 2 | 43.432 | 17.147 | 33.597 | 2 |
| 2025-09-08T17:08:00 | 57.081252 | 7.945066 | 2.0 | 17.025 | 2 | 43.451 | 17.179 | 33.586 | 2 |
| 2025-09-08T17:09:00 | 57.080914 | 7.945458 | 2.0 | 17.024 | 2 | 43.456 | 17.183 | 33.587 | 2 |
| 2025-09-08T17:10:00 | 57.080569 | 7.945825 | 2.0 | 17.013 | 2 | 43.456 | 17.183 | 33.587 | 2 |
| 2025-09-08T17:11:00 | 57.080211 | 7.946212 | 2.0 | 16.991 | 2 | 43.450 | 17.171 | 33.592 | 2 |
| 2025-09-08T17:12:00 | 57.079870 | 7.946588 | 2.0 | 16.981 | 2 | 43.433 | 17.151 | 33.594 | 2 |
| 2025-09-08T17:13:00 | 57.079503 | 7.946933 | 2.0 | 16.965 | 2 | 43.422 | 17.139 | 33.595 | 2 |
| 2025-09-08T17:14:00 | 57.079176 | 7.947301 | 2.0 | 16.954 | 2 | 43.416 | 17.126 | 33.600 | 2 |
| 2025-09-08T17:15:00 | 57.078861 | 7.947645 | 2.0 | 16.978 | 2 | 43.410 | 17.111 | 33.607 | 2 |
| 2025-09-08T17:16:00 | 57.078545 | 7.947954 | 2.0 | 17.003 | 2 | 43.431 | 17.147 | 33.596 | 2 |
| 2025-09-08T17:17:00 | 57.078192 | 7.948273 | 2.0 | 17.019 | 2 | 43.444 | 17.161 | 33.595 | 2 |
| 2025-09-08T17:18:00 | 57.077846 | 7.948615 | 2.0 | 17.036 | 2 | 43.458 | 17.183 | 33.589 | 2 |
| 2025-09-08T17:19:00 | 57.077509 | 7.948984 | 2.0 | 17.069 | 2 | 43.466 | 17.196 | 33.585 | 2 |
| 2025-09-08T17:20:00 | 57.077172 | 7.949386 | 2.0 | 17.131 | 2 | 43.481 | 17.247 | 33.556 | 2 |
| 2025-09-08T17:21:00 | 57.076824 | 7.949818 | 2.0 | 17.101 | 2 | 43.500 | 17.282 | 33.543 | 2 |
| 2025-09-08T17:22:00 | 57.076463 | 7.950248 | 2.0 | 17.124 | 2 | 43.479 | 17.264 | 33.540 | 2 |
| 2025-09-08T17:23:00 | 57.076114 | 7.950703 | 2.0 | 17.104 | 2 | 43.489 | 17.277 | 33.538 | 2 |
| 2025-09-08T17:24:00 | 57.075790 | 7.951128 | 2.0 | 17.114 | 2 | 43.483 | 17.263 | 33.544 | 2 |
| 2025-09-08T17:25:00 | 57.075449 | 7.951538 | 2.0 | 17.106 | 2 | 43.484 | 17.271 | 33.538 | 2 |
| 2025-09-08T17:26:00 | 57.075100 | 7.951927 | 2.0 | 17.107 | 2 | 43.480 | 17.266 | 33.539 | 2 |
| 2025-09-08T17:27:00 | 57.074725 | 7.952277 | 2.0 | 17.112 | 2 | 43.477 | 17.264 | 33.538 | 2 |
| 2025-09-08T17:28:00 | 57.074326 | 7.952670 | 2.0 | 17.134 | 2 | 43.480 | 17.281 | 33.527 | 2 |
| 2025-09-08T17:29:00 | 57.073942 | 7.953096 | 2.0 | 17.158 | 2 | 43.490 | 17.299 | 33.520 | 2 |
| 2025-09-08T17:30:00 | 57.073568 | 7.953538 | 2.0 | 17.159 | 2 | 43.496 | 17.315 | 33.512 | 2 |
| 2025-09-08T17:31:00 | 57.073199 | 7.953982 | 2.0 | 17.151 | 2 | 43.495 | 17.317 | 33.510 | 2 |
| 2025-09-08T17:32:00 | 57.072832 | 7.954401 | 2.0 | 17.158 | 2 | 43.491 | 17.311 | 33.511 | 2 |
| 2025-09-08T17:33:00 | 57.072493 | 7.954842 | 2.0 | 17.142 | 2 | 43.490 | 17.316 | 33.506 | 2 |
| 2025-09-08T17:34:00 | 57.072154 | 7.955231 | 2.0 | 17.161 | 2 | 43.482 | 17.299 | 33.513 | 2 |
| 2025-09-08T17:35:00 | 57.071797 | 7.955611 | 2.0 | 17.170 | 2 | 43.484 | 17.324 | 33.494 | 2 |
| 2025-09-08T17:36:00 | 57.071448 | 7.956016 | 2.0 | 17.162 | 2 | 43.488 | 17.329 | 33.494 | 2 |
| 2025-09-08T17:37:00 | 57.071107 | 7.956437 | 2.0 | 17.145 | 2 | 43.485 | 17.317 | 33.501 | 2 |
| 2025-09-08T17:38:00 | 57.070772 | 7.956816 | 2.0 | 17.149 | 2 | 43.475 | 17.304 | 33.503 | 2 |
| 2025-09-08T17:39:00 | 57.070470 | 7.957207 | 2.0 | 17.156 | 2 | 43.474 | 17.309 | 33.498 | 2 |
| 2025-09-08T17:40:00 | 57.070154 | 7.957581 | 2.0 | 17.204 | 2 | 43.479 | 17.326 | 33.488 | 2 |
| 2025-09-08T17:41:00 | 57.069812 | 7.957967 | 2.0 | 17.230 | 2 | 43.496 | 17.365 | 33.471 | 2 |
| 2025-09-08T17:42:00 | 57.069461 | 7.958373 | 2.0 | 17.177 | 2 | 43.505 | 17.374 | 33.471 | 2 |
| 2025-09-08T17:43:00 | 57.069085 | 7.958771 | 2.0 | 17.189 | 2 | 43.488 | 17.341 | 33.484 | 2 |
| 2025-09-08T17:44:00 | 57.068690 | 7.959174 | 2.0 | 17.187 | 2 | 43.488 | 17.351 | 33.475 | 2 |
| 2025-09-08T17:45:00 | 57.068294 | 7.959579 | 2.0 | 17.134 | 2 | 43.481 | 17.341 | 33.478 | 2 |
| 2025-09-08T17:46:00 | 57.067914 | 7.959949 | 2.0 | 17.135 | 2 | 43.458 | 17.293 | 33.498 | 2 |
| 2025-09-08T17:47:00 | 57.067535 | 7.960328 | 2.0 | 17.123 | 2 | 43.456 | 17.304 | 33.487 | 2 |
| 2025-09-08T17:48:00 | 57.067137 | 7.960655 | 2.0 | 17.112 | 2 | 43.422 | 17.248 | 33.504 | 2 |
| 2025-09-08T17:49:00 | 57.066749 | 7.960990 | 2.0 | 17.340 | 2 | 43.437 | 17.310 | 33.465 | 2 |
| 2025-09-08T17:50:00 | 57.066376 | 7.961340 | 2.0 | 17.277 | 2 | 43.525 | 17.467 | 33.411 | 2 |
| 2025-09-08T17:51:00 | 57.066012 | 7.961646 | 2.0 | 17.261 | 2 | 43.507 | 17.417 | 33.437 | 2 |
| 2025-09-08T17:52:00 | 57.065663 | 7.961960 | 2.0 | 17.370 | 2 | 43.506 | 17.426 | 33.429 | 2 |
| 2025-09-08T17:53:00 | 57.065300 | 7.962313 | 2.0 | 17.395 | 2 | 43.549 | 17.523 | 33.386 | 2 |
| 2025-09-08T17:54:00 | 57.064942 | 7.962661 | 2.0 | 17.405 | 2 | 43.567 | 17.554 | 33.376 | 2 |
| 2025-09-08T17:55:00 | 57.064558 | 7.963005 | 2.0 | 17.413 | 2 | 43.570 | 17.562 | 33.372 | 2 |
| 2025-09-08T17:56:00 | 57.064181 | 7.963355 | 2.0 | 17.407 | 2 | 43.571 | 17.566 | 33.369 | 2 |
| 2025-09-08T17:57:00 | 57.063774 | 7.963715 | 2.0 | 17.406 | 2 | 43.569 | 17.563 | 33.370 | 2 |
| 2025-09-08T17:58:00 | 57.063352 | 7.964104 | 2.0 | 17.411 | 2 | 43.566 | 17.565 | 33.366 | 2 |
| 2025-09-08T17:59:00 | 57.062928 | 7.964498 | 2.0 | 17.422 | 2 | 43.566 | 17.572 | 33.360 | 2 |
| 2025-09-08T18:00:00 | 57.062549 | 7.964884 | 2.0 | 17.428 | 2 | 43.568 | 17.581 | 33.355 | 2 |
| 2025-09-08T18:01:00 | 57.062193 | 7.965258 | 2.0 | 17.439 | 2 | 43.569 | 17.588 | 33.350 | 2 |
| 2025-09-08T18:02:00 | 57.061860 | 7.965605 | 2.0 | 17.449 | 2 | 43.569 | 17.599 | 33.341 | 2 |
| 2025-09-08T18:03:00 | 57.061534 | 7.965948 | 2.0 | 17.454 | 2 | 43.570 | 17.608 | 33.334 | 2 |
| 2025-09-08T18:04:00 | 57.061239 | 7.966297 | 2.0 | 17.459 | 2 | 43.571 | 17.614 | 33.330 | 2 |
| 2025-09-08T18:05:00 | 57.060949 | 7.966616 | 2.0 | 17.475 | 2 | 43.573 | 17.621 | 33.326 | 2 |
| 2025-09-08T18:06:00 | 57.060678 | 7.966952 | 2.0 | 17.482 | 2 | 43.584 | 17.634 | 33.325 | 2 |
| 2025-09-08T18:07:00 | 57.060406 | 7.967270 | 2.0 | 17.484 | 2 | 43.591 | 17.641 | 33.325 | 2 |
| 2025-09-08T18:08:00 | 57.060119 | 7.967592 | 2.0 | 17.485 | 2 | 43.591 | 17.642 | 33.324 | 2 |
| 2025-09-08T18:09:00 | 57.059823 | 7.967916 | 2.0 | 17.486 | 2 | 43.592 | 17.644 | 33.323 | 2 |
| 2025-09-08T18:10:00 | 57.059523 | 7.968246 | 2.0 | 17.477 | 2 | 43.592 | 17.644 | 33.323 | 2 |
| 2025-09-08T18:11:00 | 57.059223 | 7.968572 | 2.0 | 17.459 | 2 | 43.584 | 17.633 | 33.326 | 2 |
| 2025-09-08T18:12:00 | 57.058923 | 7.968904 | 2.0 | 17.452 | 2 | 43.567 | 17.616 | 33.325 | 2 |
| 2025-09-08T18:13:00 | 57.058619 | 7.969232 | 2.0 | 17.442 | 2 | 43.557 | 17.611 | 33.320 | 2 |
| 2025-09-08T18:14:00 | 57.058300 | 7.969567 | 2.0 | 17.436 | 2 | 43.547 | 17.601 | 33.320 | 2 |
| 2025-09-08T18:15:00 | 57.057972 | 7.969895 | 2.0 | 17.432 | 2 | 43.538 | 17.594 | 33.318 | 2 |
| 2025-09-08T18:16:00 | 57.057627 | 7.970250 | 2.0 | 17.429 | 2 | 43.535 | 17.591 | 33.318 | 2 |
| 2025-09-08T18:17:00 | 57.057277 | 7.970612 | 2.0 | 17.426 | 2 | 43.531 | 17.588 | 33.317 | 2 |
| 2025-09-08T18:18:00 | 57.056926 | 7.970984 | 2.0 | 17.425 | 2 | 43.527 | 17.585 | 33.316 | 2 |
| 2025-09-08T18:19:00 | 57.056578 | 7.971346 | 2.0 | 17.422 | 2 | 43.527 | 17.584 | 33.317 | 2 |
| 2025-09-08T18:20:00 | 57.056227 | 7.971712 | 2.0 | 17.419 | 2 | 43.523 | 17.581 | 33.316 | 2 |
| 2025-09-08T18:21:00 | 57.055871 | 7.972078 | 2.0 | 17.414 | 2 | 43.517 | 17.578 | 33.313 | 2 |
| 2025-09-08T18:22:00 | 57.055509 | 7.972443 | 2.0 | 17.413 | 2 | 43.515 | 17.573 | 33.316 | 2 |
| 2025-09-08T18:23:00 | 57.055131 | 7.972824 | 2.0 | 17.413 | 2 | 43.516 | 17.573 | 33.317 | 2 |
| 2025-09-08T18:24:00 | 57.054767 | 7.973210 | 2.0 | 17.412 | 2 | 43.509 | 17.572 | 33.311 | 2 |
| 2025-09-08T18:25:00 | 57.054397 | 7.973594 | 2.0 | 17.409 | 2 | 43.507 | 17.572 | 33.310 | 2 |
| 2025-09-08T18:26:00 | 57.054024 | 7.973981 | 2.0 | 17.406 | 2 | 43.503 | 17.568 | 33.310 | 2 |
| 2025-09-08T18:27:00 | 57.053650 | 7.974375 | 2.0 | 17.404 | 2 | 43.501 | 17.565 | 33.310 | 2 |
| 2025-09-08T18:28:00 | 57.053290 | 7.974761 | 2.0 | 17.394 | 2 | 43.498 | 17.563 | 33.309 | 2 |
| 2025-09-08T18:29:00 | 57.052939 | 7.975113 | 2.0 | 17.386 | 2 | 43.489 | 17.553 | 33.310 | 2 |
| 2025-09-08T18:30:00 | 57.052578 | 7.975465 | 2.0 | 17.381 | 2 | 43.479 | 17.545 | 33.308 | 2 |
| 2025-09-08T18:31:00 | 57.052218 | 7.975848 | 2.0 | 17.375 | 2 | 43.473 | 17.541 | 33.306 | 2 |
| 2025-09-08T18:32:00 | 57.051862 | 7.976204 | 2.0 | 17.371 | 2 | 43.467 | 17.533 | 33.307 | 2 |
| 2025-09-08T18:33:00 | 57.051511 | 7.976582 | 2.0 | 17.372 | 2 | 43.458 | 17.531 | 33.301 | 2 |
| 2025-09-08T18:34:00 | 57.051149 | 7.976973 | 2.0 | 17.371 | 2 | 43.459 | 17.533 | 33.301 | 2 |
| 2025-09-08T18:35:00 | 57.050773 | 7.977341 | 2.0 | 17.363 | 2 | 43.459 | 17.531 | 33.302 | 2 |
| 2025-09-08T18:36:00 | 57.050396 | 7.977704 | 2.0 | 17.357 | 2 | 43.453 | 17.522 | 33.304 | 2 |
| 2025-09-08T18:37:00 | 57.050010 | 7.978069 | 2.0 | 17.348 | 2 | 43.446 | 17.516 | 33.303 | 2 |
| 2025-09-08T18:38:00 | 57.049641 | 7.978429 | 2.0 | 17.336 | 2 | 43.438 | 17.507 | 33.304 | 2 |
| 2025-09-08T18:39:00 | 57.049278 | 7.978769 | 2.0 | 17.336 | 2 | 43.429 | 17.497 | 33.304 | 2 |
| 2025-09-08T18:40:00 | 57.048899 | 7.979097 | 2.0 | 17.339 | 2 | 43.427 | 17.497 | 33.303 | 2 |
| 2025-09-08T18:41:00 | 57.048517 | 7.979422 | 2.0 | 17.326 | 2 | 43.427 | 17.497 | 33.303 | 2 |
| 2025-09-08T18:42:00 | 57.048145 | 7.979722 | 2.0 | 17.330 | 2 | 43.419 | 17.488 | 33.303 | 2 |
| 2025-09-08T18:43:00 | 57.047778 | 7.980041 | 2.0 | 17.365 | 2 | 43.423 | 17.498 | 33.298 | 2 |
| 2025-09-08T18:44:00 | 57.047393 | 7.980371 | 2.0 | 17.366 | 2 | 43.444 | 17.522 | 33.297 | 2 |
| 2025-09-08T18:45:00 | 57.047026 | 7.980707 | 2.0 | 17.362 | 2 | 43.450 | 17.530 | 33.295 | 2 |
| 2025-09-08T18:46:00 | 57.046691 | 7.981037 | 2.0 | 17.337 | 2 | 43.439 | 17.514 | 33.299 | 2 |
| 2025-09-08T18:47:00 | 57.046343 | 7.981315 | 2.0 | 17.334 | 2 | 43.424 | 17.499 | 33.298 | 2 |
| 2025-09-08T18:48:00 | 57.045983 | 7.981616 | 2.0 | 17.348 | 2 | 43.418 | 17.491 | 33.300 | 2 |
| 2025-09-08T18:49:00 | 57.045636 | 7.981927 | 2.0 | 17.371 | 2 | 43.432 | 17.512 | 33.295 | 2 |
| 2025-09-08T18:50:00 | 57.045314 | 7.982187 | 2.0 | 17.386 | 2 | 43.449 | 17.532 | 33.293 | 2 |
| 2025-09-08T18:51:00 | 57.045096 | 7.982358 | 2.0 | 17.396 | 2 | 43.462 | 17.546 | 33.292 | 2 |
| 2025-09-08T18:52:00 | 57.044989 | 7.982441 | 2.0 | 17.398 | 2 | 43.469 | 17.554 | 33.292 | 2 |
| 2025-09-08T18:53:00 | 57.044951 | 7.982433 | 2.0 | 17.397 | 2 | 43.471 | 17.557 | 33.291 | 2 |
| 2025-09-08T18:54:00 | 57.044980 | 7.982380 | 2.0 | 17.395 | 2 | 43.466 | 17.557 | 33.287 | 2 |
| 2025-09-08T18:55:00 | 57.045044 | 7.982316 | 2.0 | 17.392 | 2 | 43.466 | 17.554 | 33.289 | 2 |
| 2025-09-08T18:56:00 | 57.044654 | 7.981968 | 2.0 | 17.361 | 2 | 43.456 | 17.547 | 33.287 | 2 |
| 2025-09-08T18:57:00 | 57.043802 | 7.980242 | 2.0 | 17.348 | 2 | 43.428 | 17.519 | 33.286 | 2 |
| 2025-09-08T18:58:00 | 57.044697 | 7.977402 | 2.0 | 17.296 | 2 | 43.408 | 17.493 | 33.290 | 2 |
| 2025-09-08T18:59:00 | 57.045843 | 7.973404 | 2.0 | 17.341 | 2 | 43.391 | 17.466 | 33.297 | 2 |
| 2025-09-08T19:00:00 | 57.047059 | 7.971646 | 2.0 | 17.358 | 2 | 43.441 | 17.505 | 33.308 | 2 |
| 2025-09-08T19:01:00 | 57.047715 | 7.972292 | 2.0 | 17.357 | 2 | 43.467 | 17.516 | 33.321 | 2 |
| 2025-09-08T19:02:00 | 57.048092 | 7.972829 | 2.0 | 17.363 | 2 | 43.470 | 17.517 | 33.323 | 2 |
| 2025-09-08T19:03:00 | 57.048373 | 7.973126 | 2.0 | 17.365 | 2 | 43.472 | 17.522 | 33.321 | 2 |
| 2025-09-08T19:04:00 | 57.048606 | 7.973324 | 2.0 | 17.365 | 2 | 43.473 | 17.523 | 33.321 | 2 |
| 2025-09-08T19:05:00 | 57.048760 | 7.973401 | 2.0 | 17.363 | 2 | 43.472 | 17.524 | 33.319 | 2 |
| 2025-09-08T19:06:00 | 57.048859 | 7.973457 | 2.0 | 17.360 | 2 | 43.472 | 17.521 | 33.322 | 2 |
| 2025-09-08T19:07:00 | 57.048933 | 7.973582 | 2.0 | 17.360 | 2 | 43.471 | 17.520 | 33.322 | 2 |
| 2025-09-08T19:08:00 | 57.048974 | 7.973774 | 2.0 | 17.357 | 2 | 43.469 | 17.519 | 33.321 | 2 |
| 2025-09-08T19:09:00 | 57.048991 | 7.973998 | 2.0 | 17.356 | 2 | 43.466 | 17.517 | 33.320 | 2 |
| 2025-09-08T19:10:00 | 57.049049 | 7.974234 | 2.0 | 17.354 | 2 | 43.464 | 17.516 | 33.319 | 2 |
| 2025-09-08T19:11:00 | 57.049148 | 7.974359 | 2.0 | 17.350 | 2 | 43.461 | 17.514 | 33.318 | 2 |
| 2025-09-08T19:12:00 | 57.049257 | 7.974351 | 2.0 | 17.349 | 2 | 43.458 | 17.511 | 33.318 | 2 |
| 2025-09-08T19:13:00 | 57.049384 | 7.974268 | 2.0 | 17.346 | 2 | 43.457 | 17.509 | 33.319 | 2 |
| 2025-09-08T19:14:00 | 57.049550 | 7.974146 | 2.0 | 17.339 | 2 | 43.457 | 17.505 | 33.322 | 2 |
| 2025-09-08T19:15:00 | 57.049713 | 7.974007 | 2.0 | 17.325 | 2 | 43.458 | 17.499 | 33.328 | 2 |
| 2025-09-08T19:16:00 | 57.049883 | 7.973891 | 2.0 | 17.321 | 2 | 43.456 | 17.484 | 33.338 | 2 |
| 2025-09-08T19:17:00 | 57.050020 | 7.973879 | 2.0 | 17.318 | 2 | 43.455 | 17.481 | 33.340 | 2 |
| 2025-09-08T19:18:00 | 57.050041 | 7.974107 | 2.0 | 17.321 | 2 | 43.453 | 17.476 | 33.342 | 2 |
| 2025-09-08T19:19:00 | 57.049961 | 7.973553 | 2.0 | 17.344 | 2 | 43.452 | 17.487 | 33.332 | 2 |
| 2025-09-08T19:20:00 | 57.049703 | 7.971298 | 2.0 | 17.345 | 2 | 43.464 | 17.504 | 33.329 | 2 |
| 2025-09-08T19:21:00 | 57.049180 | 7.967681 | 2.0 | 17.367 | 2 | 43.476 | 17.507 | 33.337 | 2 |
| 2025-09-08T19:22:00 | 57.048764 | 7.963212 | 2.0 | 17.339 | 2 | 43.504 | 17.526 | 33.345 | 2 |
| 2025-09-08T19:23:00 | 57.048772 | 7.958353 | 2.0 | 17.314 | 2 | 43.506 | 17.499 | 33.369 | 2 |
| 2025-09-08T19:24:00 | 57.049180 | 7.953378 | 2.0 | 17.295 | 2 | 43.504 | 17.477 | 33.385 | 2 |
| 2025-09-08T19:25:00 | 57.049939 | 7.948451 | 2.0 | 17.241 | 2 | 43.480 | 17.452 | 33.385 | 2 |
| 2025-09-08T19:26:00 | 57.051186 | 7.943764 | 2.0 | 17.211 | 2 | 43.431 | 17.396 | 33.389 | 2 |
| 2025-09-08T19:27:00 | 57.052859 | 7.939457 | 2.0 | 17.193 | 2 | 43.411 | 17.378 | 33.387 | 2 |
| 2025-09-08T19:28:00 | 57.054787 | 7.935432 | 2.0 | 17.119 | 2 | 43.409 | 17.342 | 33.415 | 2 |
| 2025-09-08T19:29:00 | 57.057167 | 7.932179 | 2.0 | 17.104 | 2 | 43.395 | 17.279 | 33.455 | 2 |
| 2025-09-08T19:30:00 | 57.059793 | 7.929890 | 2.0 | 17.264 | 2 | 43.423 | 17.301 | 33.461 | 2 |
| 2025-09-08T19:31:00 | 57.062473 | 7.928229 | 2.0 | 17.296 | 2 | 43.484 | 17.429 | 33.408 | 2 |
| 2025-09-08T19:32:00 | 57.065233 | 7.927231 | 2.0 | 17.250 | 2 | 43.508 | 17.444 | 33.416 | 2 |
| 2025-09-08T19:33:00 | 57.068055 | 7.927293 | 2.0 | 17.186 | 2 | 43.503 | 17.401 | 33.447 | 2 |
| 2025-09-08T19:34:00 | 57.070826 | 7.928405 | 2.0 | 17.140 | 2 | 43.502 | 17.346 | 33.492 | 2 |
| 2025-09-08T19:35:00 | 57.073473 | 7.930250 | 2.0 | 17.107 | 2 | 43.499 | 17.294 | 33.532 | 2 |
| 2025-09-08T19:36:00 | 57.076009 | 7.932529 | 2.0 | 17.016 | 2 | 43.490 | 17.237 | 33.572 | 2 |
| 2025-09-08T19:37:00 | 57.078022 | 7.935997 | 2.0 | 17.043 | 2 | 43.476 | 17.186 | 33.602 | 2 |
| 2025-09-08T19:38:00 | 57.079780 | 7.939900 | 2.0 | 17.123 | 2 | 43.483 | 17.228 | 33.573 | 2 |
| 2025-09-08T19:39:00 | 57.081375 | 7.944043 | 2.0 | 17.145 | 2 | 43.502 | 17.292 | 33.536 | 2 |
| 2025-09-08T19:40:00 | 57.082509 | 7.948585 | 2.0 | 17.138 | 2 | 43.484 | 17.302 | 33.513 | 2 |
| 2025-09-08T19:41:00 | 57.083083 | 7.953508 | 2.0 | 17.157 | 2 | 43.458 | 17.313 | 33.481 | 2 |
| 2025-09-08T19:42:00 | 57.083151 | 7.958527 | 2.0 | 17.091 | 2 | 43.449 | 17.297 | 33.487 | 2 |
| 2025-09-08T19:43:00 | 57.082679 | 7.963377 | 2.0 | 17.147 | 2 | 43.435 | 17.265 | 33.501 | 2 |
| 2025-09-08T19:44:00 | 57.082097 | 7.968268 | 2.0 | 17.184 | 2 | 43.448 | 17.313 | 33.472 | 2 |
| 2025-09-08T19:45:00 | 57.081018 | 7.972816 | 2.0 | 17.141 | 2 | 43.462 | 17.336 | 33.465 | 2 |
| 2025-09-08T19:46:00 | 57.079719 | 7.976352 | 2.0 | 17.204 | 2 | 43.440 | 17.318 | 33.461 | 2 |
| 2025-09-08T19:47:00 | 57.078622 | 7.979024 | 2.0 | 17.286 | 2 | 43.457 | 17.376 | 33.428 | 2 |
| 2025-09-08T19:48:00 | 57.077816 | 7.980881 | 2.0 | 17.312 | 2 | 43.483 | 17.445 | 33.394 | 2 |
| 2025-09-08T19:49:00 | 57.077157 | 7.982100 | 2.0 | 17.336 | 2 | 43.495 | 17.475 | 33.379 | 2 |
| 2025-09-08T19:50:00 | 57.076544 | 7.982741 | 2.0 | 17.340 | 2 | 43.503 | 17.495 | 33.370 | 2 |
| 2025-09-08T19:51:00 | 57.075683 | 7.983089 | 2.0 | 17.349 | 2 | 43.504 | 17.497 | 33.369 | 2 |
| 2025-09-08T19:52:00 | 57.074277 | 7.983534 | 2.0 | 17.345 | 2 | 43.507 | 17.506 | 33.364 | 2 |
| 2025-09-08T19:53:00 | 57.072570 | 7.984079 | 2.0 | 17.371 | 2 | 43.508 | 17.511 | 33.361 | 2 |
| 2025-09-08T19:54:00 | 57.070732 | 7.984611 | 2.0 | 17.374 | 2 | 43.512 | 17.531 | 33.348 | 2 |
| 2025-09-08T19:55:00 | 57.068859 | 7.984903 | 2.0 | 17.373 | 2 | 43.511 | 17.534 | 33.344 | 2 |
| 2025-09-08T19:56:00 | 57.066941 | 7.984952 | 2.0 | 17.368 | 2 | 43.507 | 17.532 | 33.343 | 2 |
| 2025-09-08T19:57:00 | 57.064980 | 7.984946 | 2.0 | 17.364 | 2 | 43.501 | 17.528 | 33.341 | 2 |
| 2025-09-08T19:58:00 | 57.063013 | 7.984701 | 2.0 | 17.356 | 2 | 43.490 | 17.525 | 33.334 | 2 |
| 2025-09-08T19:59:00 | 57.061058 | 7.984234 | 2.0 | 17.323 | 2 | 43.475 | 17.512 | 33.332 | 2 |
| 2025-09-08T20:00:00 | 57.059113 | 7.983465 | 2.0 | 17.299 | 2 | 43.448 | 17.483 | 33.332 | 2 |
| 2025-09-08T20:01:00 | 57.057268 | 7.982475 | 2.0 | 17.271 | 2 | 43.426 | 17.460 | 33.332 | 2 |
| 2025-09-08T20:02:00 | 57.055577 | 7.981255 | 2.0 | 17.246 | 2 | 43.392 | 17.428 | 33.329 | 2 |
| 2025-09-08T20:03:00 | 57.053953 | 7.979503 | 2.0 | 17.249 | 2 | 43.368 | 17.409 | 33.324 | 2 |
| 2025-09-08T20:04:00 | 57.053587 | 7.976807 | 2.0 | 17.319 | 2 | 43.368 | 17.418 | 33.317 | 2 |
| 2025-09-08T20:05:00 | 57.055155 | 7.975129 | 2.0 | 17.342 | 2 | 43.439 | 17.481 | 33.326 | 2 |
| 2025-09-08T20:06:00 | 57.057001 | 7.973317 | 2.0 | 17.328 | 2 | 43.472 | 17.499 | 33.340 | 2 |
| 2025-09-08T20:07:00 | 57.058913 | 7.971354 | 2.0 | 17.318 | 2 | 43.481 | 17.490 | 33.355 | 2 |
| 2025-09-08T20:08:00 | 57.060838 | 7.969277 | 2.0 | 17.307 | 2 | 43.489 | 17.477 | 33.372 | 2 |
| 2025-09-08T20:09:00 | 57.062776 | 7.967204 | 2.0 | 17.292 | 2 | 43.496 | 17.467 | 33.387 | 2 |
| 2025-09-08T20:10:00 | 57.064706 | 7.965116 | 2.0 | 17.275 | 2 | 43.491 | 17.451 | 33.395 | 2 |
| 2025-09-08T20:11:00 | 57.066639 | 7.963036 | 2.0 | 17.253 | 2 | 43.483 | 17.435 | 33.402 | 2 |
| 2025-09-08T20:12:00 | 57.068573 | 7.960959 | 2.0 | 17.176 | 2 | 43.463 | 17.404 | 33.410 | 2 |
| 2025-09-08T20:13:00 | 57.070521 | 7.958887 | 2.0 | 17.108 | 2 | 43.422 | 17.328 | 33.438 | 2 |
| 2025-09-08T20:14:00 | 57.072462 | 7.956812 | 2.0 | 17.105 | 2 | 43.397 | 17.273 | 33.462 | 2 |
| 2025-09-08T20:15:00 | 57.074401 | 7.954770 | 2.0 | 17.105 | 2 | 43.395 | 17.274 | 33.459 | 2 |
| 2025-09-08T20:16:00 | 57.076347 | 7.952753 | 2.0 | 17.081 | 2 | 43.393 | 17.261 | 33.468 | 2 |
| 2025-09-08T20:17:00 | 57.078298 | 7.950722 | 2.0 | 17.141 | 2 | 43.404 | 17.245 | 33.491 | 2 |
| 2025-09-08T20:18:00 | 57.080216 | 7.948573 | 2.0 | 17.223 | 2 | 43.454 | 17.325 | 33.468 | 2 |
| 2025-09-08T20:19:00 | 57.082144 | 7.946423 | 2.0 | 17.170 | 2 | 43.500 | 17.374 | 33.467 | 2 |
| 2025-09-08T20:20:00 | 57.084069 | 7.944273 | 2.0 | 17.081 | 2 | 43.501 | 17.319 | 33.513 | 2 |
| 2025-09-08T20:21:00 | 57.085962 | 7.942150 | 2.0 | 17.020 | 2 | 43.482 | 17.231 | 33.570 | 2 |
| 2025-09-08T20:22:00 | 57.087841 | 7.940036 | 2.0 | 16.903 | 2 | 43.462 | 17.171 | 33.602 | 2 |
| 2025-09-08T20:23:00 | 57.089702 | 7.937911 | 2.0 | 16.867 | 2 | 43.455 | 17.072 | 33.679 | 2 |
| 2025-09-08T20:24:00 | 57.091557 | 7.935811 | 2.0 | 16.851 | 2 | 43.462 | 17.033 | 33.718 | 2 |
| 2025-09-08T20:25:00 | 57.093411 | 7.933686 | 2.0 | 16.763 | 2 | 43.460 | 16.999 | 33.744 | 2 |
| 2025-09-08T20:26:00 | 57.095253 | 7.931554 | 2.0 | 16.731 | 2 | 43.448 | 16.933 | 33.789 | 2 |
| 2025-09-08T20:27:00 | 57.097060 | 7.929468 | 2.0 | 16.671 | 2 | 43.441 | 16.891 | 33.819 | 2 |
| 2025-09-08T20:28:00 | 57.098430 | 7.929001 | 2.0 | 16.644 | 2 | 43.413 | 16.832 | 33.844 | 2 |
| 2025-09-08T20:29:00 | 57.098905 | 7.929734 | 2.0 | 16.652 | 2 | 43.410 | 16.813 | 33.857 | 2 |
| 2025-09-08T20:30:00 | 57.099190 | 7.930238 | 2.0 | 16.661 | 2 | 43.413 | 16.818 | 33.856 | 2 |
| 2025-09-08T20:31:00 | 57.099425 | 7.930772 | 2.0 | 16.651 | 2 | 43.421 | 16.826 | 33.856 | 2 |
| 2025-09-08T20:32:00 | 57.099547 | 7.931362 | 2.0 | 16.660 | 2 | 43.414 | 16.816 | 33.858 | 2 |
| 2025-09-08T20:33:00 | 57.099629 | 7.931829 | 2.0 | 16.682 | 2 | 43.415 | 16.831 | 33.847 | 2 |
| 2025-09-08T20:34:00 | 57.099705 | 7.932218 | 2.0 | 16.683 | 2 | 43.420 | 16.845 | 33.839 | 2 |
| 2025-09-08T20:35:00 | 57.099826 | 7.932687 | 2.0 | 16.695 | 2 | 43.420 | 16.845 | 33.839 | 2 |
| 2025-09-08T20:36:00 | 57.099973 | 7.933225 | 2.0 | 16.708 | 2 | 43.422 | 16.864 | 33.825 | 2 |
| 2025-09-08T20:37:00 | 57.100086 | 7.933744 | 2.0 | 16.703 | 2 | 43.426 | 16.870 | 33.823 | 2 |
| 2025-09-08T20:38:00 | 57.100143 | 7.934170 | 2.0 | 16.704 | 2 | 43.425 | 16.864 | 33.828 | 2 |
| 2025-09-08T20:39:00 | 57.100114 | 7.934495 | 2.0 | 16.709 | 2 | 43.426 | 16.869 | 33.824 | 2 |
| 2025-09-08T20:40:00 | 57.100043 | 7.934780 | 2.0 | 16.703 | 2 | 43.427 | 16.870 | 33.824 | 2 |
| 2025-09-08T20:41:00 | 57.099956 | 7.935021 | 2.0 | 16.697 | 2 | 43.425 | 16.866 | 33.826 | 2 |
| 2025-09-08T20:42:00 | 57.099901 | 7.935221 | 2.0 | 16.702 | 2 | 43.423 | 16.861 | 33.828 | 2 |
| 2025-09-08T20:43:00 | 57.099882 | 7.935403 | 2.0 | 16.706 | 2 | 43.424 | 16.868 | 33.823 | 2 |
| 2025-09-08T20:44:00 | 57.099888 | 7.935551 | 2.0 | 16.692 | 2 | 43.424 | 16.867 | 33.824 | 2 |
| 2025-09-08T20:45:00 | 57.099951 | 7.935593 | 2.0 | 16.683 | 2 | 43.421 | 16.853 | 33.833 | 2 |
| 2025-09-08T20:46:00 | 57.100038 | 7.935575 | 2.0 | 16.699 | 2 | 43.418 | 16.851 | 33.832 | 2 |
| 2025-09-08T20:47:00 | 57.100105 | 7.935585 | 2.0 | 16.697 | 2 | 43.421 | 16.862 | 33.826 | 2 |
| 2025-09-08T20:48:00 | 57.100187 | 7.935602 | 2.0 | 16.695 | 2 | 43.422 | 16.858 | 33.830 | 2 |
| 2025-09-08T20:49:00 | 57.100373 | 7.935194 | 2.0 | 16.677 | 2 | 43.423 | 16.856 | 33.833 | 2 |
| 2025-09-08T20:50:00 | 57.101217 | 7.935110 | 2.0 | 16.663 | 2 | 43.419 | 16.836 | 33.846 | 2 |
| 2025-09-08T20:51:00 | 57.101984 | 7.936801 | 2.0 | 16.688 | 2 | 43.411 | 16.832 | 33.842 | 2 |
| 2025-09-08T20:52:00 | 57.102470 | 7.939711 | 2.0 | 16.722 | 2 | 43.415 | 16.852 | 33.829 | 2 |
| 2025-09-08T20:53:00 | 57.102877 | 7.943990 | 2.0 | 16.768 | 2 | 43.423 | 16.894 | 33.801 | 2 |
| 2025-09-08T20:54:00 | 57.103669 | 7.948929 | 2.0 | 16.808 | 2 | 43.429 | 16.935 | 33.771 | 2 |
| 2025-09-08T20:55:00 | 57.104488 | 7.954077 | 2.0 | 16.826 | 2 | 43.423 | 16.976 | 33.732 | 2 |
Only the first 2000 rows were shown. To view the complete dataset, download it as tab-delimited text. You can still view the full matrix in your browser, but be aware that this may crash the browser due to the huge size.
